<?xml version="1.0" encoding="UTF-8" standalone="no" ?>
<gpx xmlns="http://www.topografix.com/GPX/1/1" xmlns:xsi="http://www.w3.org/2001/XMLSchema-instance" xsi:schemaLocation="http://www.topografix.com/GPX/1/1 http://www.topografix.com/GPX/1/1/gpx.xsd" version="1.1" creator="VisuGPX - https://www.visugpx.com">
  <metadata>
    <name>Gorges du Chassezac</name>
    <desc><![CDATA[Boucle au départ de la Garde Guérin avec descente dans les gorges du Chassezac et traversée de la passerelle.
Passage sous la voie ferrée au retour puis le golf et belvédères]]></desc>
  </metadata>
  <trk>
    <name><![CDATA[2026-03-21 14:58:00]]></name>
    <trkseg>
      <trkpt lat="44.47779" lon="3.93379">
        <ele>868.21</ele>
        <time>2026-03-21T08:09:02Z</time>
      </trkpt>
      <trkpt lat="44.47779" lon="3.93379">
        <ele>868.69</ele>
        <time>2026-03-21T08:09:14Z</time>
      </trkpt>
      <trkpt lat="44.47779" lon="3.9338">
        <ele>867.25</ele>
        <time>2026-03-21T08:09:17Z</time>
      </trkpt>
      <trkpt lat="44.47778" lon="3.93378">
        <ele>867.73</ele>
        <time>2026-03-21T08:09:39Z</time>
      </trkpt>
      <trkpt lat="44.47778" lon="3.93379">
        <ele>867.25</ele>
        <time>2026-03-21T08:09:53Z</time>
      </trkpt>
      <trkpt lat="44.47777" lon="3.9338">
        <ele>861.48</ele>
        <time>2026-03-21T08:09:54Z</time>
      </trkpt>
      <trkpt lat="44.47777" lon="3.93381">
        <ele>870.61</ele>
        <time>2026-03-21T08:09:55Z</time>
      </trkpt>
      <trkpt lat="44.47776" lon="3.93382">
        <ele>870.61</ele>
        <time>2026-03-21T08:09:56Z</time>
      </trkpt>
      <trkpt lat="44.47776" lon="3.93384">
        <ele>868.69</ele>
        <time>2026-03-21T08:09:58Z</time>
      </trkpt>
      <trkpt lat="44.47774" lon="3.93388">
        <ele>865.32</ele>
        <time>2026-03-21T08:10:02Z</time>
      </trkpt>
      <trkpt lat="44.47773" lon="3.93388">
        <ele>865.32</ele>
        <time>2026-03-21T08:10:03Z</time>
      </trkpt>
      <trkpt lat="44.47772" lon="3.9339">
        <ele>870.61</ele>
        <time>2026-03-21T08:10:04Z</time>
      </trkpt>
      <trkpt lat="44.47769" lon="3.93395">
        <ele>868.69</ele>
        <time>2026-03-21T08:10:08Z</time>
      </trkpt>
      <trkpt lat="44.47768" lon="3.93395">
        <ele>868.21</ele>
        <time>2026-03-21T08:10:10Z</time>
      </trkpt>
      <trkpt lat="44.47764" lon="3.93397">
        <ele>864.36</ele>
        <time>2026-03-21T08:10:14Z</time>
      </trkpt>
      <trkpt lat="44.47764" lon="3.93397">
        <ele>869.17</ele>
        <time>2026-03-21T08:10:15Z</time>
      </trkpt>
      <trkpt lat="44.47764" lon="3.93397">
        <ele>869.17</ele>
        <time>2026-03-21T08:10:16Z</time>
      </trkpt>
      <trkpt lat="44.47763" lon="3.93398">
        <ele>864.36</ele>
        <time>2026-03-21T08:10:20Z</time>
      </trkpt>
      <trkpt lat="44.47763" lon="3.93398">
        <ele>869.65</ele>
        <time>2026-03-21T08:10:21Z</time>
      </trkpt>
      <trkpt lat="44.47763" lon="3.93398">
        <ele>869.65</ele>
        <time>2026-03-21T08:10:22Z</time>
      </trkpt>
      <trkpt lat="44.47762" lon="3.93398">
        <ele>869.65</ele>
        <time>2026-03-21T08:10:23Z</time>
      </trkpt>
      <trkpt lat="44.47739" lon="3.93405">
        <ele>868.21</ele>
        <time>2026-03-21T08:10:44Z</time>
      </trkpt>
      <trkpt lat="44.47718" lon="3.93427">
        <ele>867.73</ele>
        <time>2026-03-21T08:11:06Z</time>
      </trkpt>
      <trkpt lat="44.47706" lon="3.9346">
        <ele>867.73</ele>
        <time>2026-03-21T08:11:28Z</time>
      </trkpt>
      <trkpt lat="44.47704" lon="3.93466">
        <ele>869.17</ele>
        <time>2026-03-21T08:11:32Z</time>
      </trkpt>
      <trkpt lat="44.47694" lon="3.93499">
        <ele>869.65</ele>
        <time>2026-03-21T08:11:55Z</time>
      </trkpt>
      <trkpt lat="44.47687" lon="3.93535">
        <ele>870.13</ele>
        <time>2026-03-21T08:12:17Z</time>
      </trkpt>
      <trkpt lat="44.4768" lon="3.93559">
        <ele>870.13</ele>
        <time>2026-03-21T08:12:35Z</time>
      </trkpt>
      <trkpt lat="44.47659" lon="3.93576">
        <ele>870.13</ele>
        <time>2026-03-21T08:12:53Z</time>
      </trkpt>
      <trkpt lat="44.47645" lon="3.93594">
        <ele>869.17</ele>
        <time>2026-03-21T08:13:09Z</time>
      </trkpt>
      <trkpt lat="44.47636" lon="3.93618">
        <ele>869.17</ele>
        <time>2026-03-21T08:13:26Z</time>
      </trkpt>
      <trkpt lat="44.47633" lon="3.93632">
        <ele>868.69</ele>
        <time>2026-03-21T08:13:35Z</time>
      </trkpt>
      <trkpt lat="44.47631" lon="3.93638">
        <ele>868.69</ele>
        <time>2026-03-21T08:13:39Z</time>
      </trkpt>
      <trkpt lat="44.47619" lon="3.93669">
        <ele>868.21</ele>
        <time>2026-03-21T08:14:00Z</time>
      </trkpt>
      <trkpt lat="44.47608" lon="3.93692">
        <ele>868.21</ele>
        <time>2026-03-21T08:14:17Z</time>
      </trkpt>
      <trkpt lat="44.47597" lon="3.93714">
        <ele>868.21</ele>
        <time>2026-03-21T08:14:35Z</time>
      </trkpt>
      <trkpt lat="44.47592" lon="3.93722">
        <ele>867.73</ele>
        <time>2026-03-21T08:14:49Z</time>
      </trkpt>
      <trkpt lat="44.47593" lon="3.93721">
        <ele>869.17</ele>
        <time>2026-03-21T08:14:54Z</time>
      </trkpt>
      <trkpt lat="44.47591" lon="3.9372">
        <ele>869.17</ele>
        <time>2026-03-21T08:15:00Z</time>
      </trkpt>
      <trkpt lat="44.47588" lon="3.93725">
        <ele>869.17</ele>
        <time>2026-03-21T08:15:04Z</time>
      </trkpt>
      <trkpt lat="44.47575" lon="3.93757">
        <ele>869.17</ele>
        <time>2026-03-21T08:15:26Z</time>
      </trkpt>
      <trkpt lat="44.47563" lon="3.93777">
        <ele>869.17</ele>
        <time>2026-03-21T08:15:43Z</time>
      </trkpt>
      <trkpt lat="44.47552" lon="3.93802">
        <ele>869.17</ele>
        <time>2026-03-21T08:16:02Z</time>
      </trkpt>
      <trkpt lat="44.47539" lon="3.93826">
        <ele>869.65</ele>
        <time>2026-03-21T08:16:22Z</time>
      </trkpt>
      <trkpt lat="44.47534" lon="3.93836">
        <ele>869.65</ele>
        <time>2026-03-21T08:16:41Z</time>
      </trkpt>
      <trkpt lat="44.47523" lon="3.93852">
        <ele>869.65</ele>
        <time>2026-03-21T08:16:56Z</time>
      </trkpt>
      <trkpt lat="44.47507" lon="3.93875">
        <ele>870.13</ele>
        <time>2026-03-21T08:17:16Z</time>
      </trkpt>
      <trkpt lat="44.47494" lon="3.93894">
        <ele>870.13</ele>
        <time>2026-03-21T08:17:33Z</time>
      </trkpt>
      <trkpt lat="44.47479" lon="3.9392">
        <ele>870.61</ele>
        <time>2026-03-21T08:17:52Z</time>
      </trkpt>
      <trkpt lat="44.47465" lon="3.93942">
        <ele>870.61</ele>
        <time>2026-03-21T08:18:10Z</time>
      </trkpt>
      <trkpt lat="44.47453" lon="3.93966">
        <ele>871.09</ele>
        <time>2026-03-21T08:18:28Z</time>
      </trkpt>
      <trkpt lat="44.47439" lon="3.93993">
        <ele>871.09</ele>
        <time>2026-03-21T08:18:49Z</time>
      </trkpt>
      <trkpt lat="44.4744" lon="3.93994">
        <ele>871.57</ele>
        <time>2026-03-21T08:18:51Z</time>
      </trkpt>
      <trkpt lat="44.47421" lon="3.94024">
        <ele>871.57</ele>
        <time>2026-03-21T08:19:14Z</time>
      </trkpt>
      <trkpt lat="44.47407" lon="3.9405">
        <ele>871.57</ele>
        <time>2026-03-21T08:19:34Z</time>
      </trkpt>
      <trkpt lat="44.47392" lon="3.9408">
        <ele>871.57</ele>
        <time>2026-03-21T08:19:56Z</time>
      </trkpt>
      <trkpt lat="44.47381" lon="3.94101">
        <ele>870.13</ele>
        <time>2026-03-21T08:20:12Z</time>
      </trkpt>
      <trkpt lat="44.47367" lon="3.94125">
        <ele>870.13</ele>
        <time>2026-03-21T08:20:31Z</time>
      </trkpt>
      <trkpt lat="44.47353" lon="3.94148">
        <ele>869.65</ele>
        <time>2026-03-21T08:20:50Z</time>
      </trkpt>
      <trkpt lat="44.47338" lon="3.94174">
        <ele>869.65</ele>
        <time>2026-03-21T08:21:10Z</time>
      </trkpt>
      <trkpt lat="44.47327" lon="3.94194">
        <ele>868.21</ele>
        <time>2026-03-21T08:21:26Z</time>
      </trkpt>
      <trkpt lat="44.47313" lon="3.9422">
        <ele>868.21</ele>
        <time>2026-03-21T08:21:45Z</time>
      </trkpt>
      <trkpt lat="44.47301" lon="3.94245">
        <ele>867.73</ele>
        <time>2026-03-21T08:22:03Z</time>
      </trkpt>
      <trkpt lat="44.47288" lon="3.94271">
        <ele>866.77</ele>
        <time>2026-03-21T08:22:21Z</time>
      </trkpt>
      <trkpt lat="44.47276" lon="3.943">
        <ele>866.29</ele>
        <time>2026-03-21T08:22:41Z</time>
      </trkpt>
      <trkpt lat="44.4727" lon="3.94325">
        <ele>865.8</ele>
        <time>2026-03-21T08:22:57Z</time>
      </trkpt>
      <trkpt lat="44.47261" lon="3.94349">
        <ele>864.36</ele>
        <time>2026-03-21T08:23:13Z</time>
      </trkpt>
      <trkpt lat="44.47257" lon="3.94361">
        <ele>864.36</ele>
        <time>2026-03-21T08:23:22Z</time>
      </trkpt>
      <trkpt lat="44.47255" lon="3.94363">
        <ele>863.88</ele>
        <time>2026-03-21T08:23:27Z</time>
      </trkpt>
      <trkpt lat="44.47254" lon="3.94374">
        <ele>863.88</ele>
        <time>2026-03-21T08:23:35Z</time>
      </trkpt>
      <trkpt lat="44.47251" lon="3.94383">
        <ele>863.4</ele>
        <time>2026-03-21T08:23:42Z</time>
      </trkpt>
      <trkpt lat="44.47241" lon="3.94405">
        <ele>862.92</ele>
        <time>2026-03-21T08:23:58Z</time>
      </trkpt>
      <trkpt lat="44.47229" lon="3.94424">
        <ele>861.96</ele>
        <time>2026-03-21T08:24:13Z</time>
      </trkpt>
      <trkpt lat="44.47222" lon="3.94433">
        <ele>861</ele>
        <time>2026-03-21T08:24:24Z</time>
      </trkpt>
      <trkpt lat="44.47224" lon="3.94443">
        <ele>860.52</ele>
        <time>2026-03-21T08:24:31Z</time>
      </trkpt>
      <trkpt lat="44.47219" lon="3.94471">
        <ele>860.52</ele>
        <time>2026-03-21T08:24:50Z</time>
      </trkpt>
      <trkpt lat="44.47209" lon="3.94492">
        <ele>859.56</ele>
        <time>2026-03-21T08:25:06Z</time>
      </trkpt>
      <trkpt lat="44.47206" lon="3.94509">
        <ele>859.56</ele>
        <time>2026-03-21T08:25:22Z</time>
      </trkpt>
      <trkpt lat="44.47208" lon="3.9451">
        <ele>859.56</ele>
        <time>2026-03-21T08:25:37Z</time>
      </trkpt>
      <trkpt lat="44.47208" lon="3.9451">
        <ele>859.56</ele>
        <time>2026-03-21T08:25:38Z</time>
      </trkpt>
      <trkpt lat="44.47222" lon="3.94519">
        <ele>859.56</ele>
        <time>2026-03-21T08:25:54Z</time>
      </trkpt>
      <trkpt lat="44.47228" lon="3.94527">
        <ele>861</ele>
        <time>2026-03-21T08:26:01Z</time>
      </trkpt>
      <trkpt lat="44.47246" lon="3.94536">
        <ele>861.96</ele>
        <time>2026-03-21T08:26:17Z</time>
      </trkpt>
      <trkpt lat="44.47257" lon="3.94548">
        <ele>862.44</ele>
        <time>2026-03-21T08:26:29Z</time>
      </trkpt>
      <trkpt lat="44.47273" lon="3.94561">
        <ele>862.92</ele>
        <time>2026-03-21T08:26:47Z</time>
      </trkpt>
      <trkpt lat="44.47279" lon="3.94568">
        <ele>861.48</ele>
        <time>2026-03-21T08:26:53Z</time>
      </trkpt>
      <trkpt lat="44.47285" lon="3.94595">
        <ele>860.52</ele>
        <time>2026-03-21T08:27:09Z</time>
      </trkpt>
      <trkpt lat="44.47287" lon="3.94616">
        <ele>860.04</ele>
        <time>2026-03-21T08:27:22Z</time>
      </trkpt>
      <trkpt lat="44.47289" lon="3.94625">
        <ele>860.04</ele>
        <time>2026-03-21T08:27:29Z</time>
      </trkpt>
      <trkpt lat="44.4729" lon="3.94632">
        <ele>859.56</ele>
        <time>2026-03-21T08:27:34Z</time>
      </trkpt>
      <trkpt lat="44.4729" lon="3.94635">
        <ele>859.08</ele>
        <time>2026-03-21T08:27:52Z</time>
      </trkpt>
      <trkpt lat="44.4729" lon="3.94637">
        <ele>858.59</ele>
        <time>2026-03-21T08:27:56Z</time>
      </trkpt>
      <trkpt lat="44.47293" lon="3.94656">
        <ele>856.67</ele>
        <time>2026-03-21T08:28:09Z</time>
      </trkpt>
      <trkpt lat="44.47297" lon="3.94669">
        <ele>855.23</ele>
        <time>2026-03-21T08:28:23Z</time>
      </trkpt>
      <trkpt lat="44.47301" lon="3.94678">
        <ele>854.27</ele>
        <time>2026-03-21T08:28:37Z</time>
      </trkpt>
      <trkpt lat="44.47303" lon="3.94679">
        <ele>853.79</ele>
        <time>2026-03-21T08:28:39Z</time>
      </trkpt>
      <trkpt lat="44.47309" lon="3.94688">
        <ele>853.31</ele>
        <time>2026-03-21T08:28:51Z</time>
      </trkpt>
      <trkpt lat="44.47315" lon="3.94698">
        <ele>852.83</ele>
        <time>2026-03-21T08:29:04Z</time>
      </trkpt>
      <trkpt lat="44.47321" lon="3.94706">
        <ele>851.38</ele>
        <time>2026-03-21T08:29:16Z</time>
      </trkpt>
      <trkpt lat="44.47324" lon="3.94709">
        <ele>850.42</ele>
        <time>2026-03-21T08:29:22Z</time>
      </trkpt>
      <trkpt lat="44.4733" lon="3.94715">
        <ele>849.94</ele>
        <time>2026-03-21T08:29:33Z</time>
      </trkpt>
      <trkpt lat="44.47336" lon="3.94721">
        <ele>849.46</ele>
        <time>2026-03-21T08:29:42Z</time>
      </trkpt>
      <trkpt lat="44.47341" lon="3.94721">
        <ele>848.5</ele>
        <time>2026-03-21T08:29:46Z</time>
      </trkpt>
      <trkpt lat="44.47354" lon="3.94727">
        <ele>846.1</ele>
        <time>2026-03-21T08:30:01Z</time>
      </trkpt>
      <trkpt lat="44.47358" lon="3.94731">
        <ele>845.62</ele>
        <time>2026-03-21T08:30:06Z</time>
      </trkpt>
      <trkpt lat="44.47367" lon="3.94743">
        <ele>844.18</ele>
        <time>2026-03-21T08:30:20Z</time>
      </trkpt>
      <trkpt lat="44.47371" lon="3.94745">
        <ele>843.21</ele>
        <time>2026-03-21T08:30:24Z</time>
      </trkpt>
      <trkpt lat="44.47381" lon="3.94754">
        <ele>840.33</ele>
        <time>2026-03-21T08:30:38Z</time>
      </trkpt>
      <trkpt lat="44.47389" lon="3.94761">
        <ele>838.41</ele>
        <time>2026-03-21T08:30:52Z</time>
      </trkpt>
      <trkpt lat="44.47405" lon="3.94766">
        <ele>836.48</ele>
        <time>2026-03-21T08:31:07Z</time>
      </trkpt>
      <trkpt lat="44.47411" lon="3.94776">
        <ele>836</ele>
        <time>2026-03-21T08:31:19Z</time>
      </trkpt>
      <trkpt lat="44.47411" lon="3.94782">
        <ele>835.04</ele>
        <time>2026-03-21T08:31:22Z</time>
      </trkpt>
      <trkpt lat="44.47411" lon="3.94786">
        <ele>835.04</ele>
        <time>2026-03-21T08:31:24Z</time>
      </trkpt>
      <trkpt lat="44.47411" lon="3.94792">
        <ele>838.41</ele>
        <time>2026-03-21T08:31:31Z</time>
      </trkpt>
      <trkpt lat="44.47411" lon="3.94792">
        <ele>832.64</ele>
        <time>2026-03-21T08:31:32Z</time>
      </trkpt>
      <trkpt lat="44.47411" lon="3.94792">
        <ele>838.41</ele>
        <time>2026-03-21T08:31:33Z</time>
      </trkpt>
      <trkpt lat="44.47411" lon="3.94792">
        <ele>836.96</ele>
        <time>2026-03-21T08:31:36Z</time>
      </trkpt>
      <trkpt lat="44.47413" lon="3.94791">
        <ele>836</ele>
        <time>2026-03-21T08:31:58Z</time>
      </trkpt>
      <trkpt lat="44.47414" lon="3.94786">
        <ele>834.56</ele>
        <time>2026-03-21T08:32:23Z</time>
      </trkpt>
      <trkpt lat="44.47414" lon="3.94785">
        <ele>836</ele>
        <time>2026-03-21T08:32:25Z</time>
      </trkpt>
      <trkpt lat="44.47414" lon="3.94785">
        <ele>837.45</ele>
        <time>2026-03-21T08:32:27Z</time>
      </trkpt>
      <trkpt lat="44.47414" lon="3.94785">
        <ele>836</ele>
        <time>2026-03-21T08:32:29Z</time>
      </trkpt>
      <trkpt lat="44.47414" lon="3.94785">
        <ele>837.45</ele>
        <time>2026-03-21T08:32:33Z</time>
      </trkpt>
      <trkpt lat="44.47414" lon="3.94785">
        <ele>835.52</ele>
        <time>2026-03-21T08:32:35Z</time>
      </trkpt>
      <trkpt lat="44.47415" lon="3.94785">
        <ele>837.93</ele>
        <time>2026-03-21T08:32:43Z</time>
      </trkpt>
      <trkpt lat="44.47415" lon="3.94786">
        <ele>832.64</ele>
        <time>2026-03-21T08:32:51Z</time>
      </trkpt>
      <trkpt lat="44.47415" lon="3.94787">
        <ele>837.93</ele>
        <time>2026-03-21T08:32:52Z</time>
      </trkpt>
      <trkpt lat="44.47414" lon="3.9479">
        <ele>836.48</ele>
        <time>2026-03-21T08:33:06Z</time>
      </trkpt>
      <trkpt lat="44.47412" lon="3.9479">
        <ele>836.48</ele>
        <time>2026-03-21T08:33:37Z</time>
      </trkpt>
      <trkpt lat="44.47412" lon="3.9479">
        <ele>837.93</ele>
        <time>2026-03-21T08:33:41Z</time>
      </trkpt>
      <trkpt lat="44.47412" lon="3.94789">
        <ele>836.96</ele>
        <time>2026-03-21T08:33:43Z</time>
      </trkpt>
      <trkpt lat="44.47412" lon="3.94784">
        <ele>836.48</ele>
        <time>2026-03-21T08:33:48Z</time>
      </trkpt>
      <trkpt lat="44.47412" lon="3.94768">
        <ele>836.48</ele>
        <time>2026-03-21T08:34:02Z</time>
      </trkpt>
      <trkpt lat="44.47417" lon="3.94768">
        <ele>835.04</ele>
        <time>2026-03-21T08:34:10Z</time>
      </trkpt>
      <trkpt lat="44.4742" lon="3.94772">
        <ele>835.04</ele>
        <time>2026-03-21T08:34:23Z</time>
      </trkpt>
      <trkpt lat="44.4742" lon="3.9477">
        <ele>834.56</ele>
        <time>2026-03-21T08:34:27Z</time>
      </trkpt>
      <trkpt lat="44.47427" lon="3.9476">
        <ele>832.16</ele>
        <time>2026-03-21T08:34:41Z</time>
      </trkpt>
      <trkpt lat="44.47427" lon="3.94759">
        <ele>831.68</ele>
        <time>2026-03-21T08:34:42Z</time>
      </trkpt>
      <trkpt lat="44.4743" lon="3.94756">
        <ele>830.72</ele>
        <time>2026-03-21T08:34:45Z</time>
      </trkpt>
      <trkpt lat="44.47437" lon="3.94755">
        <ele>828.79</ele>
        <time>2026-03-21T08:34:57Z</time>
      </trkpt>
      <trkpt lat="44.47442" lon="3.94758">
        <ele>826.39</ele>
        <time>2026-03-21T08:35:09Z</time>
      </trkpt>
      <trkpt lat="44.47447" lon="3.94768">
        <ele>823.51</ele>
        <time>2026-03-21T08:35:22Z</time>
      </trkpt>
      <trkpt lat="44.47453" lon="3.94765">
        <ele>820.14</ele>
        <time>2026-03-21T08:35:38Z</time>
      </trkpt>
      <trkpt lat="44.47456" lon="3.94773">
        <ele>819.18</ele>
        <time>2026-03-21T08:35:52Z</time>
      </trkpt>
      <trkpt lat="44.47461" lon="3.94782">
        <ele>815.82</ele>
        <time>2026-03-21T08:36:03Z</time>
      </trkpt>
      <trkpt lat="44.47466" lon="3.94788">
        <ele>814.37</ele>
        <time>2026-03-21T08:36:16Z</time>
      </trkpt>
      <trkpt lat="44.47473" lon="3.94785">
        <ele>812.45</ele>
        <time>2026-03-21T08:36:39Z</time>
      </trkpt>
      <trkpt lat="44.47481" lon="3.94784">
        <ele>809.09</ele>
        <time>2026-03-21T08:36:53Z</time>
      </trkpt>
      <trkpt lat="44.47491" lon="3.94782">
        <ele>805.72</ele>
        <time>2026-03-21T08:37:07Z</time>
      </trkpt>
      <trkpt lat="44.47494" lon="3.94791">
        <ele>803.32</ele>
        <time>2026-03-21T08:37:21Z</time>
      </trkpt>
      <trkpt lat="44.47497" lon="3.94795">
        <ele>800.92</ele>
        <time>2026-03-21T08:37:32Z</time>
      </trkpt>
      <trkpt lat="44.47496" lon="3.94799">
        <ele>798.51</ele>
        <time>2026-03-21T08:37:44Z</time>
      </trkpt>
      <trkpt lat="44.47495" lon="3.94804">
        <ele>797.07</ele>
        <time>2026-03-21T08:37:49Z</time>
      </trkpt>
      <trkpt lat="44.47487" lon="3.94806">
        <ele>795.15</ele>
        <time>2026-03-21T08:37:59Z</time>
      </trkpt>
      <trkpt lat="44.47483" lon="3.9481">
        <ele>794.19</ele>
        <time>2026-03-21T08:38:12Z</time>
      </trkpt>
      <trkpt lat="44.47482" lon="3.94808">
        <ele>794.19</ele>
        <time>2026-03-21T08:38:38Z</time>
      </trkpt>
      <trkpt lat="44.47485" lon="3.9481">
        <ele>794.67</ele>
        <time>2026-03-21T08:38:54Z</time>
      </trkpt>
      <trkpt lat="44.47482" lon="3.94809">
        <ele>795.63</ele>
        <time>2026-03-21T08:39:10Z</time>
      </trkpt>
      <trkpt lat="44.47473" lon="3.94811">
        <ele>793.71</ele>
        <time>2026-03-21T08:39:24Z</time>
      </trkpt>
      <trkpt lat="44.47466" lon="3.94818">
        <ele>790.82</ele>
        <time>2026-03-21T08:39:36Z</time>
      </trkpt>
      <trkpt lat="44.47459" lon="3.94825">
        <ele>788.42</ele>
        <time>2026-03-21T08:39:47Z</time>
      </trkpt>
      <trkpt lat="44.47447" lon="3.94837">
        <ele>785.53</ele>
        <time>2026-03-21T08:40:02Z</time>
      </trkpt>
      <trkpt lat="44.47445" lon="3.94843">
        <ele>785.05</ele>
        <time>2026-03-21T08:40:07Z</time>
      </trkpt>
      <trkpt lat="44.47444" lon="3.94858">
        <ele>782.65</ele>
        <time>2026-03-21T08:40:20Z</time>
      </trkpt>
      <trkpt lat="44.47449" lon="3.94846">
        <ele>780.25</ele>
        <time>2026-03-21T08:40:35Z</time>
      </trkpt>
      <trkpt lat="44.47458" lon="3.94839">
        <ele>779.29</ele>
        <time>2026-03-21T08:40:48Z</time>
      </trkpt>
      <trkpt lat="44.47458" lon="3.94846">
        <ele>776.88</ele>
        <time>2026-03-21T08:41:00Z</time>
      </trkpt>
      <trkpt lat="44.47452" lon="3.94857">
        <ele>775.92</ele>
        <time>2026-03-21T08:41:12Z</time>
      </trkpt>
      <trkpt lat="44.47452" lon="3.94873">
        <ele>774</ele>
        <time>2026-03-21T08:41:24Z</time>
      </trkpt>
      <trkpt lat="44.47448" lon="3.94885">
        <ele>771.11</ele>
        <time>2026-03-21T08:41:36Z</time>
      </trkpt>
      <trkpt lat="44.47446" lon="3.9489">
        <ele>770.15</ele>
        <time>2026-03-21T08:41:40Z</time>
      </trkpt>
      <trkpt lat="44.47443" lon="3.94911">
        <ele>768.23</ele>
        <time>2026-03-21T08:41:56Z</time>
      </trkpt>
      <trkpt lat="44.47443" lon="3.94918">
        <ele>767.75</ele>
        <time>2026-03-21T08:42:02Z</time>
      </trkpt>
      <trkpt lat="44.47449" lon="3.94924">
        <ele>764.87</ele>
        <time>2026-03-21T08:42:15Z</time>
      </trkpt>
      <trkpt lat="44.47449" lon="3.94911">
        <ele>762.94</ele>
        <time>2026-03-21T08:42:28Z</time>
      </trkpt>
      <trkpt lat="44.47455" lon="3.94896">
        <ele>760.06</ele>
        <time>2026-03-21T08:42:44Z</time>
      </trkpt>
      <trkpt lat="44.47465" lon="3.94888">
        <ele>756.69</ele>
        <time>2026-03-21T08:42:59Z</time>
      </trkpt>
      <trkpt lat="44.47467" lon="3.94881">
        <ele>755.25</ele>
        <time>2026-03-21T08:43:12Z</time>
      </trkpt>
      <trkpt lat="44.47465" lon="3.9488">
        <ele>754.77</ele>
        <time>2026-03-21T08:43:42Z</time>
      </trkpt>
      <trkpt lat="44.47474" lon="3.94876">
        <ele>752.37</ele>
        <time>2026-03-21T08:43:53Z</time>
      </trkpt>
      <trkpt lat="44.47484" lon="3.94876">
        <ele>750.45</ele>
        <time>2026-03-21T08:44:06Z</time>
      </trkpt>
      <trkpt lat="44.47496" lon="3.94872">
        <ele>748.04</ele>
        <time>2026-03-21T08:44:21Z</time>
      </trkpt>
      <trkpt lat="44.47508" lon="3.9487">
        <ele>746.12</ele>
        <time>2026-03-21T08:44:36Z</time>
      </trkpt>
      <trkpt lat="44.47518" lon="3.94863">
        <ele>743.72</ele>
        <time>2026-03-21T08:44:50Z</time>
      </trkpt>
      <trkpt lat="44.4753" lon="3.9486">
        <ele>740.83</ele>
        <time>2026-03-21T08:45:05Z</time>
      </trkpt>
      <trkpt lat="44.47539" lon="3.94858">
        <ele>737.47</ele>
        <time>2026-03-21T08:45:19Z</time>
      </trkpt>
      <trkpt lat="44.47551" lon="3.94858">
        <ele>735.07</ele>
        <time>2026-03-21T08:45:34Z</time>
      </trkpt>
      <trkpt lat="44.47559" lon="3.94867">
        <ele>733.14</ele>
        <time>2026-03-21T08:45:48Z</time>
      </trkpt>
      <trkpt lat="44.47566" lon="3.94857">
        <ele>730.74</ele>
        <time>2026-03-21T08:46:03Z</time>
      </trkpt>
      <trkpt lat="44.47574" lon="3.94846">
        <ele>727.37</ele>
        <time>2026-03-21T08:46:17Z</time>
      </trkpt>
      <trkpt lat="44.47579" lon="3.94833">
        <ele>725.93</ele>
        <time>2026-03-21T08:46:32Z</time>
      </trkpt>
      <trkpt lat="44.47584" lon="3.94829">
        <ele>726.89</ele>
        <time>2026-03-21T08:46:46Z</time>
      </trkpt>
      <trkpt lat="44.47588" lon="3.94836">
        <ele>724.97</ele>
        <time>2026-03-21T08:47:00Z</time>
      </trkpt>
      <trkpt lat="44.47591" lon="3.94849">
        <ele>722.57</ele>
        <time>2026-03-21T08:47:13Z</time>
      </trkpt>
      <trkpt lat="44.47593" lon="3.94865">
        <ele>719.68</ele>
        <time>2026-03-21T08:47:29Z</time>
      </trkpt>
      <trkpt lat="44.47591" lon="3.94878">
        <ele>717.28</ele>
        <time>2026-03-21T08:47:43Z</time>
      </trkpt>
      <trkpt lat="44.47593" lon="3.94876">
        <ele>715.36</ele>
        <time>2026-03-21T08:47:56Z</time>
      </trkpt>
      <trkpt lat="44.47596" lon="3.94872">
        <ele>712.95</ele>
        <time>2026-03-21T08:48:10Z</time>
      </trkpt>
      <trkpt lat="44.47603" lon="3.94884">
        <ele>710.55</ele>
        <time>2026-03-21T08:48:24Z</time>
      </trkpt>
      <trkpt lat="44.47599" lon="3.94878">
        <ele>709.11</ele>
        <time>2026-03-21T08:48:38Z</time>
      </trkpt>
      <trkpt lat="44.47604" lon="3.94887">
        <ele>706.23</ele>
        <time>2026-03-21T08:48:52Z</time>
      </trkpt>
      <trkpt lat="44.47607" lon="3.94895">
        <ele>704.3</ele>
        <time>2026-03-21T08:49:07Z</time>
      </trkpt>
      <trkpt lat="44.4761" lon="3.94897">
        <ele>701.42</ele>
        <time>2026-03-21T08:49:19Z</time>
      </trkpt>
      <trkpt lat="44.47611" lon="3.94907">
        <ele>699.98</ele>
        <time>2026-03-21T08:49:27Z</time>
      </trkpt>
      <trkpt lat="44.4761" lon="3.94912">
        <ele>699.5</ele>
        <time>2026-03-21T08:49:31Z</time>
      </trkpt>
      <trkpt lat="44.47605" lon="3.94922">
        <ele>697.57</ele>
        <time>2026-03-21T08:49:45Z</time>
      </trkpt>
      <trkpt lat="44.4761" lon="3.94918">
        <ele>695.17</ele>
        <time>2026-03-21T08:50:00Z</time>
      </trkpt>
      <trkpt lat="44.47617" lon="3.94908">
        <ele>692.77</ele>
        <time>2026-03-21T08:50:14Z</time>
      </trkpt>
      <trkpt lat="44.47622" lon="3.94897">
        <ele>689.4</ele>
        <time>2026-03-21T08:50:28Z</time>
      </trkpt>
      <trkpt lat="44.47625" lon="3.94883">
        <ele>687</ele>
        <time>2026-03-21T08:50:43Z</time>
      </trkpt>
      <trkpt lat="44.47626" lon="3.94871">
        <ele>686.04</ele>
        <time>2026-03-21T08:50:57Z</time>
      </trkpt>
      <trkpt lat="44.47628" lon="3.94858">
        <ele>683.63</ele>
        <time>2026-03-21T08:51:10Z</time>
      </trkpt>
      <trkpt lat="44.47639" lon="3.94862">
        <ele>682.67</ele>
        <time>2026-03-21T08:51:31Z</time>
      </trkpt>
      <trkpt lat="44.47642" lon="3.94864">
        <ele>680.27</ele>
        <time>2026-03-21T08:51:45Z</time>
      </trkpt>
      <trkpt lat="44.47643" lon="3.94858">
        <ele>678.35</ele>
        <time>2026-03-21T08:51:57Z</time>
      </trkpt>
      <trkpt lat="44.47648" lon="3.94848">
        <ele>674.98</ele>
        <time>2026-03-21T08:52:13Z</time>
      </trkpt>
      <trkpt lat="44.47655" lon="3.94836">
        <ele>671.62</ele>
        <time>2026-03-21T08:52:26Z</time>
      </trkpt>
      <trkpt lat="44.47664" lon="3.94825">
        <ele>669.22</ele>
        <time>2026-03-21T08:52:44Z</time>
      </trkpt>
      <trkpt lat="44.47674" lon="3.94812">
        <ele>665.85</ele>
        <time>2026-03-21T08:52:59Z</time>
      </trkpt>
      <trkpt lat="44.47685" lon="3.94804">
        <ele>662.97</ele>
        <time>2026-03-21T08:53:12Z</time>
      </trkpt>
      <trkpt lat="44.47696" lon="3.94795">
        <ele>660.56</ele>
        <time>2026-03-21T08:53:30Z</time>
      </trkpt>
      <trkpt lat="44.47702" lon="3.94787">
        <ele>658.64</ele>
        <time>2026-03-21T08:53:47Z</time>
      </trkpt>
      <trkpt lat="44.4771" lon="3.94776">
        <ele>655.28</ele>
        <time>2026-03-21T08:54:05Z</time>
      </trkpt>
      <trkpt lat="44.47718" lon="3.94766">
        <ele>652.87</ele>
        <time>2026-03-21T08:54:19Z</time>
      </trkpt>
      <trkpt lat="44.47726" lon="3.94756">
        <ele>649.99</ele>
        <time>2026-03-21T08:54:33Z</time>
      </trkpt>
      <trkpt lat="44.47732" lon="3.94752">
        <ele>648.07</ele>
        <time>2026-03-21T08:54:53Z</time>
      </trkpt>
      <trkpt lat="44.47733" lon="3.94752">
        <ele>647.59</ele>
        <time>2026-03-21T08:55:00Z</time>
      </trkpt>
      <trkpt lat="44.47746" lon="3.94754">
        <ele>647.59</ele>
        <time>2026-03-21T08:55:39Z</time>
      </trkpt>
      <trkpt lat="44.47743" lon="3.94754">
        <ele>647.59</ele>
        <time>2026-03-21T08:56:14Z</time>
      </trkpt>
      <trkpt lat="44.47745" lon="3.94753">
        <ele>647.59</ele>
        <time>2026-03-21T08:56:50Z</time>
      </trkpt>
      <trkpt lat="44.47746" lon="3.94751">
        <ele>647.59</ele>
        <time>2026-03-21T08:57:16Z</time>
      </trkpt>
      <trkpt lat="44.47745" lon="3.9475">
        <ele>649.99</ele>
        <time>2026-03-21T08:57:27Z</time>
      </trkpt>
      <trkpt lat="44.47744" lon="3.9475">
        <ele>649.03</ele>
        <time>2026-03-21T08:57:31Z</time>
      </trkpt>
      <trkpt lat="44.47743" lon="3.94763">
        <ele>647.59</ele>
        <time>2026-03-21T08:57:47Z</time>
      </trkpt>
      <trkpt lat="44.47743" lon="3.94775">
        <ele>644.22</ele>
        <time>2026-03-21T08:57:57Z</time>
      </trkpt>
      <trkpt lat="44.47741" lon="3.94781">
        <ele>643.26</ele>
        <time>2026-03-21T08:58:04Z</time>
      </trkpt>
      <trkpt lat="44.47745" lon="3.94779">
        <ele>640.86</ele>
        <time>2026-03-21T08:58:17Z</time>
      </trkpt>
      <trkpt lat="44.4775" lon="3.94771">
        <ele>637.49</ele>
        <time>2026-03-21T08:58:30Z</time>
      </trkpt>
      <trkpt lat="44.4775" lon="3.94782">
        <ele>635.57</ele>
        <time>2026-03-21T08:58:43Z</time>
      </trkpt>
      <trkpt lat="44.47746" lon="3.94796">
        <ele>634.13</ele>
        <time>2026-03-21T08:58:59Z</time>
      </trkpt>
      <trkpt lat="44.47745" lon="3.94803">
        <ele>631.72</ele>
        <time>2026-03-21T08:59:13Z</time>
      </trkpt>
      <trkpt lat="44.47754" lon="3.948">
        <ele>628.36</ele>
        <time>2026-03-21T08:59:28Z</time>
      </trkpt>
      <trkpt lat="44.47749" lon="3.94812">
        <ele>624.99</ele>
        <time>2026-03-21T08:59:43Z</time>
      </trkpt>
      <trkpt lat="44.47746" lon="3.94821">
        <ele>623.55</ele>
        <time>2026-03-21T08:59:53Z</time>
      </trkpt>
      <trkpt lat="44.47741" lon="3.94834">
        <ele>623.07</ele>
        <time>2026-03-21T09:00:09Z</time>
      </trkpt>
      <trkpt lat="44.47741" lon="3.94838">
        <ele>623.07</ele>
        <time>2026-03-21T09:00:44Z</time>
      </trkpt>
      <trkpt lat="44.4774" lon="3.94838">
        <ele>623.07</ele>
        <time>2026-03-21T09:00:51Z</time>
      </trkpt>
      <trkpt lat="44.47735" lon="3.9485">
        <ele>624.03</ele>
        <time>2026-03-21T09:01:05Z</time>
      </trkpt>
      <trkpt lat="44.47733" lon="3.94861">
        <ele>621.15</ele>
        <time>2026-03-21T09:01:18Z</time>
      </trkpt>
      <trkpt lat="44.47728" lon="3.94877">
        <ele>619.71</ele>
        <time>2026-03-21T09:01:34Z</time>
      </trkpt>
      <trkpt lat="44.47732" lon="3.94894">
        <ele>617.78</ele>
        <time>2026-03-21T09:01:47Z</time>
      </trkpt>
      <trkpt lat="44.47739" lon="3.94912">
        <ele>615.38</ele>
        <time>2026-03-21T09:02:02Z</time>
      </trkpt>
      <trkpt lat="44.47744" lon="3.94928">
        <ele>612.98</ele>
        <time>2026-03-21T09:02:19Z</time>
      </trkpt>
      <trkpt lat="44.47747" lon="3.94938">
        <ele>611.06</ele>
        <time>2026-03-21T09:02:34Z</time>
      </trkpt>
      <trkpt lat="44.47748" lon="3.94936">
        <ele>610.09</ele>
        <time>2026-03-21T09:02:48Z</time>
      </trkpt>
      <trkpt lat="44.47745" lon="3.94925">
        <ele>607.69</ele>
        <time>2026-03-21T09:03:05Z</time>
      </trkpt>
      <trkpt lat="44.47744" lon="3.94918">
        <ele>606.25</ele>
        <time>2026-03-21T09:03:21Z</time>
      </trkpt>
      <trkpt lat="44.47752" lon="3.9491">
        <ele>602.88</ele>
        <time>2026-03-21T09:03:35Z</time>
      </trkpt>
      <trkpt lat="44.4776" lon="3.94923">
        <ele>600.48</ele>
        <time>2026-03-21T09:03:49Z</time>
      </trkpt>
      <trkpt lat="44.47765" lon="3.94936">
        <ele>598.56</ele>
        <time>2026-03-21T09:04:01Z</time>
      </trkpt>
      <trkpt lat="44.47766" lon="3.94938">
        <ele>597.12</ele>
        <time>2026-03-21T09:04:13Z</time>
      </trkpt>
      <trkpt lat="44.47765" lon="3.94927">
        <ele>594.71</ele>
        <time>2026-03-21T09:04:27Z</time>
      </trkpt>
      <trkpt lat="44.47769" lon="3.94915">
        <ele>593.27</ele>
        <time>2026-03-21T09:04:40Z</time>
      </trkpt>
      <trkpt lat="44.47774" lon="3.94925">
        <ele>591.83</ele>
        <time>2026-03-21T09:04:55Z</time>
      </trkpt>
      <trkpt lat="44.47775" lon="3.94937">
        <ele>589.91</ele>
        <time>2026-03-21T09:05:10Z</time>
      </trkpt>
      <trkpt lat="44.47777" lon="3.9495">
        <ele>587.5</ele>
        <time>2026-03-21T09:05:24Z</time>
      </trkpt>
      <trkpt lat="44.47779" lon="3.94948">
        <ele>584.62</ele>
        <time>2026-03-21T09:05:35Z</time>
      </trkpt>
      <trkpt lat="44.47783" lon="3.94957">
        <ele>581.73</ele>
        <time>2026-03-21T09:05:50Z</time>
      </trkpt>
      <trkpt lat="44.47786" lon="3.94973">
        <ele>579.81</ele>
        <time>2026-03-21T09:06:04Z</time>
      </trkpt>
      <trkpt lat="44.47788" lon="3.94992">
        <ele>578.85</ele>
        <time>2026-03-21T09:06:21Z</time>
      </trkpt>
      <trkpt lat="44.47788" lon="3.94992">
        <ele>576.45</ele>
        <time>2026-03-21T09:06:36Z</time>
      </trkpt>
      <trkpt lat="44.47785" lon="3.94982">
        <ele>575.01</ele>
        <time>2026-03-21T09:06:52Z</time>
      </trkpt>
      <trkpt lat="44.47789" lon="3.94988">
        <ele>573.08</ele>
        <time>2026-03-21T09:07:04Z</time>
      </trkpt>
      <trkpt lat="44.47793" lon="3.95003">
        <ele>571.16</ele>
        <time>2026-03-21T09:07:18Z</time>
      </trkpt>
      <trkpt lat="44.47792" lon="3.95001">
        <ele>567.8</ele>
        <time>2026-03-21T09:07:33Z</time>
      </trkpt>
      <trkpt lat="44.47791" lon="3.94988">
        <ele>565.87</ele>
        <time>2026-03-21T09:07:48Z</time>
      </trkpt>
      <trkpt lat="44.47797" lon="3.94983">
        <ele>563.95</ele>
        <time>2026-03-21T09:08:06Z</time>
      </trkpt>
      <trkpt lat="44.47801" lon="3.94992">
        <ele>562.03</ele>
        <time>2026-03-21T09:08:21Z</time>
      </trkpt>
      <trkpt lat="44.47801" lon="3.95001">
        <ele>560.59</ele>
        <time>2026-03-21T09:08:37Z</time>
      </trkpt>
      <trkpt lat="44.47806" lon="3.95011">
        <ele>557.22</ele>
        <time>2026-03-21T09:08:51Z</time>
      </trkpt>
      <trkpt lat="44.47809" lon="3.95027">
        <ele>554.34</ele>
        <time>2026-03-21T09:09:05Z</time>
      </trkpt>
      <trkpt lat="44.47809" lon="3.95026">
        <ele>552.41</ele>
        <time>2026-03-21T09:09:17Z</time>
      </trkpt>
      <trkpt lat="44.47813" lon="3.95033">
        <ele>549.53</ele>
        <time>2026-03-21T09:09:30Z</time>
      </trkpt>
      <trkpt lat="44.47816" lon="3.95045">
        <ele>547.13</ele>
        <time>2026-03-21T09:09:45Z</time>
      </trkpt>
      <trkpt lat="44.4781" lon="3.95057">
        <ele>543.76</ele>
        <time>2026-03-21T09:09:59Z</time>
      </trkpt>
      <trkpt lat="44.47815" lon="3.95057">
        <ele>540.88</ele>
        <time>2026-03-21T09:10:15Z</time>
      </trkpt>
      <trkpt lat="44.47812" lon="3.95068">
        <ele>537.99</ele>
        <time>2026-03-21T09:10:28Z</time>
      </trkpt>
      <trkpt lat="44.47809" lon="3.9508">
        <ele>535.59</ele>
        <time>2026-03-21T09:10:42Z</time>
      </trkpt>
      <trkpt lat="44.47805" lon="3.9509">
        <ele>533.67</ele>
        <time>2026-03-21T09:10:55Z</time>
      </trkpt>
      <trkpt lat="44.47803" lon="3.95099">
        <ele>531.27</ele>
        <time>2026-03-21T09:11:05Z</time>
      </trkpt>
      <trkpt lat="44.478" lon="3.95117">
        <ele>528.38</ele>
        <time>2026-03-21T09:11:19Z</time>
      </trkpt>
      <trkpt lat="44.47798" lon="3.95128">
        <ele>525.5</ele>
        <time>2026-03-21T09:11:32Z</time>
      </trkpt>
      <trkpt lat="44.47791" lon="3.95146">
        <ele>522.61</ele>
        <time>2026-03-21T09:11:46Z</time>
      </trkpt>
      <trkpt lat="44.47788" lon="3.95158">
        <ele>521.65</ele>
        <time>2026-03-21T09:11:57Z</time>
      </trkpt>
      <trkpt lat="44.47785" lon="3.95166">
        <ele>519.25</ele>
        <time>2026-03-21T09:12:07Z</time>
      </trkpt>
      <trkpt lat="44.47781" lon="3.95168">
        <ele>517.81</ele>
        <time>2026-03-21T09:12:25Z</time>
      </trkpt>
      <trkpt lat="44.4778" lon="3.95169">
        <ele>521.17</ele>
        <time>2026-03-21T09:12:40Z</time>
      </trkpt>
      <trkpt lat="44.47781" lon="3.95169">
        <ele>518.29</ele>
        <time>2026-03-21T09:13:01Z</time>
      </trkpt>
      <trkpt lat="44.47779" lon="3.95166">
        <ele>518.29</ele>
        <time>2026-03-21T09:13:24Z</time>
      </trkpt>
      <trkpt lat="44.47779" lon="3.95164">
        <ele>518.29</ele>
        <time>2026-03-21T09:13:52Z</time>
      </trkpt>
      <trkpt lat="44.47783" lon="3.95168">
        <ele>518.77</ele>
        <time>2026-03-21T09:14:21Z</time>
      </trkpt>
      <trkpt lat="44.47785" lon="3.95163">
        <ele>516.85</ele>
        <time>2026-03-21T09:14:37Z</time>
      </trkpt>
      <trkpt lat="44.47789" lon="3.95157">
        <ele>515.88</ele>
        <time>2026-03-21T09:14:49Z</time>
      </trkpt>
      <trkpt lat="44.47797" lon="3.95166">
        <ele>513</ele>
        <time>2026-03-21T09:15:03Z</time>
      </trkpt>
      <trkpt lat="44.47797" lon="3.95166">
        <ele>513</ele>
        <time>2026-03-21T09:15:04Z</time>
      </trkpt>
      <trkpt lat="44.47802" lon="3.95157">
        <ele>511.08</ele>
        <time>2026-03-21T09:15:19Z</time>
      </trkpt>
      <trkpt lat="44.4781" lon="3.9515">
        <ele>508.67</ele>
        <time>2026-03-21T09:15:32Z</time>
      </trkpt>
      <trkpt lat="44.47814" lon="3.95139">
        <ele>507.23</ele>
        <time>2026-03-21T09:15:46Z</time>
      </trkpt>
      <trkpt lat="44.47821" lon="3.95157">
        <ele>505.31</ele>
        <time>2026-03-21T09:15:59Z</time>
      </trkpt>
      <trkpt lat="44.4782" lon="3.95175">
        <ele>502.43</ele>
        <time>2026-03-21T09:16:11Z</time>
      </trkpt>
      <trkpt lat="44.47818" lon="3.95192">
        <ele>500.98</ele>
        <time>2026-03-21T09:16:24Z</time>
      </trkpt>
      <trkpt lat="44.47816" lon="3.95203">
        <ele>498.1</ele>
        <time>2026-03-21T09:16:39Z</time>
      </trkpt>
      <trkpt lat="44.47821" lon="3.95192">
        <ele>495.7</ele>
        <time>2026-03-21T09:16:55Z</time>
      </trkpt>
      <trkpt lat="44.47828" lon="3.95191">
        <ele>494.26</ele>
        <time>2026-03-21T09:17:10Z</time>
      </trkpt>
      <trkpt lat="44.47827" lon="3.95186">
        <ele>494.26</ele>
        <time>2026-03-21T09:17:26Z</time>
      </trkpt>
      <trkpt lat="44.47828" lon="3.95184">
        <ele>494.74</ele>
        <time>2026-03-21T09:17:34Z</time>
      </trkpt>
      <trkpt lat="44.47827" lon="3.95185">
        <ele>493.77</ele>
        <time>2026-03-21T09:17:39Z</time>
      </trkpt>
      <trkpt lat="44.47827" lon="3.95178">
        <ele>493.29</ele>
        <time>2026-03-21T09:17:54Z</time>
      </trkpt>
      <trkpt lat="44.47827" lon="3.95177">
        <ele>493.29</ele>
        <time>2026-03-21T09:17:55Z</time>
      </trkpt>
      <trkpt lat="44.47827" lon="3.95173">
        <ele>494.26</ele>
        <time>2026-03-21T09:17:57Z</time>
      </trkpt>
      <trkpt lat="44.47832" lon="3.9516">
        <ele>493.29</ele>
        <time>2026-03-21T09:18:09Z</time>
      </trkpt>
      <trkpt lat="44.47834" lon="3.95155">
        <ele>496.18</ele>
        <time>2026-03-21T09:18:14Z</time>
      </trkpt>
      <trkpt lat="44.47835" lon="3.95153">
        <ele>494.74</ele>
        <time>2026-03-21T09:18:16Z</time>
      </trkpt>
      <trkpt lat="44.47846" lon="3.95131">
        <ele>494.26</ele>
        <time>2026-03-21T09:18:34Z</time>
      </trkpt>
      <trkpt lat="44.47856" lon="3.95121">
        <ele>494.26</ele>
        <time>2026-03-21T09:18:48Z</time>
      </trkpt>
      <trkpt lat="44.47859" lon="3.95115">
        <ele>494.26</ele>
        <time>2026-03-21T09:19:00Z</time>
      </trkpt>
      <trkpt lat="44.47862" lon="3.95105">
        <ele>494.26</ele>
        <time>2026-03-21T09:19:19Z</time>
      </trkpt>
      <trkpt lat="44.47871" lon="3.95094">
        <ele>494.74</ele>
        <time>2026-03-21T09:19:33Z</time>
      </trkpt>
      <trkpt lat="44.47874" lon="3.95077">
        <ele>494.74</ele>
        <time>2026-03-21T09:19:48Z</time>
      </trkpt>
      <trkpt lat="44.47875" lon="3.95062">
        <ele>494.74</ele>
        <time>2026-03-21T09:20:05Z</time>
      </trkpt>
      <trkpt lat="44.47878" lon="3.95043">
        <ele>494.74</ele>
        <time>2026-03-21T09:20:19Z</time>
      </trkpt>
      <trkpt lat="44.47878" lon="3.95023">
        <ele>494.74</ele>
        <time>2026-03-21T09:20:34Z</time>
      </trkpt>
      <trkpt lat="44.47881" lon="3.95001">
        <ele>494.74</ele>
        <time>2026-03-21T09:20:49Z</time>
      </trkpt>
      <trkpt lat="44.47886" lon="3.94986">
        <ele>494.74</ele>
        <time>2026-03-21T09:21:02Z</time>
      </trkpt>
      <trkpt lat="44.47892" lon="3.94973">
        <ele>494.74</ele>
        <time>2026-03-21T09:21:15Z</time>
      </trkpt>
      <trkpt lat="44.47897" lon="3.94957">
        <ele>494.74</ele>
        <time>2026-03-21T09:21:32Z</time>
      </trkpt>
      <trkpt lat="44.47897" lon="3.94948">
        <ele>496.18</ele>
        <time>2026-03-21T09:21:45Z</time>
      </trkpt>
      <trkpt lat="44.47911" lon="3.9493">
        <ele>496.18</ele>
        <time>2026-03-21T09:22:01Z</time>
      </trkpt>
      <trkpt lat="44.4792" lon="3.94917">
        <ele>496.18</ele>
        <time>2026-03-21T09:22:15Z</time>
      </trkpt>
      <trkpt lat="44.47927" lon="3.94907">
        <ele>496.18</ele>
        <time>2026-03-21T09:22:31Z</time>
      </trkpt>
      <trkpt lat="44.47927" lon="3.94899">
        <ele>496.18</ele>
        <time>2026-03-21T09:22:52Z</time>
      </trkpt>
      <trkpt lat="44.47931" lon="3.9489">
        <ele>496.66</ele>
        <time>2026-03-21T09:23:10Z</time>
      </trkpt>
      <trkpt lat="44.47936" lon="3.94877">
        <ele>496.66</ele>
        <time>2026-03-21T09:23:25Z</time>
      </trkpt>
      <trkpt lat="44.47938" lon="3.94859">
        <ele>497.14</ele>
        <time>2026-03-21T09:23:40Z</time>
      </trkpt>
      <trkpt lat="44.47944" lon="3.94847">
        <ele>497.14</ele>
        <time>2026-03-21T09:23:54Z</time>
      </trkpt>
      <trkpt lat="44.47946" lon="3.94832">
        <ele>497.14</ele>
        <time>2026-03-21T09:24:06Z</time>
      </trkpt>
      <trkpt lat="44.47946" lon="3.94816">
        <ele>497.14</ele>
        <time>2026-03-21T09:24:18Z</time>
      </trkpt>
      <trkpt lat="44.47951" lon="3.94801">
        <ele>497.14</ele>
        <time>2026-03-21T09:24:31Z</time>
      </trkpt>
      <trkpt lat="44.4796" lon="3.94782">
        <ele>497.14</ele>
        <time>2026-03-21T09:24:44Z</time>
      </trkpt>
      <trkpt lat="44.47966" lon="3.94765">
        <ele>497.14</ele>
        <time>2026-03-21T09:24:58Z</time>
      </trkpt>
      <trkpt lat="44.4797" lon="3.94748">
        <ele>497.62</ele>
        <time>2026-03-21T09:25:11Z</time>
      </trkpt>
      <trkpt lat="44.47973" lon="3.94737">
        <ele>496.66</ele>
        <time>2026-03-21T09:25:26Z</time>
      </trkpt>
      <trkpt lat="44.47973" lon="3.94736">
        <ele>496.66</ele>
        <time>2026-03-21T09:25:27Z</time>
      </trkpt>
      <trkpt lat="44.47974" lon="3.94735">
        <ele>496.66</ele>
        <time>2026-03-21T09:25:28Z</time>
      </trkpt>
      <trkpt lat="44.47982" lon="3.94732">
        <ele>493.77</ele>
        <time>2026-03-21T09:25:40Z</time>
      </trkpt>
      <trkpt lat="44.47986" lon="3.94729">
        <ele>493.29</ele>
        <time>2026-03-21T09:25:51Z</time>
      </trkpt>
      <trkpt lat="44.47989" lon="3.94726">
        <ele>493.29</ele>
        <time>2026-03-21T09:26:01Z</time>
      </trkpt>
      <trkpt lat="44.47987" lon="3.94723">
        <ele>493.77</ele>
        <time>2026-03-21T09:26:14Z</time>
      </trkpt>
      <trkpt lat="44.47986" lon="3.94723">
        <ele>497.14</ele>
        <time>2026-03-21T09:26:15Z</time>
      </trkpt>
      <trkpt lat="44.47986" lon="3.94722">
        <ele>497.14</ele>
        <time>2026-03-21T09:26:16Z</time>
      </trkpt>
      <trkpt lat="44.47984" lon="3.94721">
        <ele>493.29</ele>
        <time>2026-03-21T09:26:18Z</time>
      </trkpt>
      <trkpt lat="44.47984" lon="3.9472">
        <ele>494.74</ele>
        <time>2026-03-21T09:26:22Z</time>
      </trkpt>
      <trkpt lat="44.47982" lon="3.94718">
        <ele>493.77</ele>
        <time>2026-03-21T09:26:46Z</time>
      </trkpt>
      <trkpt lat="44.4799" lon="3.94724">
        <ele>492.81</ele>
        <time>2026-03-21T09:27:00Z</time>
      </trkpt>
      <trkpt lat="44.47992" lon="3.94725">
        <ele>493.77</ele>
        <time>2026-03-21T09:27:05Z</time>
      </trkpt>
      <trkpt lat="44.47992" lon="3.94724">
        <ele>492.33</ele>
        <time>2026-03-21T09:27:07Z</time>
      </trkpt>
      <trkpt lat="44.4799" lon="3.9472">
        <ele>493.29</ele>
        <time>2026-03-21T09:27:16Z</time>
      </trkpt>
      <trkpt lat="44.47996" lon="3.94716">
        <ele>493.29</ele>
        <time>2026-03-21T09:27:34Z</time>
      </trkpt>
      <trkpt lat="44.47997" lon="3.94719">
        <ele>492.33</ele>
        <time>2026-03-21T09:27:42Z</time>
      </trkpt>
      <trkpt lat="44.47997" lon="3.94724">
        <ele>491.85</ele>
        <time>2026-03-21T09:27:59Z</time>
      </trkpt>
      <trkpt lat="44.47997" lon="3.94725">
        <ele>492.81</ele>
        <time>2026-03-21T09:28:04Z</time>
      </trkpt>
      <trkpt lat="44.47996" lon="3.94725">
        <ele>495.22</ele>
        <time>2026-03-21T09:28:06Z</time>
      </trkpt>
      <trkpt lat="44.47996" lon="3.94725">
        <ele>493.29</ele>
        <time>2026-03-21T09:28:08Z</time>
      </trkpt>
      <trkpt lat="44.47995" lon="3.94725">
        <ele>492.81</ele>
        <time>2026-03-21T09:28:23Z</time>
      </trkpt>
      <trkpt lat="44.4799" lon="3.94723">
        <ele>492.33</ele>
        <time>2026-03-21T09:28:37Z</time>
      </trkpt>
      <trkpt lat="44.47987" lon="3.9472">
        <ele>490.89</ele>
        <time>2026-03-21T09:28:44Z</time>
      </trkpt>
      <trkpt lat="44.4799" lon="3.94719">
        <ele>491.85</ele>
        <time>2026-03-21T09:29:00Z</time>
      </trkpt>
      <trkpt lat="44.47992" lon="3.94724">
        <ele>490.89</ele>
        <time>2026-03-21T09:29:29Z</time>
      </trkpt>
      <trkpt lat="44.47992" lon="3.94726">
        <ele>490.89</ele>
        <time>2026-03-21T09:29:44Z</time>
      </trkpt>
      <trkpt lat="44.47993" lon="3.94721">
        <ele>490.89</ele>
        <time>2026-03-21T09:30:10Z</time>
      </trkpt>
      <trkpt lat="44.47989" lon="3.94723">
        <ele>490.89</ele>
        <time>2026-03-21T09:30:40Z</time>
      </trkpt>
      <trkpt lat="44.47992" lon="3.94723">
        <ele>492.33</ele>
        <time>2026-03-21T09:30:56Z</time>
      </trkpt>
      <trkpt lat="44.47988" lon="3.94723">
        <ele>492.81</ele>
        <time>2026-03-21T09:31:01Z</time>
      </trkpt>
      <trkpt lat="44.47986" lon="3.94724">
        <ele>492.81</ele>
        <time>2026-03-21T09:31:03Z</time>
      </trkpt>
      <trkpt lat="44.47978" lon="3.94722">
        <ele>492.33</ele>
        <time>2026-03-21T09:31:15Z</time>
      </trkpt>
      <trkpt lat="44.47977" lon="3.9472">
        <ele>493.77</ele>
        <time>2026-03-21T09:31:18Z</time>
      </trkpt>
      <trkpt lat="44.47977" lon="3.94719">
        <ele>494.26</ele>
        <time>2026-03-21T09:31:19Z</time>
      </trkpt>
      <trkpt lat="44.47976" lon="3.94715">
        <ele>492.81</ele>
        <time>2026-03-21T09:31:24Z</time>
      </trkpt>
      <trkpt lat="44.47976" lon="3.94715">
        <ele>498.1</ele>
        <time>2026-03-21T09:31:25Z</time>
      </trkpt>
      <trkpt lat="44.47976" lon="3.94714">
        <ele>495.7</ele>
        <time>2026-03-21T09:31:26Z</time>
      </trkpt>
      <trkpt lat="44.47975" lon="3.94714">
        <ele>494.74</ele>
        <time>2026-03-21T09:31:28Z</time>
      </trkpt>
      <trkpt lat="44.47975" lon="3.94715">
        <ele>491.85</ele>
        <time>2026-03-21T09:31:30Z</time>
      </trkpt>
      <trkpt lat="44.47976" lon="3.94715">
        <ele>496.18</ele>
        <time>2026-03-21T09:31:31Z</time>
      </trkpt>
      <trkpt lat="44.47976" lon="3.94715">
        <ele>496.18</ele>
        <time>2026-03-21T09:31:32Z</time>
      </trkpt>
      <trkpt lat="44.47975" lon="3.94715">
        <ele>494.74</ele>
        <time>2026-03-21T09:31:35Z</time>
      </trkpt>
      <trkpt lat="44.47976" lon="3.94713">
        <ele>496.18</ele>
        <time>2026-03-21T09:31:56Z</time>
      </trkpt>
      <trkpt lat="44.47977" lon="3.94713">
        <ele>494.74</ele>
        <time>2026-03-21T09:31:59Z</time>
      </trkpt>
      <trkpt lat="44.47978" lon="3.94716">
        <ele>494.74</ele>
        <time>2026-03-21T09:32:15Z</time>
      </trkpt>
      <trkpt lat="44.47981" lon="3.94715">
        <ele>494.26</ele>
        <time>2026-03-21T09:32:33Z</time>
      </trkpt>
      <trkpt lat="44.47982" lon="3.94719">
        <ele>493.29</ele>
        <time>2026-03-21T09:32:45Z</time>
      </trkpt>
      <trkpt lat="44.47986" lon="3.94715">
        <ele>492.81</ele>
        <time>2026-03-21T09:32:58Z</time>
      </trkpt>
      <trkpt lat="44.47989" lon="3.94715">
        <ele>492.81</ele>
        <time>2026-03-21T09:33:08Z</time>
      </trkpt>
      <trkpt lat="44.47992" lon="3.94713">
        <ele>492.81</ele>
        <time>2026-03-21T09:33:21Z</time>
      </trkpt>
      <trkpt lat="44.47993" lon="3.94715">
        <ele>492.81</ele>
        <time>2026-03-21T09:33:38Z</time>
      </trkpt>
      <trkpt lat="44.47993" lon="3.9472">
        <ele>492.33</ele>
        <time>2026-03-21T09:33:51Z</time>
      </trkpt>
      <trkpt lat="44.47993" lon="3.9472">
        <ele>493.77</ele>
        <time>2026-03-21T09:33:54Z</time>
      </trkpt>
      <trkpt lat="44.47992" lon="3.94725">
        <ele>495.7</ele>
        <time>2026-03-21T09:34:01Z</time>
      </trkpt>
      <trkpt lat="44.47995" lon="3.94729">
        <ele>492.33</ele>
        <time>2026-03-21T09:34:08Z</time>
      </trkpt>
      <trkpt lat="44.47996" lon="3.9473">
        <ele>492.33</ele>
        <time>2026-03-21T09:34:09Z</time>
      </trkpt>
      <trkpt lat="44.47996" lon="3.94731">
        <ele>493.77</ele>
        <time>2026-03-21T09:34:11Z</time>
      </trkpt>
      <trkpt lat="44.48001" lon="3.94736">
        <ele>495.22</ele>
        <time>2026-03-21T09:34:24Z</time>
      </trkpt>
      <trkpt lat="44.48001" lon="3.94737">
        <ele>492.33</ele>
        <time>2026-03-21T09:34:32Z</time>
      </trkpt>
      <trkpt lat="44.47995" lon="3.94737">
        <ele>495.7</ele>
        <time>2026-03-21T09:34:35Z</time>
      </trkpt>
      <trkpt lat="44.47985" lon="3.94739">
        <ele>496.18</ele>
        <time>2026-03-21T09:34:47Z</time>
      </trkpt>
      <trkpt lat="44.47983" lon="3.94744">
        <ele>496.66</ele>
        <time>2026-03-21T09:34:58Z</time>
      </trkpt>
      <trkpt lat="44.47983" lon="3.94744">
        <ele>499.06</ele>
        <time>2026-03-21T09:35:00Z</time>
      </trkpt>
      <trkpt lat="44.47983" lon="3.94739">
        <ele>497.14</ele>
        <time>2026-03-21T09:35:13Z</time>
      </trkpt>
      <trkpt lat="44.47985" lon="3.94735">
        <ele>496.18</ele>
        <time>2026-03-21T09:35:17Z</time>
      </trkpt>
      <trkpt lat="44.4799" lon="3.94739">
        <ele>494.74</ele>
        <time>2026-03-21T09:35:28Z</time>
      </trkpt>
      <trkpt lat="44.47996" lon="3.9474">
        <ele>497.14</ele>
        <time>2026-03-21T09:35:43Z</time>
      </trkpt>
      <trkpt lat="44.48001" lon="3.94742">
        <ele>497.14</ele>
        <time>2026-03-21T09:36:01Z</time>
      </trkpt>
      <trkpt lat="44.48003" lon="3.94739">
        <ele>497.14</ele>
        <time>2026-03-21T09:36:21Z</time>
      </trkpt>
      <trkpt lat="44.48012" lon="3.94739">
        <ele>496.18</ele>
        <time>2026-03-21T09:36:36Z</time>
      </trkpt>
      <trkpt lat="44.48012" lon="3.94744">
        <ele>496.18</ele>
        <time>2026-03-21T09:36:50Z</time>
      </trkpt>
      <trkpt lat="44.4801" lon="3.94747">
        <ele>495.22</ele>
        <time>2026-03-21T09:37:01Z</time>
      </trkpt>
      <trkpt lat="44.4801" lon="3.94748">
        <ele>499.54</ele>
        <time>2026-03-21T09:37:05Z</time>
      </trkpt>
      <trkpt lat="44.48012" lon="3.94747">
        <ele>496.66</ele>
        <time>2026-03-21T09:37:07Z</time>
      </trkpt>
      <trkpt lat="44.48012" lon="3.94748">
        <ele>496.18</ele>
        <time>2026-03-21T09:37:08Z</time>
      </trkpt>
      <trkpt lat="44.48015" lon="3.94755">
        <ele>496.66</ele>
        <time>2026-03-21T09:37:25Z</time>
      </trkpt>
      <trkpt lat="44.48017" lon="3.9476">
        <ele>496.18</ele>
        <time>2026-03-21T09:37:49Z</time>
      </trkpt>
      <trkpt lat="44.48016" lon="3.9476">
        <ele>497.14</ele>
        <time>2026-03-21T09:37:54Z</time>
      </trkpt>
      <trkpt lat="44.48013" lon="3.94759">
        <ele>497.14</ele>
        <time>2026-03-21T09:38:13Z</time>
      </trkpt>
      <trkpt lat="44.48014" lon="3.94758">
        <ele>495.7</ele>
        <time>2026-03-21T09:38:15Z</time>
      </trkpt>
      <trkpt lat="44.48013" lon="3.94758">
        <ele>497.62</ele>
        <time>2026-03-21T09:38:20Z</time>
      </trkpt>
      <trkpt lat="44.48014" lon="3.94753">
        <ele>498.58</ele>
        <time>2026-03-21T09:38:35Z</time>
      </trkpt>
      <trkpt lat="44.48016" lon="3.94746">
        <ele>501.46</ele>
        <time>2026-03-21T09:38:43Z</time>
      </trkpt>
      <trkpt lat="44.48016" lon="3.94742">
        <ele>500.02</ele>
        <time>2026-03-21T09:38:53Z</time>
      </trkpt>
      <trkpt lat="44.48017" lon="3.94739">
        <ele>501.46</ele>
        <time>2026-03-21T09:39:00Z</time>
      </trkpt>
      <trkpt lat="44.48019" lon="3.94735">
        <ele>504.35</ele>
        <time>2026-03-21T09:39:14Z</time>
      </trkpt>
      <trkpt lat="44.48023" lon="3.94721">
        <ele>507.23</ele>
        <time>2026-03-21T09:39:28Z</time>
      </trkpt>
      <trkpt lat="44.48024" lon="3.94719">
        <ele>508.67</ele>
        <time>2026-03-21T09:39:32Z</time>
      </trkpt>
      <trkpt lat="44.48026" lon="3.94716">
        <ele>509.16</ele>
        <time>2026-03-21T09:39:46Z</time>
      </trkpt>
      <trkpt lat="44.48029" lon="3.94714">
        <ele>510.6</ele>
        <time>2026-03-21T09:40:00Z</time>
      </trkpt>
      <trkpt lat="44.4803" lon="3.9471">
        <ele>513</ele>
        <time>2026-03-21T09:40:20Z</time>
      </trkpt>
      <trkpt lat="44.48028" lon="3.9471">
        <ele>514.44</ele>
        <time>2026-03-21T09:40:31Z</time>
      </trkpt>
      <trkpt lat="44.48029" lon="3.94706">
        <ele>514.92</ele>
        <time>2026-03-21T09:40:47Z</time>
      </trkpt>
      <trkpt lat="44.48032" lon="3.94701">
        <ele>517.33</ele>
        <time>2026-03-21T09:41:02Z</time>
      </trkpt>
      <trkpt lat="44.48033" lon="3.94699">
        <ele>517.33</ele>
        <time>2026-03-21T09:41:15Z</time>
      </trkpt>
      <trkpt lat="44.48035" lon="3.94703">
        <ele>518.77</ele>
        <time>2026-03-21T09:41:39Z</time>
      </trkpt>
      <trkpt lat="44.48034" lon="3.94695">
        <ele>521.17</ele>
        <time>2026-03-21T09:41:55Z</time>
      </trkpt>
      <trkpt lat="44.48039" lon="3.94689">
        <ele>525.02</ele>
        <time>2026-03-21T09:42:08Z</time>
      </trkpt>
      <trkpt lat="44.48043" lon="3.94686">
        <ele>527.9</ele>
        <time>2026-03-21T09:42:20Z</time>
      </trkpt>
      <trkpt lat="44.48046" lon="3.94686">
        <ele>531.75</ele>
        <time>2026-03-21T09:42:32Z</time>
      </trkpt>
      <trkpt lat="44.48047" lon="3.94681">
        <ele>534.63</ele>
        <time>2026-03-21T09:42:45Z</time>
      </trkpt>
      <trkpt lat="44.48051" lon="3.94674">
        <ele>537.03</ele>
        <time>2026-03-21T09:42:59Z</time>
      </trkpt>
      <trkpt lat="44.48058" lon="3.94683">
        <ele>540.4</ele>
        <time>2026-03-21T09:43:14Z</time>
      </trkpt>
      <trkpt lat="44.48065" lon="3.94686">
        <ele>540.88</ele>
        <time>2026-03-21T09:43:26Z</time>
      </trkpt>
      <trkpt lat="44.48064" lon="3.94686">
        <ele>541.36</ele>
        <time>2026-03-21T09:43:38Z</time>
      </trkpt>
      <trkpt lat="44.48063" lon="3.94681">
        <ele>543.28</ele>
        <time>2026-03-21T09:43:51Z</time>
      </trkpt>
      <trkpt lat="44.48061" lon="3.94674">
        <ele>545.69</ele>
        <time>2026-03-21T09:44:04Z</time>
      </trkpt>
      <trkpt lat="44.48058" lon="3.94663">
        <ele>547.13</ele>
        <time>2026-03-21T09:44:17Z</time>
      </trkpt>
      <trkpt lat="44.48063" lon="3.9466">
        <ele>549.53</ele>
        <time>2026-03-21T09:44:29Z</time>
      </trkpt>
      <trkpt lat="44.48072" lon="3.94668">
        <ele>551.45</ele>
        <time>2026-03-21T09:44:46Z</time>
      </trkpt>
      <trkpt lat="44.48079" lon="3.9467">
        <ele>554.34</ele>
        <time>2026-03-21T09:45:05Z</time>
      </trkpt>
      <trkpt lat="44.48081" lon="3.94666">
        <ele>557.22</ele>
        <time>2026-03-21T09:45:18Z</time>
      </trkpt>
      <trkpt lat="44.48083" lon="3.94662">
        <ele>559.14</ele>
        <time>2026-03-21T09:45:30Z</time>
      </trkpt>
      <trkpt lat="44.48083" lon="3.94656">
        <ele>561.55</ele>
        <time>2026-03-21T09:45:43Z</time>
      </trkpt>
      <trkpt lat="44.48083" lon="3.94653">
        <ele>563.95</ele>
        <time>2026-03-21T09:45:58Z</time>
      </trkpt>
      <trkpt lat="44.48078" lon="3.94647">
        <ele>565.39</ele>
        <time>2026-03-21T09:46:12Z</time>
      </trkpt>
      <trkpt lat="44.48083" lon="3.9465">
        <ele>565.87</ele>
        <time>2026-03-21T09:46:35Z</time>
      </trkpt>
      <trkpt lat="44.48084" lon="3.94654">
        <ele>565.87</ele>
        <time>2026-03-21T09:47:09Z</time>
      </trkpt>
      <trkpt lat="44.48081" lon="3.94654">
        <ele>563.95</ele>
        <time>2026-03-21T09:47:22Z</time>
      </trkpt>
      <trkpt lat="44.48081" lon="3.94653">
        <ele>566.35</ele>
        <time>2026-03-21T09:47:24Z</time>
      </trkpt>
      <trkpt lat="44.4808" lon="3.9465">
        <ele>564.91</ele>
        <time>2026-03-21T09:47:31Z</time>
      </trkpt>
      <trkpt lat="44.48079" lon="3.94648">
        <ele>564.91</ele>
        <time>2026-03-21T09:47:42Z</time>
      </trkpt>
      <trkpt lat="44.48079" lon="3.94648">
        <ele>566.35</ele>
        <time>2026-03-21T09:47:44Z</time>
      </trkpt>
      <trkpt lat="44.48078" lon="3.94648">
        <ele>567.32</ele>
        <time>2026-03-21T09:47:48Z</time>
      </trkpt>
      <trkpt lat="44.48078" lon="3.94648">
        <ele>565.39</ele>
        <time>2026-03-21T09:47:51Z</time>
      </trkpt>
      <trkpt lat="44.48078" lon="3.94645">
        <ele>566.35</ele>
        <time>2026-03-21T09:48:18Z</time>
      </trkpt>
      <trkpt lat="44.48077" lon="3.94646">
        <ele>566.35</ele>
        <time>2026-03-21T09:48:23Z</time>
      </trkpt>
      <trkpt lat="44.48078" lon="3.94646">
        <ele>563.47</ele>
        <time>2026-03-21T09:48:31Z</time>
      </trkpt>
      <trkpt lat="44.48078" lon="3.94646">
        <ele>566.83</ele>
        <time>2026-03-21T09:48:33Z</time>
      </trkpt>
      <trkpt lat="44.48075" lon="3.94638">
        <ele>567.32</ele>
        <time>2026-03-21T09:48:50Z</time>
      </trkpt>
      <trkpt lat="44.4807" lon="3.94625">
        <ele>569.24</ele>
        <time>2026-03-21T09:49:04Z</time>
      </trkpt>
      <trkpt lat="44.4807" lon="3.94615">
        <ele>571.64</ele>
        <time>2026-03-21T09:49:17Z</time>
      </trkpt>
      <trkpt lat="44.48071" lon="3.94609">
        <ele>573.08</ele>
        <time>2026-03-21T09:49:32Z</time>
      </trkpt>
      <trkpt lat="44.48068" lon="3.94595">
        <ele>575.01</ele>
        <time>2026-03-21T09:49:47Z</time>
      </trkpt>
      <trkpt lat="44.48069" lon="3.94589">
        <ele>576.45</ele>
        <time>2026-03-21T09:49:58Z</time>
      </trkpt>
      <trkpt lat="44.48081" lon="3.94596">
        <ele>578.37</ele>
        <time>2026-03-21T09:50:11Z</time>
      </trkpt>
      <trkpt lat="44.48087" lon="3.94603">
        <ele>579.81</ele>
        <time>2026-03-21T09:50:24Z</time>
      </trkpt>
      <trkpt lat="44.48091" lon="3.94609">
        <ele>582.22</ele>
        <time>2026-03-21T09:50:38Z</time>
      </trkpt>
      <trkpt lat="44.48087" lon="3.94601">
        <ele>583.66</ele>
        <time>2026-03-21T09:50:53Z</time>
      </trkpt>
      <trkpt lat="44.48086" lon="3.94591">
        <ele>586.06</ele>
        <time>2026-03-21T09:51:06Z</time>
      </trkpt>
      <trkpt lat="44.48089" lon="3.94594">
        <ele>587.5</ele>
        <time>2026-03-21T09:51:19Z</time>
      </trkpt>
      <trkpt lat="44.48099" lon="3.94604">
        <ele>590.39</ele>
        <time>2026-03-21T09:51:34Z</time>
      </trkpt>
      <trkpt lat="44.48106" lon="3.94611">
        <ele>592.31</ele>
        <time>2026-03-21T09:51:48Z</time>
      </trkpt>
      <trkpt lat="44.48109" lon="3.94621">
        <ele>593.75</ele>
        <time>2026-03-21T09:52:04Z</time>
      </trkpt>
      <trkpt lat="44.48112" lon="3.94623">
        <ele>594.71</ele>
        <time>2026-03-21T09:52:18Z</time>
      </trkpt>
      <trkpt lat="44.48115" lon="3.94627">
        <ele>596.15</ele>
        <time>2026-03-21T09:52:38Z</time>
      </trkpt>
      <trkpt lat="44.48118" lon="3.94626">
        <ele>598.08</ele>
        <time>2026-03-21T09:52:57Z</time>
      </trkpt>
      <trkpt lat="44.48123" lon="3.94629">
        <ele>600.96</ele>
        <time>2026-03-21T09:53:11Z</time>
      </trkpt>
      <trkpt lat="44.48131" lon="3.94631">
        <ele>603.36</ele>
        <time>2026-03-21T09:53:26Z</time>
      </trkpt>
      <trkpt lat="44.48139" lon="3.94639">
        <ele>606.25</ele>
        <time>2026-03-21T09:53:45Z</time>
      </trkpt>
      <trkpt lat="44.48137" lon="3.94635">
        <ele>607.69</ele>
        <time>2026-03-21T09:54:02Z</time>
      </trkpt>
      <trkpt lat="44.4813" lon="3.94624">
        <ele>609.13</ele>
        <time>2026-03-21T09:54:17Z</time>
      </trkpt>
      <trkpt lat="44.48128" lon="3.9462">
        <ele>610.09</ele>
        <time>2026-03-21T09:54:30Z</time>
      </trkpt>
      <trkpt lat="44.48135" lon="3.9462">
        <ele>611.54</ele>
        <time>2026-03-21T09:54:49Z</time>
      </trkpt>
      <trkpt lat="44.48141" lon="3.94624">
        <ele>613.46</ele>
        <time>2026-03-21T09:55:02Z</time>
      </trkpt>
      <trkpt lat="44.48148" lon="3.94629">
        <ele>614.9</ele>
        <time>2026-03-21T09:55:18Z</time>
      </trkpt>
      <trkpt lat="44.48156" lon="3.9464">
        <ele>617.3</ele>
        <time>2026-03-21T09:55:34Z</time>
      </trkpt>
      <trkpt lat="44.48161" lon="3.94646">
        <ele>619.23</ele>
        <time>2026-03-21T09:55:50Z</time>
      </trkpt>
      <trkpt lat="44.48157" lon="3.94637">
        <ele>621.15</ele>
        <time>2026-03-21T09:56:05Z</time>
      </trkpt>
      <trkpt lat="44.48157" lon="3.94631">
        <ele>622.59</ele>
        <time>2026-03-21T09:56:17Z</time>
      </trkpt>
      <trkpt lat="44.48163" lon="3.94638">
        <ele>624.99</ele>
        <time>2026-03-21T09:56:31Z</time>
      </trkpt>
      <trkpt lat="44.48168" lon="3.94649">
        <ele>626.44</ele>
        <time>2026-03-21T09:56:47Z</time>
      </trkpt>
      <trkpt lat="44.4817" lon="3.94655">
        <ele>628.36</ele>
        <time>2026-03-21T09:57:00Z</time>
      </trkpt>
      <trkpt lat="44.48171" lon="3.94645">
        <ele>630.28</ele>
        <time>2026-03-21T09:57:16Z</time>
      </trkpt>
      <trkpt lat="44.4817" lon="3.94635">
        <ele>631.72</ele>
        <time>2026-03-21T09:57:30Z</time>
      </trkpt>
      <trkpt lat="44.48166" lon="3.94626">
        <ele>633.65</ele>
        <time>2026-03-21T09:57:46Z</time>
      </trkpt>
      <trkpt lat="44.48159" lon="3.94622">
        <ele>633.65</ele>
        <time>2026-03-21T09:57:59Z</time>
      </trkpt>
      <trkpt lat="44.48159" lon="3.94625">
        <ele>632.2</ele>
        <time>2026-03-21T09:58:25Z</time>
      </trkpt>
      <trkpt lat="44.4816" lon="3.94626">
        <ele>633.65</ele>
        <time>2026-03-21T09:58:27Z</time>
      </trkpt>
      <trkpt lat="44.48173" lon="3.94629">
        <ele>634.61</ele>
        <time>2026-03-21T09:58:44Z</time>
      </trkpt>
      <trkpt lat="44.48176" lon="3.94629">
        <ele>637.01</ele>
        <time>2026-03-21T09:58:59Z</time>
      </trkpt>
      <trkpt lat="44.48175" lon="3.94625">
        <ele>637.97</ele>
        <time>2026-03-21T09:59:18Z</time>
      </trkpt>
      <trkpt lat="44.48181" lon="3.94631">
        <ele>640.38</ele>
        <time>2026-03-21T09:59:32Z</time>
      </trkpt>
      <trkpt lat="44.48183" lon="3.94625">
        <ele>642.78</ele>
        <time>2026-03-21T09:59:48Z</time>
      </trkpt>
      <trkpt lat="44.48191" lon="3.9463">
        <ele>644.7</ele>
        <time>2026-03-21T10:00:05Z</time>
      </trkpt>
      <trkpt lat="44.48186" lon="3.94623">
        <ele>647.1</ele>
        <time>2026-03-21T10:00:19Z</time>
      </trkpt>
      <trkpt lat="44.48195" lon="3.94627">
        <ele>649.51</ele>
        <time>2026-03-21T10:00:35Z</time>
      </trkpt>
      <trkpt lat="44.48201" lon="3.94644">
        <ele>651.43</ele>
        <time>2026-03-21T10:00:50Z</time>
      </trkpt>
      <trkpt lat="44.48202" lon="3.94658">
        <ele>653.83</ele>
        <time>2026-03-21T10:01:05Z</time>
      </trkpt>
      <trkpt lat="44.48202" lon="3.9467">
        <ele>655.76</ele>
        <time>2026-03-21T10:01:19Z</time>
      </trkpt>
      <trkpt lat="44.48204" lon="3.94669">
        <ele>658.16</ele>
        <time>2026-03-21T10:01:33Z</time>
      </trkpt>
      <trkpt lat="44.48209" lon="3.94675">
        <ele>659.6</ele>
        <time>2026-03-21T10:01:48Z</time>
      </trkpt>
      <trkpt lat="44.48214" lon="3.94686">
        <ele>661.52</ele>
        <time>2026-03-21T10:02:01Z</time>
      </trkpt>
      <trkpt lat="44.48215" lon="3.94694">
        <ele>662.01</ele>
        <time>2026-03-21T10:02:29Z</time>
      </trkpt>
      <trkpt lat="44.48221" lon="3.94702">
        <ele>662.97</ele>
        <time>2026-03-21T10:02:43Z</time>
      </trkpt>
      <trkpt lat="44.48216" lon="3.94695">
        <ele>665.37</ele>
        <time>2026-03-21T10:02:58Z</time>
      </trkpt>
      <trkpt lat="44.48218" lon="3.94681">
        <ele>667.77</ele>
        <time>2026-03-21T10:03:14Z</time>
      </trkpt>
      <trkpt lat="44.48219" lon="3.94673">
        <ele>669.7</ele>
        <time>2026-03-21T10:03:31Z</time>
      </trkpt>
      <trkpt lat="44.48224" lon="3.94661">
        <ele>671.62</ele>
        <time>2026-03-21T10:03:46Z</time>
      </trkpt>
      <trkpt lat="44.48227" lon="3.94652">
        <ele>674.02</ele>
        <time>2026-03-21T10:04:01Z</time>
      </trkpt>
      <trkpt lat="44.48237" lon="3.94664">
        <ele>676.42</ele>
        <time>2026-03-21T10:04:21Z</time>
      </trkpt>
      <trkpt lat="44.48235" lon="3.94662">
        <ele>678.35</ele>
        <time>2026-03-21T10:04:44Z</time>
      </trkpt>
      <trkpt lat="44.48236" lon="3.94663">
        <ele>678.35</ele>
        <time>2026-03-21T10:05:02Z</time>
      </trkpt>
      <trkpt lat="44.48236" lon="3.94654">
        <ele>680.27</ele>
        <time>2026-03-21T10:05:16Z</time>
      </trkpt>
      <trkpt lat="44.48242" lon="3.94656">
        <ele>682.19</ele>
        <time>2026-03-21T10:05:29Z</time>
      </trkpt>
      <trkpt lat="44.48247" lon="3.94671">
        <ele>683.15</ele>
        <time>2026-03-21T10:05:46Z</time>
      </trkpt>
      <trkpt lat="44.48247" lon="3.94684">
        <ele>681.23</ele>
        <time>2026-03-21T10:06:00Z</time>
      </trkpt>
      <trkpt lat="44.48239" lon="3.94684">
        <ele>681.23</ele>
        <time>2026-03-21T10:06:23Z</time>
      </trkpt>
      <trkpt lat="44.48242" lon="3.94678">
        <ele>683.15</ele>
        <time>2026-03-21T10:06:40Z</time>
      </trkpt>
      <trkpt lat="44.48247" lon="3.94685">
        <ele>684.12</ele>
        <time>2026-03-21T10:06:54Z</time>
      </trkpt>
      <trkpt lat="44.4825" lon="3.94688">
        <ele>687.48</ele>
        <time>2026-03-21T10:07:10Z</time>
      </trkpt>
      <trkpt lat="44.4825" lon="3.94682">
        <ele>688.44</ele>
        <time>2026-03-21T10:07:22Z</time>
      </trkpt>
      <trkpt lat="44.48258" lon="3.94696">
        <ele>690.84</ele>
        <time>2026-03-21T10:07:40Z</time>
      </trkpt>
      <trkpt lat="44.48262" lon="3.94709">
        <ele>692.29</ele>
        <time>2026-03-21T10:07:54Z</time>
      </trkpt>
      <trkpt lat="44.48264" lon="3.94722">
        <ele>694.21</ele>
        <time>2026-03-21T10:08:08Z</time>
      </trkpt>
      <trkpt lat="44.48269" lon="3.94741">
        <ele>696.61</ele>
        <time>2026-03-21T10:08:25Z</time>
      </trkpt>
      <trkpt lat="44.48268" lon="3.94759">
        <ele>699.02</ele>
        <time>2026-03-21T10:08:40Z</time>
      </trkpt>
      <trkpt lat="44.48269" lon="3.94773">
        <ele>701.9</ele>
        <time>2026-03-21T10:08:55Z</time>
      </trkpt>
      <trkpt lat="44.48271" lon="3.94788">
        <ele>703.82</ele>
        <time>2026-03-21T10:09:11Z</time>
      </trkpt>
      <trkpt lat="44.48271" lon="3.94786">
        <ele>705.75</ele>
        <time>2026-03-21T10:09:26Z</time>
      </trkpt>
      <trkpt lat="44.48274" lon="3.94785">
        <ele>707.19</ele>
        <time>2026-03-21T10:09:40Z</time>
      </trkpt>
      <trkpt lat="44.4828" lon="3.94792">
        <ele>708.63</ele>
        <time>2026-03-21T10:09:56Z</time>
      </trkpt>
      <trkpt lat="44.48273" lon="3.94785">
        <ele>711.03</ele>
        <time>2026-03-21T10:10:10Z</time>
      </trkpt>
      <trkpt lat="44.48277" lon="3.94775">
        <ele>712.95</ele>
        <time>2026-03-21T10:10:23Z</time>
      </trkpt>
      <trkpt lat="44.48288" lon="3.94789">
        <ele>714.88</ele>
        <time>2026-03-21T10:10:38Z</time>
      </trkpt>
      <trkpt lat="44.48287" lon="3.94785">
        <ele>716.32</ele>
        <time>2026-03-21T10:10:50Z</time>
      </trkpt>
      <trkpt lat="44.48286" lon="3.94781">
        <ele>716.32</ele>
        <time>2026-03-21T10:11:10Z</time>
      </trkpt>
      <trkpt lat="44.48284" lon="3.94773">
        <ele>716.8</ele>
        <time>2026-03-21T10:11:24Z</time>
      </trkpt>
      <trkpt lat="44.48288" lon="3.94769">
        <ele>718.72</ele>
        <time>2026-03-21T10:11:38Z</time>
      </trkpt>
      <trkpt lat="44.48299" lon="3.94782">
        <ele>721.13</ele>
        <time>2026-03-21T10:11:55Z</time>
      </trkpt>
      <trkpt lat="44.48306" lon="3.94783">
        <ele>723.05</ele>
        <time>2026-03-21T10:12:12Z</time>
      </trkpt>
      <trkpt lat="44.48314" lon="3.94786">
        <ele>725.45</ele>
        <time>2026-03-21T10:12:29Z</time>
      </trkpt>
      <trkpt lat="44.48323" lon="3.94785">
        <ele>727.86</ele>
        <time>2026-03-21T10:12:47Z</time>
      </trkpt>
      <trkpt lat="44.48328" lon="3.94787">
        <ele>730.26</ele>
        <time>2026-03-21T10:13:02Z</time>
      </trkpt>
      <trkpt lat="44.48324" lon="3.94783">
        <ele>732.18</ele>
        <time>2026-03-21T10:13:15Z</time>
      </trkpt>
      <trkpt lat="44.48323" lon="3.94781">
        <ele>732.66</ele>
        <time>2026-03-21T10:13:19Z</time>
      </trkpt>
      <trkpt lat="44.48317" lon="3.94775">
        <ele>733.14</ele>
        <time>2026-03-21T10:13:33Z</time>
      </trkpt>
      <trkpt lat="44.48316" lon="3.94773">
        <ele>734.1</ele>
        <time>2026-03-21T10:13:38Z</time>
      </trkpt>
      <trkpt lat="44.48313" lon="3.9477">
        <ele>735.07</ele>
        <time>2026-03-21T10:13:46Z</time>
      </trkpt>
      <trkpt lat="44.48314" lon="3.94766">
        <ele>736.51</ele>
        <time>2026-03-21T10:13:58Z</time>
      </trkpt>
      <trkpt lat="44.48318" lon="3.94762">
        <ele>738.43</ele>
        <time>2026-03-21T10:14:09Z</time>
      </trkpt>
      <trkpt lat="44.48323" lon="3.94759">
        <ele>740.35</ele>
        <time>2026-03-21T10:14:21Z</time>
      </trkpt>
      <trkpt lat="44.48325" lon="3.94759">
        <ele>742.28</ele>
        <time>2026-03-21T10:14:37Z</time>
      </trkpt>
      <trkpt lat="44.48319" lon="3.94752">
        <ele>743.72</ele>
        <time>2026-03-21T10:14:51Z</time>
      </trkpt>
      <trkpt lat="44.4832" lon="3.9474">
        <ele>745.16</ele>
        <time>2026-03-21T10:15:05Z</time>
      </trkpt>
      <trkpt lat="44.48324" lon="3.94723">
        <ele>747.56</ele>
        <time>2026-03-21T10:15:19Z</time>
      </trkpt>
      <trkpt lat="44.48327" lon="3.94712">
        <ele>749.97</ele>
        <time>2026-03-21T10:15:35Z</time>
      </trkpt>
      <trkpt lat="44.48329" lon="3.94705">
        <ele>751.89</ele>
        <time>2026-03-21T10:15:49Z</time>
      </trkpt>
      <trkpt lat="44.48333" lon="3.94697">
        <ele>754.29</ele>
        <time>2026-03-21T10:16:03Z</time>
      </trkpt>
      <trkpt lat="44.48339" lon="3.94699">
        <ele>755.73</ele>
        <time>2026-03-21T10:16:20Z</time>
      </trkpt>
      <trkpt lat="44.48341" lon="3.94694">
        <ele>758.62</ele>
        <time>2026-03-21T10:16:35Z</time>
      </trkpt>
      <trkpt lat="44.48346" lon="3.947">
        <ele>762.46</ele>
        <time>2026-03-21T10:16:44Z</time>
      </trkpt>
      <trkpt lat="44.48346" lon="3.94701">
        <ele>762.46</ele>
        <time>2026-03-21T10:16:45Z</time>
      </trkpt>
      <trkpt lat="44.48347" lon="3.94702">
        <ele>760.54</ele>
        <time>2026-03-21T10:16:47Z</time>
      </trkpt>
      <trkpt lat="44.48351" lon="3.94716">
        <ele>761.98</ele>
        <time>2026-03-21T10:17:04Z</time>
      </trkpt>
      <trkpt lat="44.48354" lon="3.94725">
        <ele>763.42</ele>
        <time>2026-03-21T10:17:18Z</time>
      </trkpt>
      <trkpt lat="44.48355" lon="3.94735">
        <ele>764.39</ele>
        <time>2026-03-21T10:17:32Z</time>
      </trkpt>
      <trkpt lat="44.4836" lon="3.94746">
        <ele>765.83</ele>
        <time>2026-03-21T10:17:48Z</time>
      </trkpt>
      <trkpt lat="44.48363" lon="3.94751">
        <ele>767.27</ele>
        <time>2026-03-21T10:18:04Z</time>
      </trkpt>
      <trkpt lat="44.48366" lon="3.94749">
        <ele>769.19</ele>
        <time>2026-03-21T10:18:19Z</time>
      </trkpt>
      <trkpt lat="44.48373" lon="3.94745">
        <ele>771.6</ele>
        <time>2026-03-21T10:18:36Z</time>
      </trkpt>
      <trkpt lat="44.48374" lon="3.94745">
        <ele>774</ele>
        <time>2026-03-21T10:18:51Z</time>
      </trkpt>
      <trkpt lat="44.48367" lon="3.94741">
        <ele>774.96</ele>
        <time>2026-03-21T10:19:06Z</time>
      </trkpt>
      <trkpt lat="44.48367" lon="3.94732">
        <ele>776.4</ele>
        <time>2026-03-21T10:19:19Z</time>
      </trkpt>
      <trkpt lat="44.48376" lon="3.94732">
        <ele>778.81</ele>
        <time>2026-03-21T10:19:34Z</time>
      </trkpt>
      <trkpt lat="44.48383" lon="3.94728">
        <ele>780.73</ele>
        <time>2026-03-21T10:19:50Z</time>
      </trkpt>
      <trkpt lat="44.48382" lon="3.94726">
        <ele>782.17</ele>
        <time>2026-03-21T10:20:04Z</time>
      </trkpt>
      <trkpt lat="44.48374" lon="3.94724">
        <ele>784.09</ele>
        <time>2026-03-21T10:20:19Z</time>
      </trkpt>
      <trkpt lat="44.48379" lon="3.94719">
        <ele>786.5</ele>
        <time>2026-03-21T10:20:34Z</time>
      </trkpt>
      <trkpt lat="44.4839" lon="3.94716">
        <ele>788.9</ele>
        <time>2026-03-21T10:20:52Z</time>
      </trkpt>
      <trkpt lat="44.48398" lon="3.94721">
        <ele>791.3</ele>
        <time>2026-03-21T10:21:07Z</time>
      </trkpt>
      <trkpt lat="44.48392" lon="3.94715">
        <ele>792.74</ele>
        <time>2026-03-21T10:21:20Z</time>
      </trkpt>
      <trkpt lat="44.4839" lon="3.94714">
        <ele>793.71</ele>
        <time>2026-03-21T10:21:34Z</time>
      </trkpt>
      <trkpt lat="44.48383" lon="3.94703">
        <ele>795.15</ele>
        <time>2026-03-21T10:21:50Z</time>
      </trkpt>
      <trkpt lat="44.48379" lon="3.94688">
        <ele>796.59</ele>
        <time>2026-03-21T10:22:04Z</time>
      </trkpt>
      <trkpt lat="44.48373" lon="3.94675">
        <ele>799.47</ele>
        <time>2026-03-21T10:22:17Z</time>
      </trkpt>
      <trkpt lat="44.48373" lon="3.94671">
        <ele>800.44</ele>
        <time>2026-03-21T10:22:28Z</time>
      </trkpt>
      <trkpt lat="44.48373" lon="3.94671">
        <ele>798.99</ele>
        <time>2026-03-21T10:22:30Z</time>
      </trkpt>
      <trkpt lat="44.48373" lon="3.94667">
        <ele>798.51</ele>
        <time>2026-03-21T10:22:49Z</time>
      </trkpt>
      <trkpt lat="44.48373" lon="3.94666">
        <ele>798.99</ele>
        <time>2026-03-21T10:23:15Z</time>
      </trkpt>
      <trkpt lat="44.48372" lon="3.94667">
        <ele>798.99</ele>
        <time>2026-03-21T10:23:40Z</time>
      </trkpt>
      <trkpt lat="44.48372" lon="3.94667">
        <ele>798.99</ele>
        <time>2026-03-21T10:24:05Z</time>
      </trkpt>
      <trkpt lat="44.48373" lon="3.94668">
        <ele>798.99</ele>
        <time>2026-03-21T10:24:31Z</time>
      </trkpt>
      <trkpt lat="44.48372" lon="3.94668">
        <ele>800.44</ele>
        <time>2026-03-21T10:24:50Z</time>
      </trkpt>
      <trkpt lat="44.48372" lon="3.94666">
        <ele>800.44</ele>
        <time>2026-03-21T10:25:09Z</time>
      </trkpt>
      <trkpt lat="44.48373" lon="3.94665">
        <ele>800.44</ele>
        <time>2026-03-21T10:25:27Z</time>
      </trkpt>
      <trkpt lat="44.48372" lon="3.94664">
        <ele>800.44</ele>
        <time>2026-03-21T10:25:48Z</time>
      </trkpt>
      <trkpt lat="44.48372" lon="3.94667">
        <ele>800.44</ele>
        <time>2026-03-21T10:26:19Z</time>
      </trkpt>
      <trkpt lat="44.48372" lon="3.94667">
        <ele>800.44</ele>
        <time>2026-03-21T10:26:40Z</time>
      </trkpt>
      <trkpt lat="44.48373" lon="3.94667">
        <ele>800.92</ele>
        <time>2026-03-21T10:27:06Z</time>
      </trkpt>
      <trkpt lat="44.48374" lon="3.94668">
        <ele>801.4</ele>
        <time>2026-03-21T10:27:25Z</time>
      </trkpt>
      <trkpt lat="44.48376" lon="3.94669">
        <ele>801.4</ele>
        <time>2026-03-21T10:27:54Z</time>
      </trkpt>
      <trkpt lat="44.48376" lon="3.94665">
        <ele>801.88</ele>
        <time>2026-03-21T10:28:15Z</time>
      </trkpt>
      <trkpt lat="44.48376" lon="3.94662">
        <ele>801.88</ele>
        <time>2026-03-21T10:28:38Z</time>
      </trkpt>
      <trkpt lat="44.48377" lon="3.94663">
        <ele>803.32</ele>
        <time>2026-03-21T10:28:52Z</time>
      </trkpt>
      <trkpt lat="44.48387" lon="3.94671">
        <ele>805.24</ele>
        <time>2026-03-21T10:29:08Z</time>
      </trkpt>
      <trkpt lat="44.48395" lon="3.94681">
        <ele>808.13</ele>
        <time>2026-03-21T10:29:25Z</time>
      </trkpt>
      <trkpt lat="44.48405" lon="3.94689">
        <ele>809.57</ele>
        <time>2026-03-21T10:29:41Z</time>
      </trkpt>
      <trkpt lat="44.48407" lon="3.94697">
        <ele>810.05</ele>
        <time>2026-03-21T10:30:02Z</time>
      </trkpt>
      <trkpt lat="44.48416" lon="3.94696">
        <ele>812.45</ele>
        <time>2026-03-21T10:30:18Z</time>
      </trkpt>
      <trkpt lat="44.48424" lon="3.94699">
        <ele>813.41</ele>
        <time>2026-03-21T10:30:31Z</time>
      </trkpt>
      <trkpt lat="44.48431" lon="3.94712">
        <ele>815.82</ele>
        <time>2026-03-21T10:30:46Z</time>
      </trkpt>
      <trkpt lat="44.48431" lon="3.9471">
        <ele>816.78</ele>
        <time>2026-03-21T10:30:57Z</time>
      </trkpt>
      <trkpt lat="44.48438" lon="3.94712">
        <ele>818.22</ele>
        <time>2026-03-21T10:31:11Z</time>
      </trkpt>
      <trkpt lat="44.48447" lon="3.9472">
        <ele>820.62</ele>
        <time>2026-03-21T10:31:25Z</time>
      </trkpt>
      <trkpt lat="44.48455" lon="3.94731">
        <ele>821.1</ele>
        <time>2026-03-21T10:31:39Z</time>
      </trkpt>
      <trkpt lat="44.48462" lon="3.94729">
        <ele>821.1</ele>
        <time>2026-03-21T10:31:54Z</time>
      </trkpt>
      <trkpt lat="44.48474" lon="3.94729">
        <ele>823.03</ele>
        <time>2026-03-21T10:32:09Z</time>
      </trkpt>
      <trkpt lat="44.48486" lon="3.94739">
        <ele>824.47</ele>
        <time>2026-03-21T10:32:25Z</time>
      </trkpt>
      <trkpt lat="44.48493" lon="3.94751">
        <ele>826.39</ele>
        <time>2026-03-21T10:32:40Z</time>
      </trkpt>
      <trkpt lat="44.48499" lon="3.94761">
        <ele>828.79</ele>
        <time>2026-03-21T10:32:55Z</time>
      </trkpt>
      <trkpt lat="44.48501" lon="3.94757">
        <ele>830.72</ele>
        <time>2026-03-21T10:33:07Z</time>
      </trkpt>
      <trkpt lat="44.48505" lon="3.9476">
        <ele>832.16</ele>
        <time>2026-03-21T10:33:22Z</time>
      </trkpt>
      <trkpt lat="44.48509" lon="3.94767">
        <ele>834.08</ele>
        <time>2026-03-21T10:33:35Z</time>
      </trkpt>
      <trkpt lat="44.4851" lon="3.94773">
        <ele>835.04</ele>
        <time>2026-03-21T10:33:52Z</time>
      </trkpt>
      <trkpt lat="44.48514" lon="3.94781">
        <ele>836.96</ele>
        <time>2026-03-21T10:34:08Z</time>
      </trkpt>
      <trkpt lat="44.48512" lon="3.94784">
        <ele>838.41</ele>
        <time>2026-03-21T10:34:22Z</time>
      </trkpt>
      <trkpt lat="44.48512" lon="3.94784">
        <ele>836.96</ele>
        <time>2026-03-21T10:34:24Z</time>
      </trkpt>
      <trkpt lat="44.4851" lon="3.94784">
        <ele>836.48</ele>
        <time>2026-03-21T10:34:39Z</time>
      </trkpt>
      <trkpt lat="44.48511" lon="3.94786">
        <ele>836.48</ele>
        <time>2026-03-21T10:35:03Z</time>
      </trkpt>
      <trkpt lat="44.48513" lon="3.94788">
        <ele>837.93</ele>
        <time>2026-03-21T10:35:08Z</time>
      </trkpt>
      <trkpt lat="44.48516" lon="3.94795">
        <ele>840.33</ele>
        <time>2026-03-21T10:35:22Z</time>
      </trkpt>
      <trkpt lat="44.48517" lon="3.94806">
        <ele>843.21</ele>
        <time>2026-03-21T10:35:37Z</time>
      </trkpt>
      <trkpt lat="44.48514" lon="3.94815">
        <ele>844.66</ele>
        <time>2026-03-21T10:35:54Z</time>
      </trkpt>
      <trkpt lat="44.48514" lon="3.9482">
        <ele>846.1</ele>
        <time>2026-03-21T10:36:09Z</time>
      </trkpt>
      <trkpt lat="44.48511" lon="3.94821">
        <ele>846.58</ele>
        <time>2026-03-21T10:36:36Z</time>
      </trkpt>
      <trkpt lat="44.48512" lon="3.94819">
        <ele>847.06</ele>
        <time>2026-03-21T10:37:06Z</time>
      </trkpt>
      <trkpt lat="44.48513" lon="3.94828">
        <ele>848.5</ele>
        <time>2026-03-21T10:37:23Z</time>
      </trkpt>
      <trkpt lat="44.48512" lon="3.9483">
        <ele>849.94</ele>
        <time>2026-03-21T10:37:38Z</time>
      </trkpt>
      <trkpt lat="44.48513" lon="3.94829">
        <ele>849.94</ele>
        <time>2026-03-21T10:37:57Z</time>
      </trkpt>
      <trkpt lat="44.48516" lon="3.94837">
        <ele>853.31</ele>
        <time>2026-03-21T10:38:08Z</time>
      </trkpt>
      <trkpt lat="44.48516" lon="3.94837">
        <ele>853.31</ele>
        <time>2026-03-21T10:38:09Z</time>
      </trkpt>
      <trkpt lat="44.48519" lon="3.9484">
        <ele>853.79</ele>
        <time>2026-03-21T10:38:18Z</time>
      </trkpt>
      <trkpt lat="44.48518" lon="3.94842">
        <ele>853.79</ele>
        <time>2026-03-21T10:38:31Z</time>
      </trkpt>
      <trkpt lat="44.48521" lon="3.94853">
        <ele>854.27</ele>
        <time>2026-03-21T10:38:48Z</time>
      </trkpt>
      <trkpt lat="44.48523" lon="3.94867">
        <ele>856.19</ele>
        <time>2026-03-21T10:39:03Z</time>
      </trkpt>
      <trkpt lat="44.48524" lon="3.94881">
        <ele>858.11</ele>
        <time>2026-03-21T10:39:18Z</time>
      </trkpt>
      <trkpt lat="44.48524" lon="3.94897">
        <ele>860.52</ele>
        <time>2026-03-21T10:39:33Z</time>
      </trkpt>
      <trkpt lat="44.48523" lon="3.94914">
        <ele>862.92</ele>
        <time>2026-03-21T10:39:48Z</time>
      </trkpt>
      <trkpt lat="44.48521" lon="3.94915">
        <ele>862.92</ele>
        <time>2026-03-21T10:40:06Z</time>
      </trkpt>
      <trkpt lat="44.48522" lon="3.94916">
        <ele>863.88</ele>
        <time>2026-03-21T10:40:26Z</time>
      </trkpt>
      <trkpt lat="44.48518" lon="3.94914">
        <ele>863.88</ele>
        <time>2026-03-21T10:40:42Z</time>
      </trkpt>
      <trkpt lat="44.48519" lon="3.94915">
        <ele>863.88</ele>
        <time>2026-03-21T10:40:57Z</time>
      </trkpt>
      <trkpt lat="44.48519" lon="3.94917">
        <ele>863.88</ele>
        <time>2026-03-21T10:40:59Z</time>
      </trkpt>
      <trkpt lat="44.48521" lon="3.94936">
        <ele>863.88</ele>
        <time>2026-03-21T10:41:13Z</time>
      </trkpt>
      <trkpt lat="44.48524" lon="3.94944">
        <ele>864.36</ele>
        <time>2026-03-21T10:41:22Z</time>
      </trkpt>
      <trkpt lat="44.48529" lon="3.94963">
        <ele>865.8</ele>
        <time>2026-03-21T10:41:39Z</time>
      </trkpt>
      <trkpt lat="44.48531" lon="3.94978">
        <ele>867.73</ele>
        <time>2026-03-21T10:41:54Z</time>
      </trkpt>
      <trkpt lat="44.4853" lon="3.94983">
        <ele>867.73</ele>
        <time>2026-03-21T10:42:13Z</time>
      </trkpt>
      <trkpt lat="44.48532" lon="3.9499">
        <ele>868.21</ele>
        <time>2026-03-21T10:42:19Z</time>
      </trkpt>
      <trkpt lat="44.48534" lon="3.95003">
        <ele>870.13</ele>
        <time>2026-03-21T10:42:34Z</time>
      </trkpt>
      <trkpt lat="44.48538" lon="3.95012">
        <ele>872.05</ele>
        <time>2026-03-21T10:42:47Z</time>
      </trkpt>
      <trkpt lat="44.48539" lon="3.95013">
        <ele>872.53</ele>
        <time>2026-03-21T10:43:02Z</time>
      </trkpt>
      <trkpt lat="44.48539" lon="3.95013">
        <ele>872.53</ele>
        <time>2026-03-21T10:43:04Z</time>
      </trkpt>
      <trkpt lat="44.48545" lon="3.95006">
        <ele>873.98</ele>
        <time>2026-03-21T10:43:17Z</time>
      </trkpt>
      <trkpt lat="44.48555" lon="3.95003">
        <ele>876.38</ele>
        <time>2026-03-21T10:43:31Z</time>
      </trkpt>
      <trkpt lat="44.48561" lon="3.95">
        <ele>877.82</ele>
        <time>2026-03-21T10:43:41Z</time>
      </trkpt>
      <trkpt lat="44.48569" lon="3.95">
        <ele>879.26</ele>
        <time>2026-03-21T10:43:54Z</time>
      </trkpt>
      <trkpt lat="44.48571" lon="3.94998">
        <ele>879.26</ele>
        <time>2026-03-21T10:44:00Z</time>
      </trkpt>
      <trkpt lat="44.48585" lon="3.94994">
        <ele>881.67</ele>
        <time>2026-03-21T10:44:16Z</time>
      </trkpt>
      <trkpt lat="44.48599" lon="3.9499">
        <ele>883.59</ele>
        <time>2026-03-21T10:44:34Z</time>
      </trkpt>
      <trkpt lat="44.48606" lon="3.94984">
        <ele>883.59</ele>
        <time>2026-03-21T10:44:45Z</time>
      </trkpt>
      <trkpt lat="44.48614" lon="3.94965">
        <ele>884.55</ele>
        <time>2026-03-21T10:45:03Z</time>
      </trkpt>
      <trkpt lat="44.48619" lon="3.94962">
        <ele>884.55</ele>
        <time>2026-03-21T10:45:17Z</time>
      </trkpt>
      <trkpt lat="44.48614" lon="3.94972">
        <ele>884.55</ele>
        <time>2026-03-21T10:45:25Z</time>
      </trkpt>
      <trkpt lat="44.48613" lon="3.94978">
        <ele>883.59</ele>
        <time>2026-03-21T10:45:31Z</time>
      </trkpt>
      <trkpt lat="44.48614" lon="3.94977">
        <ele>885.03</ele>
        <time>2026-03-21T10:45:35Z</time>
      </trkpt>
      <trkpt lat="44.48611" lon="3.94977">
        <ele>883.11</ele>
        <time>2026-03-21T10:46:03Z</time>
      </trkpt>
      <trkpt lat="44.48611" lon="3.94979">
        <ele>884.07</ele>
        <time>2026-03-21T10:46:17Z</time>
      </trkpt>
      <trkpt lat="44.48613" lon="3.94978">
        <ele>885.03</ele>
        <time>2026-03-21T10:46:32Z</time>
      </trkpt>
      <trkpt lat="44.48612" lon="3.94978">
        <ele>885.03</ele>
        <time>2026-03-21T10:46:54Z</time>
      </trkpt>
      <trkpt lat="44.4861" lon="3.94977">
        <ele>885.03</ele>
        <time>2026-03-21T10:47:23Z</time>
      </trkpt>
      <trkpt lat="44.4861" lon="3.94977">
        <ele>883.59</ele>
        <time>2026-03-21T10:47:27Z</time>
      </trkpt>
      <trkpt lat="44.48609" lon="3.94977">
        <ele>883.11</ele>
        <time>2026-03-21T10:47:49Z</time>
      </trkpt>
      <trkpt lat="44.48609" lon="3.94976">
        <ele>884.55</ele>
        <time>2026-03-21T10:47:55Z</time>
      </trkpt>
      <trkpt lat="44.48609" lon="3.94977">
        <ele>885.03</ele>
        <time>2026-03-21T10:48:18Z</time>
      </trkpt>
      <trkpt lat="44.4861" lon="3.94984">
        <ele>885.03</ele>
        <time>2026-03-21T10:48:43Z</time>
      </trkpt>
      <trkpt lat="44.4861" lon="3.94987">
        <ele>883.59</ele>
        <time>2026-03-21T10:48:49Z</time>
      </trkpt>
      <trkpt lat="44.48618" lon="3.9501">
        <ele>885.03</ele>
        <time>2026-03-21T10:49:09Z</time>
      </trkpt>
      <trkpt lat="44.48618" lon="3.95012">
        <ele>885.03</ele>
        <time>2026-03-21T10:49:10Z</time>
      </trkpt>
      <trkpt lat="44.48628" lon="3.95027">
        <ele>885.03</ele>
        <time>2026-03-21T10:49:26Z</time>
      </trkpt>
      <trkpt lat="44.48634" lon="3.95034">
        <ele>885.03</ele>
        <time>2026-03-21T10:49:40Z</time>
      </trkpt>
      <trkpt lat="44.48637" lon="3.9504">
        <ele>885.03</ele>
        <time>2026-03-21T10:49:46Z</time>
      </trkpt>
      <trkpt lat="44.48641" lon="3.95051">
        <ele>885.03</ele>
        <time>2026-03-21T10:49:55Z</time>
      </trkpt>
      <trkpt lat="44.48652" lon="3.95071">
        <ele>885.03</ele>
        <time>2026-03-21T10:50:14Z</time>
      </trkpt>
      <trkpt lat="44.48658" lon="3.95072">
        <ele>885.03</ele>
        <time>2026-03-21T10:50:25Z</time>
      </trkpt>
      <trkpt lat="44.48673" lon="3.95057">
        <ele>883.59</ele>
        <time>2026-03-21T10:50:44Z</time>
      </trkpt>
      <trkpt lat="44.48692" lon="3.95049">
        <ele>883.11</ele>
        <time>2026-03-21T10:51:03Z</time>
      </trkpt>
      <trkpt lat="44.48714" lon="3.9504">
        <ele>881.19</ele>
        <time>2026-03-21T10:51:24Z</time>
      </trkpt>
      <trkpt lat="44.48734" lon="3.95031">
        <ele>879.74</ele>
        <time>2026-03-21T10:51:43Z</time>
      </trkpt>
      <trkpt lat="44.48754" lon="3.95022">
        <ele>878.78</ele>
        <time>2026-03-21T10:52:02Z</time>
      </trkpt>
      <trkpt lat="44.48775" lon="3.95012">
        <ele>876.86</ele>
        <time>2026-03-21T10:52:22Z</time>
      </trkpt>
      <trkpt lat="44.488" lon="3.95002">
        <ele>875.9</ele>
        <time>2026-03-21T10:52:44Z</time>
      </trkpt>
      <trkpt lat="44.48822" lon="3.94995">
        <ele>874.46</ele>
        <time>2026-03-21T10:53:04Z</time>
      </trkpt>
      <trkpt lat="44.48841" lon="3.94988">
        <ele>872.53</ele>
        <time>2026-03-21T10:53:22Z</time>
      </trkpt>
      <trkpt lat="44.48847" lon="3.94987">
        <ele>871.57</ele>
        <time>2026-03-21T10:53:27Z</time>
      </trkpt>
      <trkpt lat="44.48864" lon="3.9498">
        <ele>867.25</ele>
        <time>2026-03-21T10:53:46Z</time>
      </trkpt>
      <trkpt lat="44.48881" lon="3.94973">
        <ele>864.36</ele>
        <time>2026-03-21T10:54:04Z</time>
      </trkpt>
      <trkpt lat="44.48889" lon="3.94972">
        <ele>862.92</ele>
        <time>2026-03-21T10:54:12Z</time>
      </trkpt>
      <trkpt lat="44.48896" lon="3.94968">
        <ele>859.08</ele>
        <time>2026-03-21T10:54:21Z</time>
      </trkpt>
      <trkpt lat="44.48897" lon="3.94967">
        <ele>862.92</ele>
        <time>2026-03-21T10:54:22Z</time>
      </trkpt>
      <trkpt lat="44.48901" lon="3.94972">
        <ele>860.04</ele>
        <time>2026-03-21T10:54:28Z</time>
      </trkpt>
      <trkpt lat="44.48907" lon="3.94982">
        <ele>857.63</ele>
        <time>2026-03-21T10:54:43Z</time>
      </trkpt>
      <trkpt lat="44.48913" lon="3.94989">
        <ele>858.11</ele>
        <time>2026-03-21T10:54:57Z</time>
      </trkpt>
      <trkpt lat="44.48917" lon="3.94989">
        <ele>858.59</ele>
        <time>2026-03-21T10:55:03Z</time>
      </trkpt>
      <trkpt lat="44.48933" lon="3.94993">
        <ele>858.59</ele>
        <time>2026-03-21T10:55:20Z</time>
      </trkpt>
      <trkpt lat="44.48946" lon="3.94993">
        <ele>859.08</ele>
        <time>2026-03-21T10:55:35Z</time>
      </trkpt>
      <trkpt lat="44.48958" lon="3.94989">
        <ele>859.08</ele>
        <time>2026-03-21T10:55:48Z</time>
      </trkpt>
      <trkpt lat="44.48968" lon="3.94994">
        <ele>861.96</ele>
        <time>2026-03-21T10:56:03Z</time>
      </trkpt>
      <trkpt lat="44.48975" lon="3.95">
        <ele>862.92</ele>
        <time>2026-03-21T10:56:18Z</time>
      </trkpt>
      <trkpt lat="44.4898" lon="3.94989">
        <ele>865.32</ele>
        <time>2026-03-21T10:56:31Z</time>
      </trkpt>
      <trkpt lat="44.48986" lon="3.94982">
        <ele>866.77</ele>
        <time>2026-03-21T10:56:43Z</time>
      </trkpt>
      <trkpt lat="44.48994" lon="3.94979">
        <ele>868.69</ele>
        <time>2026-03-21T10:56:55Z</time>
      </trkpt>
      <trkpt lat="44.49004" lon="3.94979">
        <ele>869.65</ele>
        <time>2026-03-21T10:57:09Z</time>
      </trkpt>
      <trkpt lat="44.49005" lon="3.94978">
        <ele>869.65</ele>
        <time>2026-03-21T10:57:10Z</time>
      </trkpt>
      <trkpt lat="44.49014" lon="3.94979">
        <ele>871.09</ele>
        <time>2026-03-21T10:57:20Z</time>
      </trkpt>
      <trkpt lat="44.4902" lon="3.94981">
        <ele>871.09</ele>
        <time>2026-03-21T10:57:26Z</time>
      </trkpt>
      <trkpt lat="44.49023" lon="3.94982">
        <ele>871.57</ele>
        <time>2026-03-21T10:57:29Z</time>
      </trkpt>
      <trkpt lat="44.49025" lon="3.94983">
        <ele>871.57</ele>
        <time>2026-03-21T10:57:31Z</time>
      </trkpt>
      <trkpt lat="44.49034" lon="3.94985">
        <ele>872.05</ele>
        <time>2026-03-21T10:57:40Z</time>
      </trkpt>
      <trkpt lat="44.49039" lon="3.94986">
        <ele>871.57</ele>
        <time>2026-03-21T10:57:53Z</time>
      </trkpt>
      <trkpt lat="44.49041" lon="3.94987">
        <ele>873.01</ele>
        <time>2026-03-21T10:57:55Z</time>
      </trkpt>
      <trkpt lat="44.49047" lon="3.94988">
        <ele>873.01</ele>
        <time>2026-03-21T10:58:04Z</time>
      </trkpt>
      <trkpt lat="44.49055" lon="3.94975">
        <ele>875.9</ele>
        <time>2026-03-21T10:58:16Z</time>
      </trkpt>
      <trkpt lat="44.49062" lon="3.94971">
        <ele>877.82</ele>
        <time>2026-03-21T10:58:27Z</time>
      </trkpt>
      <trkpt lat="44.49068" lon="3.94968">
        <ele>879.74</ele>
        <time>2026-03-21T10:58:40Z</time>
      </trkpt>
      <trkpt lat="44.49077" lon="3.94963">
        <ele>880.71</ele>
        <time>2026-03-21T10:58:51Z</time>
      </trkpt>
      <trkpt lat="44.4909" lon="3.94961">
        <ele>881.67</ele>
        <time>2026-03-21T10:59:05Z</time>
      </trkpt>
      <trkpt lat="44.49092" lon="3.94961">
        <ele>882.15</ele>
        <time>2026-03-21T10:59:08Z</time>
      </trkpt>
      <trkpt lat="44.49098" lon="3.94958">
        <ele>882.63</ele>
        <time>2026-03-21T10:59:14Z</time>
      </trkpt>
      <trkpt lat="44.4911" lon="3.94948">
        <ele>883.59</ele>
        <time>2026-03-21T10:59:28Z</time>
      </trkpt>
      <trkpt lat="44.49122" lon="3.94937">
        <ele>883.11</ele>
        <time>2026-03-21T10:59:42Z</time>
      </trkpt>
      <trkpt lat="44.49136" lon="3.94926">
        <ele>884.07</ele>
        <time>2026-03-21T10:59:56Z</time>
      </trkpt>
      <trkpt lat="44.49138" lon="3.94926">
        <ele>880.71</ele>
        <time>2026-03-21T10:59:59Z</time>
      </trkpt>
      <trkpt lat="44.49138" lon="3.94925">
        <ele>885.03</ele>
        <time>2026-03-21T11:00:00Z</time>
      </trkpt>
      <trkpt lat="44.49142" lon="3.94922">
        <ele>884.07</ele>
        <time>2026-03-21T11:00:04Z</time>
      </trkpt>
      <trkpt lat="44.49157" lon="3.9491">
        <ele>883.59</ele>
        <time>2026-03-21T11:00:19Z</time>
      </trkpt>
      <trkpt lat="44.49169" lon="3.94902">
        <ele>885.03</ele>
        <time>2026-03-21T11:00:35Z</time>
      </trkpt>
      <trkpt lat="44.49176" lon="3.94896">
        <ele>883.59</ele>
        <time>2026-03-21T11:00:43Z</time>
      </trkpt>
      <trkpt lat="44.49178" lon="3.94893">
        <ele>883.59</ele>
        <time>2026-03-21T11:01:00Z</time>
      </trkpt>
      <trkpt lat="44.49189" lon="3.94888">
        <ele>883.59</ele>
        <time>2026-03-21T11:01:20Z</time>
      </trkpt>
      <trkpt lat="44.492" lon="3.94885">
        <ele>883.59</ele>
        <time>2026-03-21T11:01:33Z</time>
      </trkpt>
      <trkpt lat="44.49221" lon="3.94878">
        <ele>883.59</ele>
        <time>2026-03-21T11:01:53Z</time>
      </trkpt>
      <trkpt lat="44.49243" lon="3.94871">
        <ele>883.59</ele>
        <time>2026-03-21T11:02:12Z</time>
      </trkpt>
      <trkpt lat="44.49249" lon="3.94868">
        <ele>883.59</ele>
        <time>2026-03-21T11:02:17Z</time>
      </trkpt>
      <trkpt lat="44.49256" lon="3.94864">
        <ele>883.59</ele>
        <time>2026-03-21T11:02:24Z</time>
      </trkpt>
      <trkpt lat="44.49273" lon="3.94854">
        <ele>884.55</ele>
        <time>2026-03-21T11:02:42Z</time>
      </trkpt>
      <trkpt lat="44.49282" lon="3.94851">
        <ele>885.51</ele>
        <time>2026-03-21T11:02:51Z</time>
      </trkpt>
      <trkpt lat="44.49294" lon="3.9483">
        <ele>885.03</ele>
        <time>2026-03-21T11:03:10Z</time>
      </trkpt>
      <trkpt lat="44.49299" lon="3.94825">
        <ele>885.03</ele>
        <time>2026-03-21T11:03:16Z</time>
      </trkpt>
      <trkpt lat="44.49309" lon="3.94812">
        <ele>883.59</ele>
        <time>2026-03-21T11:03:33Z</time>
      </trkpt>
      <trkpt lat="44.49325" lon="3.94799">
        <ele>882.63</ele>
        <time>2026-03-21T11:03:51Z</time>
      </trkpt>
      <trkpt lat="44.49326" lon="3.94798">
        <ele>882.15</ele>
        <time>2026-03-21T11:03:52Z</time>
      </trkpt>
      <trkpt lat="44.49329" lon="3.94795">
        <ele>878.78</ele>
        <time>2026-03-21T11:04:06Z</time>
      </trkpt>
      <trkpt lat="44.49329" lon="3.94795">
        <ele>884.07</ele>
        <time>2026-03-21T11:04:08Z</time>
      </trkpt>
      <trkpt lat="44.49329" lon="3.94795">
        <ele>882.63</ele>
        <time>2026-03-21T11:04:09Z</time>
      </trkpt>
      <trkpt lat="44.49327" lon="3.94799">
        <ele>882.15</ele>
        <time>2026-03-21T11:04:30Z</time>
      </trkpt>
      <trkpt lat="44.49328" lon="3.94798">
        <ele>882.15</ele>
        <time>2026-03-21T11:04:38Z</time>
      </trkpt>
      <trkpt lat="44.49331" lon="3.94796">
        <ele>881.67</ele>
        <time>2026-03-21T11:04:42Z</time>
      </trkpt>
      <trkpt lat="44.49337" lon="3.9479">
        <ele>881.19</ele>
        <time>2026-03-21T11:04:49Z</time>
      </trkpt>
      <trkpt lat="44.49344" lon="3.94783">
        <ele>880.71</ele>
        <time>2026-03-21T11:04:57Z</time>
      </trkpt>
      <trkpt lat="44.49348" lon="3.9478">
        <ele>880.22</ele>
        <time>2026-03-21T11:05:01Z</time>
      </trkpt>
      <trkpt lat="44.49361" lon="3.94777">
        <ele>879.74</ele>
        <time>2026-03-21T11:05:13Z</time>
      </trkpt>
      <trkpt lat="44.49364" lon="3.94778">
        <ele>879.74</ele>
        <time>2026-03-21T11:05:16Z</time>
      </trkpt>
      <trkpt lat="44.49372" lon="3.94773">
        <ele>879.26</ele>
        <time>2026-03-21T11:05:24Z</time>
      </trkpt>
      <trkpt lat="44.49383" lon="3.94766">
        <ele>877.82</ele>
        <time>2026-03-21T11:05:39Z</time>
      </trkpt>
      <trkpt lat="44.49387" lon="3.94764">
        <ele>877.82</ele>
        <time>2026-03-21T11:05:52Z</time>
      </trkpt>
      <trkpt lat="44.49389" lon="3.94765">
        <ele>877.34</ele>
        <time>2026-03-21T11:06:09Z</time>
      </trkpt>
      <trkpt lat="44.4939" lon="3.94759">
        <ele>877.34</ele>
        <time>2026-03-21T11:06:27Z</time>
      </trkpt>
      <trkpt lat="44.49391" lon="3.94752">
        <ele>877.34</ele>
        <time>2026-03-21T11:06:34Z</time>
      </trkpt>
      <trkpt lat="44.49396" lon="3.94742">
        <ele>875.9</ele>
        <time>2026-03-21T11:06:45Z</time>
      </trkpt>
      <trkpt lat="44.49403" lon="3.94734">
        <ele>875.42</ele>
        <time>2026-03-21T11:06:59Z</time>
      </trkpt>
      <trkpt lat="44.49405" lon="3.94729">
        <ele>875.42</ele>
        <time>2026-03-21T11:07:15Z</time>
      </trkpt>
      <trkpt lat="44.49411" lon="3.94721">
        <ele>874.46</ele>
        <time>2026-03-21T11:07:28Z</time>
      </trkpt>
      <trkpt lat="44.49416" lon="3.94708">
        <ele>873.01</ele>
        <time>2026-03-21T11:07:42Z</time>
      </trkpt>
      <trkpt lat="44.49422" lon="3.94695">
        <ele>871.57</ele>
        <time>2026-03-21T11:07:57Z</time>
      </trkpt>
      <trkpt lat="44.49431" lon="3.9468">
        <ele>869.65</ele>
        <time>2026-03-21T11:08:14Z</time>
      </trkpt>
      <trkpt lat="44.49443" lon="3.9467">
        <ele>867.73</ele>
        <time>2026-03-21T11:08:29Z</time>
      </trkpt>
      <trkpt lat="44.49453" lon="3.94663">
        <ele>866.29</ele>
        <time>2026-03-21T11:08:44Z</time>
      </trkpt>
      <trkpt lat="44.49459" lon="3.94655">
        <ele>865.8</ele>
        <time>2026-03-21T11:09:05Z</time>
      </trkpt>
      <trkpt lat="44.49461" lon="3.94656">
        <ele>865.8</ele>
        <time>2026-03-21T11:09:10Z</time>
      </trkpt>
      <trkpt lat="44.49464" lon="3.94659">
        <ele>866.77</ele>
        <time>2026-03-21T11:09:15Z</time>
      </trkpt>
      <trkpt lat="44.49463" lon="3.94655">
        <ele>866.77</ele>
        <time>2026-03-21T11:09:31Z</time>
      </trkpt>
      <trkpt lat="44.49471" lon="3.94646">
        <ele>866.77</ele>
        <time>2026-03-21T11:09:43Z</time>
      </trkpt>
      <trkpt lat="44.49483" lon="3.94633">
        <ele>866.77</ele>
        <time>2026-03-21T11:10:00Z</time>
      </trkpt>
      <trkpt lat="44.4949" lon="3.94617">
        <ele>867.73</ele>
        <time>2026-03-21T11:10:14Z</time>
      </trkpt>
      <trkpt lat="44.49489" lon="3.94594">
        <ele>866.77</ele>
        <time>2026-03-21T11:10:31Z</time>
      </trkpt>
      <trkpt lat="44.49493" lon="3.94583">
        <ele>866.77</ele>
        <time>2026-03-21T11:10:40Z</time>
      </trkpt>
      <trkpt lat="44.49493" lon="3.94579">
        <ele>866.77</ele>
        <time>2026-03-21T11:10:43Z</time>
      </trkpt>
      <trkpt lat="44.49486" lon="3.94553">
        <ele>868.69</ele>
        <time>2026-03-21T11:11:02Z</time>
      </trkpt>
      <trkpt lat="44.49486" lon="3.94546">
        <ele>869.17</ele>
        <time>2026-03-21T11:11:08Z</time>
      </trkpt>
      <trkpt lat="44.49483" lon="3.94535">
        <ele>869.65</ele>
        <time>2026-03-21T11:11:24Z</time>
      </trkpt>
      <trkpt lat="44.49482" lon="3.9453">
        <ele>870.61</ele>
        <time>2026-03-21T11:11:28Z</time>
      </trkpt>
      <trkpt lat="44.49477" lon="3.94516">
        <ele>872.05</ele>
        <time>2026-03-21T11:11:42Z</time>
      </trkpt>
      <trkpt lat="44.49475" lon="3.94512">
        <ele>872.05</ele>
        <time>2026-03-21T11:11:57Z</time>
      </trkpt>
      <trkpt lat="44.49466" lon="3.94506">
        <ele>873.01</ele>
        <time>2026-03-21T11:12:11Z</time>
      </trkpt>
      <trkpt lat="44.49454" lon="3.94494">
        <ele>873.98</ele>
        <time>2026-03-21T11:12:26Z</time>
      </trkpt>
      <trkpt lat="44.49449" lon="3.94483">
        <ele>874.46</ele>
        <time>2026-03-21T11:12:43Z</time>
      </trkpt>
      <trkpt lat="44.49452" lon="3.94479">
        <ele>874.46</ele>
        <time>2026-03-21T11:13:00Z</time>
      </trkpt>
      <trkpt lat="44.49455" lon="3.94476">
        <ele>875.42</ele>
        <time>2026-03-21T11:13:13Z</time>
      </trkpt>
      <trkpt lat="44.49461" lon="3.94474">
        <ele>875.42</ele>
        <time>2026-03-21T11:13:24Z</time>
      </trkpt>
      <trkpt lat="44.49463" lon="3.94471">
        <ele>877.82</ele>
        <time>2026-03-21T11:13:30Z</time>
      </trkpt>
      <trkpt lat="44.49465" lon="3.9447">
        <ele>874.94</ele>
        <time>2026-03-21T11:13:33Z</time>
      </trkpt>
      <trkpt lat="44.49469" lon="3.94466">
        <ele>876.86</ele>
        <time>2026-03-21T11:13:38Z</time>
      </trkpt>
      <trkpt lat="44.49478" lon="3.94458">
        <ele>879.74</ele>
        <time>2026-03-21T11:13:50Z</time>
      </trkpt>
      <trkpt lat="44.49479" lon="3.94455">
        <ele>878.3</ele>
        <time>2026-03-21T11:13:52Z</time>
      </trkpt>
      <trkpt lat="44.49489" lon="3.94441">
        <ele>878.3</ele>
        <time>2026-03-21T11:14:09Z</time>
      </trkpt>
      <trkpt lat="44.49493" lon="3.94435">
        <ele>878.3</ele>
        <time>2026-03-21T11:14:15Z</time>
      </trkpt>
      <trkpt lat="44.49503" lon="3.94422">
        <ele>878.3</ele>
        <time>2026-03-21T11:14:25Z</time>
      </trkpt>
      <trkpt lat="44.49514" lon="3.94416">
        <ele>871.57</ele>
        <time>2026-03-21T11:14:35Z</time>
      </trkpt>
      <trkpt lat="44.49515" lon="3.94415">
        <ele>885.03</ele>
        <time>2026-03-21T11:14:36Z</time>
      </trkpt>
      <trkpt lat="44.49516" lon="3.94415">
        <ele>880.22</ele>
        <time>2026-03-21T11:14:37Z</time>
      </trkpt>
      <trkpt lat="44.49528" lon="3.94402">
        <ele>881.67</ele>
        <time>2026-03-21T11:14:52Z</time>
      </trkpt>
      <trkpt lat="44.49533" lon="3.94392">
        <ele>880.22</ele>
        <time>2026-03-21T11:15:02Z</time>
      </trkpt>
      <trkpt lat="44.49541" lon="3.94372">
        <ele>879.74</ele>
        <time>2026-03-21T11:15:18Z</time>
      </trkpt>
      <trkpt lat="44.4955" lon="3.9435">
        <ele>879.26</ele>
        <time>2026-03-21T11:15:33Z</time>
      </trkpt>
      <trkpt lat="44.49553" lon="3.94334">
        <ele>879.26</ele>
        <time>2026-03-21T11:15:43Z</time>
      </trkpt>
      <trkpt lat="44.49556" lon="3.94327">
        <ele>879.26</ele>
        <time>2026-03-21T11:15:48Z</time>
      </trkpt>
      <trkpt lat="44.49558" lon="3.94306">
        <ele>880.22</ele>
        <time>2026-03-21T11:16:02Z</time>
      </trkpt>
      <trkpt lat="44.49567" lon="3.94287">
        <ele>882.15</ele>
        <time>2026-03-21T11:16:18Z</time>
      </trkpt>
      <trkpt lat="44.49569" lon="3.94284">
        <ele>882.15</ele>
        <time>2026-03-21T11:16:22Z</time>
      </trkpt>
      <trkpt lat="44.49574" lon="3.94271">
        <ele>882.63</ele>
        <time>2026-03-21T11:16:32Z</time>
      </trkpt>
      <trkpt lat="44.49585" lon="3.94254">
        <ele>884.55</ele>
        <time>2026-03-21T11:16:48Z</time>
      </trkpt>
      <trkpt lat="44.49588" lon="3.9425">
        <ele>883.11</ele>
        <time>2026-03-21T11:16:52Z</time>
      </trkpt>
      <trkpt lat="44.49595" lon="3.94244">
        <ele>882.63</ele>
        <time>2026-03-21T11:16:59Z</time>
      </trkpt>
      <trkpt lat="44.49603" lon="3.94238">
        <ele>882.63</ele>
        <time>2026-03-21T11:17:07Z</time>
      </trkpt>
      <trkpt lat="44.49606" lon="3.94236">
        <ele>882.15</ele>
        <time>2026-03-21T11:17:10Z</time>
      </trkpt>
      <trkpt lat="44.4961" lon="3.9423">
        <ele>881.67</ele>
        <time>2026-03-21T11:17:15Z</time>
      </trkpt>
      <trkpt lat="44.49624" lon="3.94211">
        <ele>880.71</ele>
        <time>2026-03-21T11:17:32Z</time>
      </trkpt>
      <trkpt lat="44.49633" lon="3.94193">
        <ele>879.74</ele>
        <time>2026-03-21T11:17:46Z</time>
      </trkpt>
      <trkpt lat="44.49652" lon="3.94184">
        <ele>878.78</ele>
        <time>2026-03-21T11:18:03Z</time>
      </trkpt>
      <trkpt lat="44.49671" lon="3.94177">
        <ele>877.34</ele>
        <time>2026-03-21T11:18:21Z</time>
      </trkpt>
      <trkpt lat="44.49685" lon="3.94174">
        <ele>875.42</ele>
        <time>2026-03-21T11:18:36Z</time>
      </trkpt>
      <trkpt lat="44.49686" lon="3.94173">
        <ele>875.42</ele>
        <time>2026-03-21T11:18:37Z</time>
      </trkpt>
      <trkpt lat="44.49689" lon="3.94172">
        <ele>874.46</ele>
        <time>2026-03-21T11:18:41Z</time>
      </trkpt>
      <trkpt lat="44.49705" lon="3.9417">
        <ele>873.98</ele>
        <time>2026-03-21T11:18:57Z</time>
      </trkpt>
      <trkpt lat="44.49715" lon="3.94168">
        <ele>872.53</ele>
        <time>2026-03-21T11:19:10Z</time>
      </trkpt>
      <trkpt lat="44.49722" lon="3.94165">
        <ele>872.05</ele>
        <time>2026-03-21T11:19:33Z</time>
      </trkpt>
      <trkpt lat="44.49734" lon="3.94161">
        <ele>871.09</ele>
        <time>2026-03-21T11:19:46Z</time>
      </trkpt>
      <trkpt lat="44.49744" lon="3.94156">
        <ele>871.09</ele>
        <time>2026-03-21T11:20:01Z</time>
      </trkpt>
      <trkpt lat="44.49749" lon="3.94152">
        <ele>871.09</ele>
        <time>2026-03-21T11:20:14Z</time>
      </trkpt>
      <trkpt lat="44.49753" lon="3.94152">
        <ele>871.09</ele>
        <time>2026-03-21T11:20:28Z</time>
      </trkpt>
      <trkpt lat="44.49755" lon="3.94151">
        <ele>870.61</ele>
        <time>2026-03-21T11:20:51Z</time>
      </trkpt>
      <trkpt lat="44.49756" lon="3.94154">
        <ele>870.13</ele>
        <time>2026-03-21T11:21:10Z</time>
      </trkpt>
      <trkpt lat="44.49759" lon="3.94153">
        <ele>870.61</ele>
        <time>2026-03-21T11:21:50Z</time>
      </trkpt>
      <trkpt lat="44.49759" lon="3.94156">
        <ele>871.57</ele>
        <time>2026-03-21T11:22:28Z</time>
      </trkpt>
      <trkpt lat="44.49758" lon="3.94155">
        <ele>871.57</ele>
        <time>2026-03-21T11:22:29Z</time>
      </trkpt>
      <trkpt lat="44.49757" lon="3.94152">
        <ele>871.57</ele>
        <time>2026-03-21T11:23:12Z</time>
      </trkpt>
      <trkpt lat="44.49756" lon="3.94154">
        <ele>872.05</ele>
        <time>2026-03-21T11:23:59Z</time>
      </trkpt>
      <trkpt lat="44.49762" lon="3.94153">
        <ele>872.05</ele>
        <time>2026-03-21T11:24:36Z</time>
      </trkpt>
      <trkpt lat="44.49759" lon="3.94149">
        <ele>872.05</ele>
        <time>2026-03-21T11:25:14Z</time>
      </trkpt>
      <trkpt lat="44.49758" lon="3.94149">
        <ele>872.05</ele>
        <time>2026-03-21T11:26:02Z</time>
      </trkpt>
      <trkpt lat="44.49761" lon="3.94152">
        <ele>872.53</ele>
        <time>2026-03-21T11:26:47Z</time>
      </trkpt>
      <trkpt lat="44.49761" lon="3.94155">
        <ele>872.53</ele>
        <time>2026-03-21T11:27:31Z</time>
      </trkpt>
      <trkpt lat="44.49761" lon="3.94153">
        <ele>873.01</ele>
        <time>2026-03-21T11:28:09Z</time>
      </trkpt>
      <trkpt lat="44.49756" lon="3.94151">
        <ele>873.5</ele>
        <time>2026-03-21T11:28:49Z</time>
      </trkpt>
      <trkpt lat="44.49762" lon="3.94154">
        <ele>873.98</ele>
        <time>2026-03-21T11:29:33Z</time>
      </trkpt>
      <trkpt lat="44.49756" lon="3.94144">
        <ele>873.98</ele>
        <time>2026-03-21T11:30:14Z</time>
      </trkpt>
      <trkpt lat="44.4976" lon="3.94152">
        <ele>873.98</ele>
        <time>2026-03-21T11:30:55Z</time>
      </trkpt>
      <trkpt lat="44.49757" lon="3.94151">
        <ele>874.46</ele>
        <time>2026-03-21T11:31:39Z</time>
      </trkpt>
      <trkpt lat="44.49759" lon="3.94153">
        <ele>874.46</ele>
        <time>2026-03-21T11:32:28Z</time>
      </trkpt>
      <trkpt lat="44.49759" lon="3.94152">
        <ele>874.46</ele>
        <time>2026-03-21T11:33:05Z</time>
      </trkpt>
      <trkpt lat="44.49759" lon="3.94151">
        <ele>875.42</ele>
        <time>2026-03-21T11:33:48Z</time>
      </trkpt>
      <trkpt lat="44.49757" lon="3.9415">
        <ele>875.9</ele>
        <time>2026-03-21T11:34:39Z</time>
      </trkpt>
      <trkpt lat="44.4976" lon="3.94151">
        <ele>874.94</ele>
        <time>2026-03-21T11:35:15Z</time>
      </trkpt>
      <trkpt lat="44.49761" lon="3.94147">
        <ele>874.94</ele>
        <time>2026-03-21T11:35:50Z</time>
      </trkpt>
      <trkpt lat="44.4976" lon="3.94151">
        <ele>874.94</ele>
        <time>2026-03-21T11:36:25Z</time>
      </trkpt>
      <trkpt lat="44.49758" lon="3.9415">
        <ele>876.38</ele>
        <time>2026-03-21T11:36:36Z</time>
      </trkpt>
      <trkpt lat="44.49756" lon="3.94145">
        <ele>876.38</ele>
        <time>2026-03-21T11:37:21Z</time>
      </trkpt>
      <trkpt lat="44.49759" lon="3.94152">
        <ele>876.38</ele>
        <time>2026-03-21T11:38:04Z</time>
      </trkpt>
      <trkpt lat="44.49756" lon="3.9415">
        <ele>876.38</ele>
        <time>2026-03-21T11:38:47Z</time>
      </trkpt>
      <trkpt lat="44.49754" lon="3.9415">
        <ele>876.38</ele>
        <time>2026-03-21T11:39:26Z</time>
      </trkpt>
      <trkpt lat="44.49756" lon="3.94152">
        <ele>876.38</ele>
        <time>2026-03-21T11:40:05Z</time>
      </trkpt>
      <trkpt lat="44.49756" lon="3.94153">
        <ele>877.34</ele>
        <time>2026-03-21T11:40:40Z</time>
      </trkpt>
      <trkpt lat="44.49755" lon="3.94155">
        <ele>875.9</ele>
        <time>2026-03-21T11:40:45Z</time>
      </trkpt>
      <trkpt lat="44.49754" lon="3.94156">
        <ele>871.09</ele>
        <time>2026-03-21T11:41:17Z</time>
      </trkpt>
      <trkpt lat="44.49754" lon="3.94156">
        <ele>879.26</ele>
        <time>2026-03-21T11:41:18Z</time>
      </trkpt>
      <trkpt lat="44.49756" lon="3.94157">
        <ele>876.38</ele>
        <time>2026-03-21T11:41:21Z</time>
      </trkpt>
      <trkpt lat="44.49756" lon="3.94157">
        <ele>876.38</ele>
        <time>2026-03-21T11:41:22Z</time>
      </trkpt>
      <trkpt lat="44.49756" lon="3.94153">
        <ele>875.9</ele>
        <time>2026-03-21T11:41:52Z</time>
      </trkpt>
      <trkpt lat="44.49761" lon="3.94154">
        <ele>875.9</ele>
        <time>2026-03-21T11:42:29Z</time>
      </trkpt>
      <trkpt lat="44.49762" lon="3.94157">
        <ele>875.9</ele>
        <time>2026-03-21T11:42:56Z</time>
      </trkpt>
      <trkpt lat="44.49758" lon="3.94157">
        <ele>875.9</ele>
        <time>2026-03-21T11:43:24Z</time>
      </trkpt>
      <trkpt lat="44.49756" lon="3.94153">
        <ele>875.9</ele>
        <time>2026-03-21T11:43:52Z</time>
      </trkpt>
      <trkpt lat="44.4976" lon="3.94152">
        <ele>875.42</ele>
        <time>2026-03-21T11:44:27Z</time>
      </trkpt>
      <trkpt lat="44.49759" lon="3.94149">
        <ele>875.42</ele>
        <time>2026-03-21T11:45:01Z</time>
      </trkpt>
      <trkpt lat="44.4976" lon="3.94149">
        <ele>876.38</ele>
        <time>2026-03-21T11:45:22Z</time>
      </trkpt>
      <trkpt lat="44.49759" lon="3.94143">
        <ele>876.38</ele>
        <time>2026-03-21T11:45:44Z</time>
      </trkpt>
      <trkpt lat="44.49754" lon="3.94147">
        <ele>876.38</ele>
        <time>2026-03-21T11:46:23Z</time>
      </trkpt>
      <trkpt lat="44.49752" lon="3.94149">
        <ele>876.86</ele>
        <time>2026-03-21T11:47:04Z</time>
      </trkpt>
      <trkpt lat="44.49755" lon="3.94151">
        <ele>876.86</ele>
        <time>2026-03-21T11:47:37Z</time>
      </trkpt>
      <trkpt lat="44.49755" lon="3.94156">
        <ele>876.86</ele>
        <time>2026-03-21T11:48:16Z</time>
      </trkpt>
      <trkpt lat="44.4976" lon="3.94154">
        <ele>876.86</ele>
        <time>2026-03-21T11:48:58Z</time>
      </trkpt>
      <trkpt lat="44.49759" lon="3.94148">
        <ele>876.86</ele>
        <time>2026-03-21T11:49:39Z</time>
      </trkpt>
      <trkpt lat="44.49756" lon="3.94154">
        <ele>876.86</ele>
        <time>2026-03-21T11:50:27Z</time>
      </trkpt>
      <trkpt lat="44.49759" lon="3.94152">
        <ele>876.86</ele>
        <time>2026-03-21T11:51:14Z</time>
      </trkpt>
      <trkpt lat="44.49756" lon="3.94152">
        <ele>876.86</ele>
        <time>2026-03-21T11:51:46Z</time>
      </trkpt>
      <trkpt lat="44.49754" lon="3.94152">
        <ele>877.34</ele>
        <time>2026-03-21T11:52:27Z</time>
      </trkpt>
      <trkpt lat="44.49756" lon="3.94151">
        <ele>877.34</ele>
        <time>2026-03-21T11:52:57Z</time>
      </trkpt>
      <trkpt lat="44.49752" lon="3.94151">
        <ele>877.82</ele>
        <time>2026-03-21T11:53:35Z</time>
      </trkpt>
      <trkpt lat="44.49751" lon="3.94153">
        <ele>877.82</ele>
        <time>2026-03-21T11:54:22Z</time>
      </trkpt>
      <trkpt lat="44.49749" lon="3.94153">
        <ele>878.3</ele>
        <time>2026-03-21T11:54:59Z</time>
      </trkpt>
      <trkpt lat="44.49751" lon="3.94156">
        <ele>878.3</ele>
        <time>2026-03-21T11:55:36Z</time>
      </trkpt>
      <trkpt lat="44.49753" lon="3.94151">
        <ele>878.78</ele>
        <time>2026-03-21T11:56:19Z</time>
      </trkpt>
      <trkpt lat="44.49753" lon="3.94149">
        <ele>878.78</ele>
        <time>2026-03-21T11:57:03Z</time>
      </trkpt>
      <trkpt lat="44.49755" lon="3.94151">
        <ele>878.78</ele>
        <time>2026-03-21T11:57:40Z</time>
      </trkpt>
      <trkpt lat="44.49755" lon="3.94154">
        <ele>878.78</ele>
        <time>2026-03-21T11:58:19Z</time>
      </trkpt>
      <trkpt lat="44.49756" lon="3.94154">
        <ele>878.78</ele>
        <time>2026-03-21T11:58:51Z</time>
      </trkpt>
      <trkpt lat="44.49752" lon="3.94153">
        <ele>878.78</ele>
        <time>2026-03-21T11:59:26Z</time>
      </trkpt>
      <trkpt lat="44.49749" lon="3.94151">
        <ele>878.78</ele>
        <time>2026-03-21T12:00:02Z</time>
      </trkpt>
      <trkpt lat="44.49755" lon="3.94154">
        <ele>878.78</ele>
        <time>2026-03-21T12:00:40Z</time>
      </trkpt>
      <trkpt lat="44.49753" lon="3.94152">
        <ele>878.78</ele>
        <time>2026-03-21T12:01:12Z</time>
      </trkpt>
      <trkpt lat="44.49753" lon="3.9415">
        <ele>879.26</ele>
        <time>2026-03-21T12:01:53Z</time>
      </trkpt>
      <trkpt lat="44.49752" lon="3.94155">
        <ele>879.74</ele>
        <time>2026-03-21T12:02:25Z</time>
      </trkpt>
      <trkpt lat="44.49749" lon="3.94156">
        <ele>883.11</ele>
        <time>2026-03-21T12:02:43Z</time>
      </trkpt>
      <trkpt lat="44.4975" lon="3.94156">
        <ele>881.19</ele>
        <time>2026-03-21T12:02:44Z</time>
      </trkpt>
      <trkpt lat="44.49754" lon="3.94158">
        <ele>878.3</ele>
        <time>2026-03-21T12:02:54Z</time>
      </trkpt>
      <trkpt lat="44.49754" lon="3.94158">
        <ele>881.19</ele>
        <time>2026-03-21T12:02:55Z</time>
      </trkpt>
      <trkpt lat="44.49753" lon="3.94157">
        <ele>881.19</ele>
        <time>2026-03-21T12:02:56Z</time>
      </trkpt>
      <trkpt lat="44.49757" lon="3.94157">
        <ele>879.74</ele>
        <time>2026-03-21T12:03:12Z</time>
      </trkpt>
      <trkpt lat="44.49756" lon="3.94153">
        <ele>881.19</ele>
        <time>2026-03-21T12:03:16Z</time>
      </trkpt>
      <trkpt lat="44.49751" lon="3.94144">
        <ele>879.26</ele>
        <time>2026-03-21T12:03:33Z</time>
      </trkpt>
      <trkpt lat="44.49756" lon="3.94126">
        <ele>879.26</ele>
        <time>2026-03-21T12:03:49Z</time>
      </trkpt>
      <trkpt lat="44.4976" lon="3.94108">
        <ele>879.26</ele>
        <time>2026-03-21T12:04:03Z</time>
      </trkpt>
      <trkpt lat="44.49764" lon="3.94093">
        <ele>879.26</ele>
        <time>2026-03-21T12:04:13Z</time>
      </trkpt>
      <trkpt lat="44.49765" lon="3.94066">
        <ele>877.82</ele>
        <time>2026-03-21T12:04:30Z</time>
      </trkpt>
      <trkpt lat="44.49764" lon="3.94045">
        <ele>877.34</ele>
        <time>2026-03-21T12:04:46Z</time>
      </trkpt>
      <trkpt lat="44.49766" lon="3.94036">
        <ele>876.86</ele>
        <time>2026-03-21T12:04:51Z</time>
      </trkpt>
      <trkpt lat="44.49771" lon="3.94015">
        <ele>874.46</ele>
        <time>2026-03-21T12:05:06Z</time>
      </trkpt>
      <trkpt lat="44.49778" lon="3.93999">
        <ele>873.01</ele>
        <time>2026-03-21T12:05:19Z</time>
      </trkpt>
      <trkpt lat="44.49783" lon="3.93984">
        <ele>871.09</ele>
        <time>2026-03-21T12:05:31Z</time>
      </trkpt>
      <trkpt lat="44.4979" lon="3.93977">
        <ele>870.13</ele>
        <time>2026-03-21T12:05:39Z</time>
      </trkpt>
      <trkpt lat="44.49805" lon="3.93965">
        <ele>867.73</ele>
        <time>2026-03-21T12:05:55Z</time>
      </trkpt>
      <trkpt lat="44.49812" lon="3.93953">
        <ele>866.29</ele>
        <time>2026-03-21T12:06:08Z</time>
      </trkpt>
      <trkpt lat="44.49819" lon="3.93937">
        <ele>863.88</ele>
        <time>2026-03-21T12:06:21Z</time>
      </trkpt>
      <trkpt lat="44.4982" lon="3.93936">
        <ele>863.88</ele>
        <time>2026-03-21T12:06:22Z</time>
      </trkpt>
      <trkpt lat="44.49836" lon="3.93922">
        <ele>861.48</ele>
        <time>2026-03-21T12:06:38Z</time>
      </trkpt>
      <trkpt lat="44.49848" lon="3.93907">
        <ele>861</ele>
        <time>2026-03-21T12:06:53Z</time>
      </trkpt>
      <trkpt lat="44.49851" lon="3.93894">
        <ele>859.56</ele>
        <time>2026-03-21T12:07:05Z</time>
      </trkpt>
      <trkpt lat="44.49853" lon="3.93886">
        <ele>859.08</ele>
        <time>2026-03-21T12:07:13Z</time>
      </trkpt>
      <trkpt lat="44.49859" lon="3.93868">
        <ele>858.59</ele>
        <time>2026-03-21T12:07:28Z</time>
      </trkpt>
      <trkpt lat="44.49863" lon="3.93847">
        <ele>857.63</ele>
        <time>2026-03-21T12:07:43Z</time>
      </trkpt>
      <trkpt lat="44.49863" lon="3.9383">
        <ele>857.63</ele>
        <time>2026-03-21T12:07:58Z</time>
      </trkpt>
      <trkpt lat="44.49871" lon="3.93807">
        <ele>857.15</ele>
        <time>2026-03-21T12:08:13Z</time>
      </trkpt>
      <trkpt lat="44.49876" lon="3.93789">
        <ele>858.59</ele>
        <time>2026-03-21T12:08:26Z</time>
      </trkpt>
      <trkpt lat="44.49876" lon="3.93765">
        <ele>859.08</ele>
        <time>2026-03-21T12:08:43Z</time>
      </trkpt>
      <trkpt lat="44.49876" lon="3.93763">
        <ele>859.08</ele>
        <time>2026-03-21T12:08:44Z</time>
      </trkpt>
      <trkpt lat="44.49877" lon="3.93745">
        <ele>859.08</ele>
        <time>2026-03-21T12:09:00Z</time>
      </trkpt>
      <trkpt lat="44.4988" lon="3.93726">
        <ele>860.04</ele>
        <time>2026-03-21T12:09:13Z</time>
      </trkpt>
      <trkpt lat="44.49889" lon="3.93705">
        <ele>860.52</ele>
        <time>2026-03-21T12:09:28Z</time>
      </trkpt>
      <trkpt lat="44.49901" lon="3.93685">
        <ele>861.48</ele>
        <time>2026-03-21T12:09:43Z</time>
      </trkpt>
      <trkpt lat="44.49912" lon="3.93666">
        <ele>861.48</ele>
        <time>2026-03-21T12:09:59Z</time>
      </trkpt>
      <trkpt lat="44.49929" lon="3.93649">
        <ele>859.08</ele>
        <time>2026-03-21T12:10:16Z</time>
      </trkpt>
      <trkpt lat="44.49935" lon="3.93628">
        <ele>857.63</ele>
        <time>2026-03-21T12:10:31Z</time>
      </trkpt>
      <trkpt lat="44.49937" lon="3.93619">
        <ele>857.15</ele>
        <time>2026-03-21T12:10:38Z</time>
      </trkpt>
      <trkpt lat="44.49931" lon="3.936">
        <ele>857.15</ele>
        <time>2026-03-21T12:10:54Z</time>
      </trkpt>
      <trkpt lat="44.49921" lon="3.93587">
        <ele>857.15</ele>
        <time>2026-03-21T12:11:10Z</time>
      </trkpt>
      <trkpt lat="44.49921" lon="3.93586">
        <ele>857.15</ele>
        <time>2026-03-21T12:11:11Z</time>
      </trkpt>
      <trkpt lat="44.49922" lon="3.93553">
        <ele>856.67</ele>
        <time>2026-03-21T12:11:28Z</time>
      </trkpt>
      <trkpt lat="44.49937" lon="3.93533">
        <ele>854.75</ele>
        <time>2026-03-21T12:11:47Z</time>
      </trkpt>
      <trkpt lat="44.49945" lon="3.93522">
        <ele>853.79</ele>
        <time>2026-03-21T12:11:57Z</time>
      </trkpt>
      <trkpt lat="44.49956" lon="3.93506">
        <ele>850.9</ele>
        <time>2026-03-21T12:12:15Z</time>
      </trkpt>
      <trkpt lat="44.49964" lon="3.93501">
        <ele>849.46</ele>
        <time>2026-03-21T12:12:39Z</time>
      </trkpt>
      <trkpt lat="44.49964" lon="3.93499">
        <ele>849.46</ele>
        <time>2026-03-21T12:12:51Z</time>
      </trkpt>
      <trkpt lat="44.4998" lon="3.93494">
        <ele>847.54</ele>
        <time>2026-03-21T12:13:06Z</time>
      </trkpt>
      <trkpt lat="44.49994" lon="3.93483">
        <ele>844.18</ele>
        <time>2026-03-21T12:13:23Z</time>
      </trkpt>
      <trkpt lat="44.50001" lon="3.93476">
        <ele>842.25</ele>
        <time>2026-03-21T12:13:33Z</time>
      </trkpt>
      <trkpt lat="44.50011" lon="3.93471">
        <ele>841.77</ele>
        <time>2026-03-21T12:13:47Z</time>
      </trkpt>
      <trkpt lat="44.50012" lon="3.9347">
        <ele>841.77</ele>
        <time>2026-03-21T12:13:48Z</time>
      </trkpt>
      <trkpt lat="44.50029" lon="3.9347">
        <ele>841.77</ele>
        <time>2026-03-21T12:14:05Z</time>
      </trkpt>
      <trkpt lat="44.50047" lon="3.93457">
        <ele>841.29</ele>
        <time>2026-03-21T12:14:20Z</time>
      </trkpt>
      <trkpt lat="44.5006" lon="3.93449">
        <ele>840.81</ele>
        <time>2026-03-21T12:14:32Z</time>
      </trkpt>
      <trkpt lat="44.50075" lon="3.93433">
        <ele>839.37</ele>
        <time>2026-03-21T12:14:48Z</time>
      </trkpt>
      <trkpt lat="44.50087" lon="3.93417">
        <ele>838.41</ele>
        <time>2026-03-21T12:15:04Z</time>
      </trkpt>
      <trkpt lat="44.50097" lon="3.93407">
        <ele>837.93</ele>
        <time>2026-03-21T12:15:17Z</time>
      </trkpt>
      <trkpt lat="44.50099" lon="3.93402">
        <ele>836.96</ele>
        <time>2026-03-21T12:15:21Z</time>
      </trkpt>
      <trkpt lat="44.50106" lon="3.93392">
        <ele>836</ele>
        <time>2026-03-21T12:15:30Z</time>
      </trkpt>
      <trkpt lat="44.50113" lon="3.9337">
        <ele>835.04</ele>
        <time>2026-03-21T12:15:46Z</time>
      </trkpt>
      <trkpt lat="44.50123" lon="3.93346">
        <ele>834.56</ele>
        <time>2026-03-21T12:16:02Z</time>
      </trkpt>
      <trkpt lat="44.50128" lon="3.93319">
        <ele>834.56</ele>
        <time>2026-03-21T12:16:18Z</time>
      </trkpt>
      <trkpt lat="44.50135" lon="3.93297">
        <ele>833.12</ele>
        <time>2026-03-21T12:16:34Z</time>
      </trkpt>
      <trkpt lat="44.50136" lon="3.93294">
        <ele>833.12</ele>
        <time>2026-03-21T12:16:36Z</time>
      </trkpt>
      <trkpt lat="44.50139" lon="3.93278">
        <ele>832.16</ele>
        <time>2026-03-21T12:16:48Z</time>
      </trkpt>
      <trkpt lat="44.5014" lon="3.93272">
        <ele>832.16</ele>
        <time>2026-03-21T12:16:52Z</time>
      </trkpt>
      <trkpt lat="44.50145" lon="3.93266">
        <ele>831.2</ele>
        <time>2026-03-21T12:16:58Z</time>
      </trkpt>
      <trkpt lat="44.50148" lon="3.93261">
        <ele>830.24</ele>
        <time>2026-03-21T12:17:02Z</time>
      </trkpt>
      <trkpt lat="44.50152" lon="3.93253">
        <ele>829.27</ele>
        <time>2026-03-21T12:17:09Z</time>
      </trkpt>
      <trkpt lat="44.50169" lon="3.93239">
        <ele>826.39</ele>
        <time>2026-03-21T12:17:27Z</time>
      </trkpt>
      <trkpt lat="44.50177" lon="3.93227">
        <ele>824.47</ele>
        <time>2026-03-21T12:17:42Z</time>
      </trkpt>
      <trkpt lat="44.50183" lon="3.93219">
        <ele>823.03</ele>
        <time>2026-03-21T12:17:54Z</time>
      </trkpt>
      <trkpt lat="44.50185" lon="3.9321">
        <ele>822.06</ele>
        <time>2026-03-21T12:18:09Z</time>
      </trkpt>
      <trkpt lat="44.50184" lon="3.93204">
        <ele>820.62</ele>
        <time>2026-03-21T12:18:16Z</time>
      </trkpt>
      <trkpt lat="44.5018" lon="3.9319">
        <ele>818.7</ele>
        <time>2026-03-21T12:18:30Z</time>
      </trkpt>
      <trkpt lat="44.50169" lon="3.9318">
        <ele>818.22</ele>
        <time>2026-03-21T12:18:45Z</time>
      </trkpt>
      <trkpt lat="44.50164" lon="3.93175">
        <ele>817.74</ele>
        <time>2026-03-21T12:18:56Z</time>
      </trkpt>
      <trkpt lat="44.50165" lon="3.93173">
        <ele>817.26</ele>
        <time>2026-03-21T12:19:17Z</time>
      </trkpt>
      <trkpt lat="44.50161" lon="3.93169">
        <ele>816.3</ele>
        <time>2026-03-21T12:19:21Z</time>
      </trkpt>
      <trkpt lat="44.50155" lon="3.93175">
        <ele>816.3</ele>
        <time>2026-03-21T12:19:33Z</time>
      </trkpt>
      <trkpt lat="44.50149" lon="3.93186">
        <ele>815.82</ele>
        <time>2026-03-21T12:19:46Z</time>
      </trkpt>
      <trkpt lat="44.50142" lon="3.93202">
        <ele>815.82</ele>
        <time>2026-03-21T12:20:00Z</time>
      </trkpt>
      <trkpt lat="44.50137" lon="3.93208">
        <ele>816.78</ele>
        <time>2026-03-21T12:20:06Z</time>
      </trkpt>
      <trkpt lat="44.50126" lon="3.93211">
        <ele>817.26</ele>
        <time>2026-03-21T12:20:19Z</time>
      </trkpt>
      <trkpt lat="44.50115" lon="3.9319">
        <ele>818.22</ele>
        <time>2026-03-21T12:20:32Z</time>
      </trkpt>
      <trkpt lat="44.50122" lon="3.93173">
        <ele>819.66</ele>
        <time>2026-03-21T12:20:46Z</time>
      </trkpt>
      <trkpt lat="44.50119" lon="3.93166">
        <ele>821.58</ele>
        <time>2026-03-21T12:20:59Z</time>
      </trkpt>
      <trkpt lat="44.50113" lon="3.93174">
        <ele>823.51</ele>
        <time>2026-03-21T12:21:12Z</time>
      </trkpt>
      <trkpt lat="44.50102" lon="3.93183">
        <ele>825.43</ele>
        <time>2026-03-21T12:21:28Z</time>
      </trkpt>
      <trkpt lat="44.50094" lon="3.93194">
        <ele>825.91</ele>
        <time>2026-03-21T12:21:44Z</time>
      </trkpt>
      <trkpt lat="44.50083" lon="3.93207">
        <ele>827.83</ele>
        <time>2026-03-21T12:22:00Z</time>
      </trkpt>
      <trkpt lat="44.50069" lon="3.93214">
        <ele>829.27</ele>
        <time>2026-03-21T12:22:13Z</time>
      </trkpt>
      <trkpt lat="44.50062" lon="3.93222">
        <ele>830.24</ele>
        <time>2026-03-21T12:22:21Z</time>
      </trkpt>
      <trkpt lat="44.50062" lon="3.93236">
        <ele>832.64</ele>
        <time>2026-03-21T12:22:38Z</time>
      </trkpt>
      <trkpt lat="44.50054" lon="3.93249">
        <ele>834.56</ele>
        <time>2026-03-21T12:22:54Z</time>
      </trkpt>
      <trkpt lat="44.50042" lon="3.93259">
        <ele>836.48</ele>
        <time>2026-03-21T12:23:10Z</time>
      </trkpt>
      <trkpt lat="44.50026" lon="3.9327">
        <ele>839.37</ele>
        <time>2026-03-21T12:23:27Z</time>
      </trkpt>
      <trkpt lat="44.5001" lon="3.93276">
        <ele>840.81</ele>
        <time>2026-03-21T12:23:43Z</time>
      </trkpt>
      <trkpt lat="44.49993" lon="3.93273">
        <ele>843.21</ele>
        <time>2026-03-21T12:24:00Z</time>
      </trkpt>
      <trkpt lat="44.49979" lon="3.93275">
        <ele>845.14</ele>
        <time>2026-03-21T12:24:16Z</time>
      </trkpt>
      <trkpt lat="44.49965" lon="3.93279">
        <ele>846.58</ele>
        <time>2026-03-21T12:24:31Z</time>
      </trkpt>
      <trkpt lat="44.4995" lon="3.9328">
        <ele>848.98</ele>
        <time>2026-03-21T12:24:48Z</time>
      </trkpt>
      <trkpt lat="44.49937" lon="3.93282">
        <ele>850.9</ele>
        <time>2026-03-21T12:25:03Z</time>
      </trkpt>
      <trkpt lat="44.49923" lon="3.93283">
        <ele>853.31</ele>
        <time>2026-03-21T12:25:19Z</time>
      </trkpt>
      <trkpt lat="44.49907" lon="3.93285">
        <ele>855.71</ele>
        <time>2026-03-21T12:25:37Z</time>
      </trkpt>
      <trkpt lat="44.4989" lon="3.9328">
        <ele>857.15</ele>
        <time>2026-03-21T12:25:53Z</time>
      </trkpt>
      <trkpt lat="44.49881" lon="3.9327">
        <ele>858.11</ele>
        <time>2026-03-21T12:26:04Z</time>
      </trkpt>
      <trkpt lat="44.49865" lon="3.93254">
        <ele>857.63</ele>
        <time>2026-03-21T12:26:23Z</time>
      </trkpt>
      <trkpt lat="44.4985" lon="3.93246">
        <ele>857.63</ele>
        <time>2026-03-21T12:26:37Z</time>
      </trkpt>
      <trkpt lat="44.49837" lon="3.93248">
        <ele>857.63</ele>
        <time>2026-03-21T12:26:53Z</time>
      </trkpt>
      <trkpt lat="44.49837" lon="3.93263">
        <ele>859.08</ele>
        <time>2026-03-21T12:27:09Z</time>
      </trkpt>
      <trkpt lat="44.49835" lon="3.9328">
        <ele>861.48</ele>
        <time>2026-03-21T12:27:25Z</time>
      </trkpt>
      <trkpt lat="44.49821" lon="3.93293">
        <ele>862.92</ele>
        <time>2026-03-21T12:27:40Z</time>
      </trkpt>
      <trkpt lat="44.49808" lon="3.93277">
        <ele>865.32</ele>
        <time>2026-03-21T12:27:57Z</time>
      </trkpt>
      <trkpt lat="44.49808" lon="3.93275">
        <ele>865.8</ele>
        <time>2026-03-21T12:27:58Z</time>
      </trkpt>
      <trkpt lat="44.498" lon="3.93255">
        <ele>866.77</ele>
        <time>2026-03-21T12:28:14Z</time>
      </trkpt>
      <trkpt lat="44.49786" lon="3.93244">
        <ele>869.65</ele>
        <time>2026-03-21T12:28:31Z</time>
      </trkpt>
      <trkpt lat="44.49772" lon="3.93232">
        <ele>872.05</ele>
        <time>2026-03-21T12:28:49Z</time>
      </trkpt>
      <trkpt lat="44.49769" lon="3.93216">
        <ele>873.01</ele>
        <time>2026-03-21T12:29:01Z</time>
      </trkpt>
      <trkpt lat="44.49772" lon="3.93209">
        <ele>873.01</ele>
        <time>2026-03-21T12:29:05Z</time>
      </trkpt>
      <trkpt lat="44.49777" lon="3.93184">
        <ele>873.01</ele>
        <time>2026-03-21T12:29:24Z</time>
      </trkpt>
      <trkpt lat="44.49777" lon="3.93181">
        <ele>873.01</ele>
        <time>2026-03-21T12:29:26Z</time>
      </trkpt>
      <trkpt lat="44.49771" lon="3.93156">
        <ele>873.01</ele>
        <time>2026-03-21T12:29:41Z</time>
      </trkpt>
      <trkpt lat="44.49768" lon="3.93135">
        <ele>872.53</ele>
        <time>2026-03-21T12:29:57Z</time>
      </trkpt>
      <trkpt lat="44.49769" lon="3.93129">
        <ele>872.53</ele>
        <time>2026-03-21T12:30:01Z</time>
      </trkpt>
      <trkpt lat="44.4978" lon="3.93105">
        <ele>872.53</ele>
        <time>2026-03-21T12:30:18Z</time>
      </trkpt>
      <trkpt lat="44.49782" lon="3.93101">
        <ele>872.53</ele>
        <time>2026-03-21T12:30:21Z</time>
      </trkpt>
      <trkpt lat="44.49799" lon="3.93093">
        <ele>872.53</ele>
        <time>2026-03-21T12:30:36Z</time>
      </trkpt>
      <trkpt lat="44.49817" lon="3.93092">
        <ele>873.01</ele>
        <time>2026-03-21T12:30:51Z</time>
      </trkpt>
      <trkpt lat="44.49831" lon="3.93096">
        <ele>872.53</ele>
        <time>2026-03-21T12:31:05Z</time>
      </trkpt>
      <trkpt lat="44.49847" lon="3.9311">
        <ele>872.53</ele>
        <time>2026-03-21T12:31:21Z</time>
      </trkpt>
      <trkpt lat="44.49867" lon="3.93132">
        <ele>872.53</ele>
        <time>2026-03-21T12:31:39Z</time>
      </trkpt>
      <trkpt lat="44.49886" lon="3.93144">
        <ele>872.53</ele>
        <time>2026-03-21T12:31:56Z</time>
      </trkpt>
      <trkpt lat="44.49887" lon="3.93132">
        <ele>873.98</ele>
        <time>2026-03-21T12:32:12Z</time>
      </trkpt>
      <trkpt lat="44.4988" lon="3.93127">
        <ele>876.38</ele>
        <time>2026-03-21T12:32:28Z</time>
      </trkpt>
      <trkpt lat="44.49877" lon="3.93121">
        <ele>878.78</ele>
        <time>2026-03-21T12:32:41Z</time>
      </trkpt>
      <trkpt lat="44.49875" lon="3.93116">
        <ele>880.71</ele>
        <time>2026-03-21T12:32:49Z</time>
      </trkpt>
      <trkpt lat="44.49871" lon="3.93106">
        <ele>883.59</ele>
        <time>2026-03-21T12:33:04Z</time>
      </trkpt>
      <trkpt lat="44.49867" lon="3.93092">
        <ele>886.47</ele>
        <time>2026-03-21T12:33:23Z</time>
      </trkpt>
      <trkpt lat="44.49864" lon="3.93089">
        <ele>887.91</ele>
        <time>2026-03-21T12:33:37Z</time>
      </trkpt>
      <trkpt lat="44.49862" lon="3.93077">
        <ele>888.4</ele>
        <time>2026-03-21T12:33:50Z</time>
      </trkpt>
      <trkpt lat="44.49864" lon="3.9307">
        <ele>888.88</ele>
        <time>2026-03-21T12:34:04Z</time>
      </trkpt>
      <trkpt lat="44.49865" lon="3.93068">
        <ele>888.88</ele>
        <time>2026-03-21T12:34:23Z</time>
      </trkpt>
      <trkpt lat="44.49866" lon="3.93067">
        <ele>888.88</ele>
        <time>2026-03-21T12:34:49Z</time>
      </trkpt>
      <trkpt lat="44.49869" lon="3.9307">
        <ele>889.36</ele>
        <time>2026-03-21T12:35:20Z</time>
      </trkpt>
      <trkpt lat="44.49865" lon="3.93068">
        <ele>888.88</ele>
        <time>2026-03-21T12:35:33Z</time>
      </trkpt>
      <trkpt lat="44.49857" lon="3.9306">
        <ele>887.91</ele>
        <time>2026-03-21T12:35:41Z</time>
      </trkpt>
      <trkpt lat="44.49848" lon="3.93045">
        <ele>886.47</ele>
        <time>2026-03-21T12:35:52Z</time>
      </trkpt>
      <trkpt lat="44.49842" lon="3.93033">
        <ele>885.99</ele>
        <time>2026-03-21T12:36:00Z</time>
      </trkpt>
      <trkpt lat="44.49837" lon="3.93026">
        <ele>885.99</ele>
        <time>2026-03-21T12:36:06Z</time>
      </trkpt>
      <trkpt lat="44.49818" lon="3.93004">
        <ele>885.03</ele>
        <time>2026-03-21T12:36:28Z</time>
      </trkpt>
      <trkpt lat="44.49801" lon="3.92996">
        <ele>887.43</ele>
        <time>2026-03-21T12:36:45Z</time>
      </trkpt>
      <trkpt lat="44.49785" lon="3.92995">
        <ele>889.84</ele>
        <time>2026-03-21T12:37:02Z</time>
      </trkpt>
      <trkpt lat="44.49778" lon="3.92992">
        <ele>890.32</ele>
        <time>2026-03-21T12:37:08Z</time>
      </trkpt>
      <trkpt lat="44.49765" lon="3.92981">
        <ele>891.28</ele>
        <time>2026-03-21T12:37:21Z</time>
      </trkpt>
      <trkpt lat="44.49759" lon="3.92976">
        <ele>891.76</ele>
        <time>2026-03-21T12:37:27Z</time>
      </trkpt>
      <trkpt lat="44.49738" lon="3.92967">
        <ele>892.72</ele>
        <time>2026-03-21T12:37:46Z</time>
      </trkpt>
      <trkpt lat="44.49721" lon="3.92967">
        <ele>893.2</ele>
        <time>2026-03-21T12:38:03Z</time>
      </trkpt>
      <trkpt lat="44.49707" lon="3.9297">
        <ele>894.16</ele>
        <time>2026-03-21T12:38:15Z</time>
      </trkpt>
      <trkpt lat="44.49701" lon="3.92983">
        <ele>895.12</ele>
        <time>2026-03-21T12:38:29Z</time>
      </trkpt>
      <trkpt lat="44.49707" lon="3.93009">
        <ele>896.09</ele>
        <time>2026-03-21T12:38:49Z</time>
      </trkpt>
      <trkpt lat="44.49708" lon="3.93033">
        <ele>894.16</ele>
        <time>2026-03-21T12:39:06Z</time>
      </trkpt>
      <trkpt lat="44.49698" lon="3.93055">
        <ele>891.28</ele>
        <time>2026-03-21T12:39:23Z</time>
      </trkpt>
      <trkpt lat="44.49686" lon="3.93077">
        <ele>887.91</ele>
        <time>2026-03-21T12:39:40Z</time>
      </trkpt>
      <trkpt lat="44.49667" lon="3.93099">
        <ele>884.55</ele>
        <time>2026-03-21T12:40:00Z</time>
      </trkpt>
      <trkpt lat="44.49662" lon="3.93104">
        <ele>883.59</ele>
        <time>2026-03-21T12:40:06Z</time>
      </trkpt>
      <trkpt lat="44.4964" lon="3.9311">
        <ele>880.71</ele>
        <time>2026-03-21T12:40:26Z</time>
      </trkpt>
      <trkpt lat="44.4962" lon="3.93117">
        <ele>878.3</ele>
        <time>2026-03-21T12:40:44Z</time>
      </trkpt>
      <trkpt lat="44.496" lon="3.93115">
        <ele>876.38</ele>
        <time>2026-03-21T12:41:00Z</time>
      </trkpt>
      <trkpt lat="44.49586" lon="3.93115">
        <ele>874.94</ele>
        <time>2026-03-21T12:41:14Z</time>
      </trkpt>
      <trkpt lat="44.49569" lon="3.93115">
        <ele>874.46</ele>
        <time>2026-03-21T12:41:29Z</time>
      </trkpt>
      <trkpt lat="44.49556" lon="3.93126">
        <ele>874.46</ele>
        <time>2026-03-21T12:41:46Z</time>
      </trkpt>
      <trkpt lat="44.49545" lon="3.93135">
        <ele>875.9</ele>
        <time>2026-03-21T12:42:02Z</time>
      </trkpt>
      <trkpt lat="44.49537" lon="3.9314">
        <ele>875.9</ele>
        <time>2026-03-21T12:42:10Z</time>
      </trkpt>
      <trkpt lat="44.49521" lon="3.93144">
        <ele>878.78</ele>
        <time>2026-03-21T12:42:26Z</time>
      </trkpt>
      <trkpt lat="44.49509" lon="3.93146">
        <ele>880.22</ele>
        <time>2026-03-21T12:42:40Z</time>
      </trkpt>
      <trkpt lat="44.49499" lon="3.9315">
        <ele>881.67</ele>
        <time>2026-03-21T12:42:54Z</time>
      </trkpt>
      <trkpt lat="44.49487" lon="3.93151">
        <ele>883.59</ele>
        <time>2026-03-21T12:43:09Z</time>
      </trkpt>
      <trkpt lat="44.49477" lon="3.93152">
        <ele>885.51</ele>
        <time>2026-03-21T12:43:24Z</time>
      </trkpt>
      <trkpt lat="44.49461" lon="3.93148">
        <ele>886.95</ele>
        <time>2026-03-21T12:43:41Z</time>
      </trkpt>
      <trkpt lat="44.49455" lon="3.93147">
        <ele>887.91</ele>
        <time>2026-03-21T12:43:48Z</time>
      </trkpt>
      <trkpt lat="44.49444" lon="3.93144">
        <ele>888.88</ele>
        <time>2026-03-21T12:44:03Z</time>
      </trkpt>
      <trkpt lat="44.49433" lon="3.93138">
        <ele>890.32</ele>
        <time>2026-03-21T12:44:16Z</time>
      </trkpt>
      <trkpt lat="44.49421" lon="3.93136">
        <ele>891.76</ele>
        <time>2026-03-21T12:44:31Z</time>
      </trkpt>
      <trkpt lat="44.49409" lon="3.9313">
        <ele>893.68</ele>
        <time>2026-03-21T12:44:47Z</time>
      </trkpt>
      <trkpt lat="44.49402" lon="3.93128">
        <ele>894.64</ele>
        <time>2026-03-21T12:45:02Z</time>
      </trkpt>
      <trkpt lat="44.4939" lon="3.93126">
        <ele>895.12</ele>
        <time>2026-03-21T12:45:17Z</time>
      </trkpt>
      <trkpt lat="44.49387" lon="3.93125">
        <ele>895.61</ele>
        <time>2026-03-21T12:45:21Z</time>
      </trkpt>
      <trkpt lat="44.49376" lon="3.93124">
        <ele>897.05</ele>
        <time>2026-03-21T12:45:34Z</time>
      </trkpt>
      <trkpt lat="44.49364" lon="3.93123">
        <ele>899.45</ele>
        <time>2026-03-21T12:45:50Z</time>
      </trkpt>
      <trkpt lat="44.49352" lon="3.93122">
        <ele>900.89</ele>
        <time>2026-03-21T12:46:05Z</time>
      </trkpt>
      <trkpt lat="44.49344" lon="3.93119">
        <ele>901.85</ele>
        <time>2026-03-21T12:46:17Z</time>
      </trkpt>
      <trkpt lat="44.49329" lon="3.93109">
        <ele>903.3</ele>
        <time>2026-03-21T12:46:34Z</time>
      </trkpt>
      <trkpt lat="44.49323" lon="3.93101">
        <ele>903.78</ele>
        <time>2026-03-21T12:46:43Z</time>
      </trkpt>
      <trkpt lat="44.49312" lon="3.93091">
        <ele>904.26</ele>
        <time>2026-03-21T12:46:56Z</time>
      </trkpt>
      <trkpt lat="44.49298" lon="3.93084">
        <ele>905.7</ele>
        <time>2026-03-21T12:47:12Z</time>
      </trkpt>
      <trkpt lat="44.4929" lon="3.93083">
        <ele>907.14</ele>
        <time>2026-03-21T12:47:26Z</time>
      </trkpt>
      <trkpt lat="44.49276" lon="3.93081">
        <ele>907.14</ele>
        <time>2026-03-21T12:47:41Z</time>
      </trkpt>
      <trkpt lat="44.4926" lon="3.93082">
        <ele>908.1</ele>
        <time>2026-03-21T12:47:58Z</time>
      </trkpt>
      <trkpt lat="44.49248" lon="3.93084">
        <ele>908.58</ele>
        <time>2026-03-21T12:48:10Z</time>
      </trkpt>
      <trkpt lat="44.49232" lon="3.93091">
        <ele>908.58</ele>
        <time>2026-03-21T12:48:27Z</time>
      </trkpt>
      <trkpt lat="44.49218" lon="3.93098">
        <ele>909.06</ele>
        <time>2026-03-21T12:48:41Z</time>
      </trkpt>
      <trkpt lat="44.49199" lon="3.93107">
        <ele>909.06</ele>
        <time>2026-03-21T12:48:59Z</time>
      </trkpt>
      <trkpt lat="44.49188" lon="3.93107">
        <ele>909.54</ele>
        <time>2026-03-21T12:49:15Z</time>
      </trkpt>
      <trkpt lat="44.49186" lon="3.93109">
        <ele>909.54</ele>
        <time>2026-03-21T12:49:36Z</time>
      </trkpt>
      <trkpt lat="44.49174" lon="3.93104">
        <ele>909.54</ele>
        <time>2026-03-21T12:49:48Z</time>
      </trkpt>
      <trkpt lat="44.49172" lon="3.93103">
        <ele>908.1</ele>
        <time>2026-03-21T12:49:50Z</time>
      </trkpt>
      <trkpt lat="44.49154" lon="3.93095">
        <ele>906.66</ele>
        <time>2026-03-21T12:50:06Z</time>
      </trkpt>
      <trkpt lat="44.49135" lon="3.93083">
        <ele>906.18</ele>
        <time>2026-03-21T12:50:23Z</time>
      </trkpt>
      <trkpt lat="44.49114" lon="3.9307">
        <ele>906.18</ele>
        <time>2026-03-21T12:50:42Z</time>
      </trkpt>
      <trkpt lat="44.49093" lon="3.9306">
        <ele>906.18</ele>
        <time>2026-03-21T12:51:02Z</time>
      </trkpt>
      <trkpt lat="44.49088" lon="3.93056">
        <ele>904.74</ele>
        <time>2026-03-21T12:51:07Z</time>
      </trkpt>
      <trkpt lat="44.49073" lon="3.93046">
        <ele>904.74</ele>
        <time>2026-03-21T12:51:21Z</time>
      </trkpt>
      <trkpt lat="44.49066" lon="3.93043">
        <ele>902.82</ele>
        <time>2026-03-21T12:51:27Z</time>
      </trkpt>
      <trkpt lat="44.49065" lon="3.93042">
        <ele>907.14</ele>
        <time>2026-03-21T12:51:28Z</time>
      </trkpt>
      <trkpt lat="44.49064" lon="3.93042">
        <ele>905.7</ele>
        <time>2026-03-21T12:51:29Z</time>
      </trkpt>
      <trkpt lat="44.49044" lon="3.93028">
        <ele>904.26</ele>
        <time>2026-03-21T12:51:49Z</time>
      </trkpt>
      <trkpt lat="44.49025" lon="3.93014">
        <ele>903.78</ele>
        <time>2026-03-21T12:52:08Z</time>
      </trkpt>
      <trkpt lat="44.4901" lon="3.92996">
        <ele>903.3</ele>
        <time>2026-03-21T12:52:26Z</time>
      </trkpt>
      <trkpt lat="44.48997" lon="3.92979">
        <ele>903.3</ele>
        <time>2026-03-21T12:52:41Z</time>
      </trkpt>
      <trkpt lat="44.48985" lon="3.9296">
        <ele>903.3</ele>
        <time>2026-03-21T12:52:59Z</time>
      </trkpt>
      <trkpt lat="44.48974" lon="3.92947">
        <ele>902.82</ele>
        <time>2026-03-21T12:53:17Z</time>
      </trkpt>
      <trkpt lat="44.4896" lon="3.92939">
        <ele>901.37</ele>
        <time>2026-03-21T12:53:32Z</time>
      </trkpt>
      <trkpt lat="44.48943" lon="3.92929">
        <ele>901.37</ele>
        <time>2026-03-21T12:53:49Z</time>
      </trkpt>
      <trkpt lat="44.48926" lon="3.92916">
        <ele>901.37</ele>
        <time>2026-03-21T12:54:04Z</time>
      </trkpt>
      <trkpt lat="44.48919" lon="3.92912">
        <ele>899.93</ele>
        <time>2026-03-21T12:54:10Z</time>
      </trkpt>
      <trkpt lat="44.48917" lon="3.92911">
        <ele>901.85</ele>
        <time>2026-03-21T12:54:12Z</time>
      </trkpt>
      <trkpt lat="44.48913" lon="3.92909">
        <ele>900.89</ele>
        <time>2026-03-21T12:54:15Z</time>
      </trkpt>
      <trkpt lat="44.48891" lon="3.92902">
        <ele>899.93</ele>
        <time>2026-03-21T12:54:33Z</time>
      </trkpt>
      <trkpt lat="44.48873" lon="3.92893">
        <ele>899.45</ele>
        <time>2026-03-21T12:54:51Z</time>
      </trkpt>
      <trkpt lat="44.48854" lon="3.92886">
        <ele>899.93</ele>
        <time>2026-03-21T12:55:09Z</time>
      </trkpt>
      <trkpt lat="44.48842" lon="3.92883">
        <ele>899.93</ele>
        <time>2026-03-21T12:55:22Z</time>
      </trkpt>
      <trkpt lat="44.48817" lon="3.9287">
        <ele>899.93</ele>
        <time>2026-03-21T12:55:43Z</time>
      </trkpt>
      <trkpt lat="44.48803" lon="3.92861">
        <ele>898.49</ele>
        <time>2026-03-21T12:55:56Z</time>
      </trkpt>
      <trkpt lat="44.48782" lon="3.9285">
        <ele>896.09</ele>
        <time>2026-03-21T12:56:13Z</time>
      </trkpt>
      <trkpt lat="44.4876" lon="3.92848">
        <ele>894.64</ele>
        <time>2026-03-21T12:56:32Z</time>
      </trkpt>
      <trkpt lat="44.48734" lon="3.92849">
        <ele>893.68</ele>
        <time>2026-03-21T12:56:52Z</time>
      </trkpt>
      <trkpt lat="44.48727" lon="3.9285">
        <ele>893.2</ele>
        <time>2026-03-21T12:56:58Z</time>
      </trkpt>
      <trkpt lat="44.48712" lon="3.92849">
        <ele>893.2</ele>
        <time>2026-03-21T12:57:12Z</time>
      </trkpt>
      <trkpt lat="44.4869" lon="3.92855">
        <ele>892.72</ele>
        <time>2026-03-21T12:57:29Z</time>
      </trkpt>
      <trkpt lat="44.48666" lon="3.92869">
        <ele>895.12</ele>
        <time>2026-03-21T12:57:50Z</time>
      </trkpt>
      <trkpt lat="44.48645" lon="3.9288">
        <ele>895.61</ele>
        <time>2026-03-21T12:58:11Z</time>
      </trkpt>
      <trkpt lat="44.48629" lon="3.92888">
        <ele>894.16</ele>
        <time>2026-03-21T12:58:25Z</time>
      </trkpt>
      <trkpt lat="44.48613" lon="3.92898">
        <ele>893.2</ele>
        <time>2026-03-21T12:58:40Z</time>
      </trkpt>
      <trkpt lat="44.48587" lon="3.92916">
        <ele>891.76</ele>
        <time>2026-03-21T12:59:02Z</time>
      </trkpt>
      <trkpt lat="44.4856" lon="3.92934">
        <ele>891.28</ele>
        <time>2026-03-21T12:59:25Z</time>
      </trkpt>
      <trkpt lat="44.48534" lon="3.92948">
        <ele>890.8</ele>
        <time>2026-03-21T12:59:47Z</time>
      </trkpt>
      <trkpt lat="44.48511" lon="3.92964">
        <ele>889.84</ele>
        <time>2026-03-21T13:00:08Z</time>
      </trkpt>
      <trkpt lat="44.48493" lon="3.92976">
        <ele>889.36</ele>
        <time>2026-03-21T13:00:26Z</time>
      </trkpt>
      <trkpt lat="44.48468" lon="3.92987">
        <ele>887.91</ele>
        <time>2026-03-21T13:00:48Z</time>
      </trkpt>
      <trkpt lat="44.48445" lon="3.92999">
        <ele>886.95</ele>
        <time>2026-03-21T13:01:08Z</time>
      </trkpt>
      <trkpt lat="44.4843" lon="3.93007">
        <ele>886.47</ele>
        <time>2026-03-21T13:01:23Z</time>
      </trkpt>
      <trkpt lat="44.48412" lon="3.93015">
        <ele>885.03</ele>
        <time>2026-03-21T13:01:39Z</time>
      </trkpt>
      <trkpt lat="44.48411" lon="3.93016">
        <ele>881.67</ele>
        <time>2026-03-21T13:01:40Z</time>
      </trkpt>
      <trkpt lat="44.4841" lon="3.93016">
        <ele>885.51</ele>
        <time>2026-03-21T13:01:41Z</time>
      </trkpt>
      <trkpt lat="44.48394" lon="3.93027">
        <ele>884.55</ele>
        <time>2026-03-21T13:01:58Z</time>
      </trkpt>
      <trkpt lat="44.48373" lon="3.9304">
        <ele>883.59</ele>
        <time>2026-03-21T13:02:18Z</time>
      </trkpt>
      <trkpt lat="44.48366" lon="3.93045">
        <ele>883.11</ele>
        <time>2026-03-21T13:02:25Z</time>
      </trkpt>
      <trkpt lat="44.48362" lon="3.93048">
        <ele>883.11</ele>
        <time>2026-03-21T13:02:29Z</time>
      </trkpt>
      <trkpt lat="44.48341" lon="3.93063">
        <ele>880.71</ele>
        <time>2026-03-21T13:02:50Z</time>
      </trkpt>
      <trkpt lat="44.48322" lon="3.93071">
        <ele>879.26</ele>
        <time>2026-03-21T13:03:07Z</time>
      </trkpt>
      <trkpt lat="44.48308" lon="3.93088">
        <ele>878.3</ele>
        <time>2026-03-21T13:03:24Z</time>
      </trkpt>
      <trkpt lat="44.48306" lon="3.93108">
        <ele>877.82</ele>
        <time>2026-03-21T13:03:39Z</time>
      </trkpt>
      <trkpt lat="44.48306" lon="3.93116">
        <ele>877.82</ele>
        <time>2026-03-21T13:03:44Z</time>
      </trkpt>
      <trkpt lat="44.48307" lon="3.93145">
        <ele>877.34</ele>
        <time>2026-03-21T13:04:02Z</time>
      </trkpt>
      <trkpt lat="44.48311" lon="3.93175">
        <ele>875.9</ele>
        <time>2026-03-21T13:04:22Z</time>
      </trkpt>
      <trkpt lat="44.48315" lon="3.932">
        <ele>874.46</ele>
        <time>2026-03-21T13:04:39Z</time>
      </trkpt>
      <trkpt lat="44.48319" lon="3.93228">
        <ele>873.5</ele>
        <time>2026-03-21T13:04:56Z</time>
      </trkpt>
      <trkpt lat="44.4832" lon="3.93257">
        <ele>872.05</ele>
        <time>2026-03-21T13:05:14Z</time>
      </trkpt>
      <trkpt lat="44.48322" lon="3.9328">
        <ele>871.09</ele>
        <time>2026-03-21T13:05:28Z</time>
      </trkpt>
      <trkpt lat="44.48323" lon="3.93298">
        <ele>870.13</ele>
        <time>2026-03-21T13:05:40Z</time>
      </trkpt>
      <trkpt lat="44.48323" lon="3.93318">
        <ele>869.65</ele>
        <time>2026-03-21T13:05:53Z</time>
      </trkpt>
      <trkpt lat="44.48323" lon="3.93329">
        <ele>869.65</ele>
        <time>2026-03-21T13:06:08Z</time>
      </trkpt>
      <trkpt lat="44.48324" lon="3.93329">
        <ele>869.65</ele>
        <time>2026-03-21T13:06:21Z</time>
      </trkpt>
      <trkpt lat="44.48322" lon="3.93325">
        <ele>869.17</ele>
        <time>2026-03-21T13:07:04Z</time>
      </trkpt>
      <trkpt lat="44.4832" lon="3.93327">
        <ele>868.69</ele>
        <time>2026-03-21T13:07:48Z</time>
      </trkpt>
      <trkpt lat="44.4832" lon="3.93327">
        <ele>868.69</ele>
        <time>2026-03-21T13:08:26Z</time>
      </trkpt>
      <trkpt lat="44.48321" lon="3.93329">
        <ele>869.65</ele>
        <time>2026-03-21T13:09:06Z</time>
      </trkpt>
      <trkpt lat="44.48323" lon="3.93339">
        <ele>869.65</ele>
        <time>2026-03-21T13:09:15Z</time>
      </trkpt>
      <trkpt lat="44.48321" lon="3.93353">
        <ele>870.13</ele>
        <time>2026-03-21T13:09:24Z</time>
      </trkpt>
      <trkpt lat="44.48321" lon="3.93362">
        <ele>870.13</ele>
        <time>2026-03-21T13:09:30Z</time>
      </trkpt>
      <trkpt lat="44.4832" lon="3.93369">
        <ele>868.69</ele>
        <time>2026-03-21T13:09:34Z</time>
      </trkpt>
      <trkpt lat="44.48315" lon="3.93386">
        <ele>868.69</ele>
        <time>2026-03-21T13:09:46Z</time>
      </trkpt>
      <trkpt lat="44.48313" lon="3.93388">
        <ele>868.69</ele>
        <time>2026-03-21T13:09:57Z</time>
      </trkpt>
      <trkpt lat="44.48311" lon="3.93389">
        <ele>868.21</ele>
        <time>2026-03-21T13:10:15Z</time>
      </trkpt>
      <trkpt lat="44.48312" lon="3.93392">
        <ele>869.17</ele>
        <time>2026-03-21T13:10:18Z</time>
      </trkpt>
      <trkpt lat="44.48312" lon="3.93411">
        <ele>869.65</ele>
        <time>2026-03-21T13:10:31Z</time>
      </trkpt>
      <trkpt lat="44.48309" lon="3.93421">
        <ele>870.13</ele>
        <time>2026-03-21T13:10:37Z</time>
      </trkpt>
      <trkpt lat="44.48305" lon="3.9343">
        <ele>870.13</ele>
        <time>2026-03-21T13:10:45Z</time>
      </trkpt>
      <trkpt lat="44.48303" lon="3.93432">
        <ele>871.09</ele>
        <time>2026-03-21T13:10:54Z</time>
      </trkpt>
      <trkpt lat="44.48308" lon="3.93412">
        <ele>870.61</ele>
        <time>2026-03-21T13:11:02Z</time>
      </trkpt>
      <trkpt lat="44.48313" lon="3.93374">
        <ele>868.69</ele>
        <time>2026-03-21T13:11:19Z</time>
      </trkpt>
      <trkpt lat="44.48314" lon="3.93342">
        <ele>868.69</ele>
        <time>2026-03-21T13:11:35Z</time>
      </trkpt>
      <trkpt lat="44.48315" lon="3.93328">
        <ele>868.69</ele>
        <time>2026-03-21T13:11:44Z</time>
      </trkpt>
      <trkpt lat="44.48316" lon="3.93337">
        <ele>868.69</ele>
        <time>2026-03-21T13:11:48Z</time>
      </trkpt>
      <trkpt lat="44.48318" lon="3.9336">
        <ele>869.65</ele>
        <time>2026-03-21T13:12:00Z</time>
      </trkpt>
      <trkpt lat="44.48315" lon="3.93391">
        <ele>869.65</ele>
        <time>2026-03-21T13:12:16Z</time>
      </trkpt>
      <trkpt lat="44.48309" lon="3.93421">
        <ele>870.13</ele>
        <time>2026-03-21T13:12:33Z</time>
      </trkpt>
      <trkpt lat="44.48305" lon="3.9343">
        <ele>870.13</ele>
        <time>2026-03-21T13:12:38Z</time>
      </trkpt>
      <trkpt lat="44.48297" lon="3.93435">
        <ele>870.61</ele>
        <time>2026-03-21T13:12:46Z</time>
      </trkpt>
      <trkpt lat="44.48283" lon="3.93448">
        <ele>867.73</ele>
        <time>2026-03-21T13:12:58Z</time>
      </trkpt>
      <trkpt lat="44.48281" lon="3.93449">
        <ele>873.98</ele>
        <time>2026-03-21T13:12:59Z</time>
      </trkpt>
      <trkpt lat="44.4828" lon="3.9345">
        <ele>871.57</ele>
        <time>2026-03-21T13:13:00Z</time>
      </trkpt>
      <trkpt lat="44.48278" lon="3.93451">
        <ele>870.61</ele>
        <time>2026-03-21T13:13:02Z</time>
      </trkpt>
      <trkpt lat="44.48268" lon="3.93459">
        <ele>870.61</ele>
        <time>2026-03-21T13:13:11Z</time>
      </trkpt>
      <trkpt lat="44.48256" lon="3.93475">
        <ele>872.05</ele>
        <time>2026-03-21T13:13:27Z</time>
      </trkpt>
      <trkpt lat="44.48255" lon="3.93477">
        <ele>871.57</ele>
        <time>2026-03-21T13:13:30Z</time>
      </trkpt>
      <trkpt lat="44.48243" lon="3.9348">
        <ele>870.13</ele>
        <time>2026-03-21T13:13:40Z</time>
      </trkpt>
      <trkpt lat="44.48238" lon="3.93485">
        <ele>870.13</ele>
        <time>2026-03-21T13:13:47Z</time>
      </trkpt>
      <trkpt lat="44.48225" lon="3.93493">
        <ele>868.21</ele>
        <time>2026-03-21T13:14:01Z</time>
      </trkpt>
      <trkpt lat="44.48218" lon="3.935">
        <ele>866.29</ele>
        <time>2026-03-21T13:14:12Z</time>
      </trkpt>
      <trkpt lat="44.48213" lon="3.93507">
        <ele>865.8</ele>
        <time>2026-03-21T13:14:20Z</time>
      </trkpt>
      <trkpt lat="44.48211" lon="3.9351">
        <ele>865.32</ele>
        <time>2026-03-21T13:14:23Z</time>
      </trkpt>
      <trkpt lat="44.48206" lon="3.93515">
        <ele>863.88</ele>
        <time>2026-03-21T13:14:31Z</time>
      </trkpt>
      <trkpt lat="44.48204" lon="3.93517">
        <ele>864.36</ele>
        <time>2026-03-21T13:14:33Z</time>
      </trkpt>
      <trkpt lat="44.48199" lon="3.93522">
        <ele>861</ele>
        <time>2026-03-21T13:14:39Z</time>
      </trkpt>
      <trkpt lat="44.48198" lon="3.93522">
        <ele>866.29</ele>
        <time>2026-03-21T13:14:40Z</time>
      </trkpt>
      <trkpt lat="44.48196" lon="3.93524">
        <ele>862.92</ele>
        <time>2026-03-21T13:14:42Z</time>
      </trkpt>
      <trkpt lat="44.48194" lon="3.93525">
        <ele>862.92</ele>
        <time>2026-03-21T13:14:43Z</time>
      </trkpt>
      <trkpt lat="44.48186" lon="3.93537">
        <ele>861.96</ele>
        <time>2026-03-21T13:14:56Z</time>
      </trkpt>
      <trkpt lat="44.48182" lon="3.93551">
        <ele>859.08</ele>
        <time>2026-03-21T13:15:09Z</time>
      </trkpt>
      <trkpt lat="44.48184" lon="3.93553">
        <ele>858.59</ele>
        <time>2026-03-21T13:15:25Z</time>
      </trkpt>
      <trkpt lat="44.48187" lon="3.93556">
        <ele>856.67</ele>
        <time>2026-03-21T13:15:38Z</time>
      </trkpt>
      <trkpt lat="44.4819" lon="3.93554">
        <ele>854.27</ele>
        <time>2026-03-21T13:15:54Z</time>
      </trkpt>
      <trkpt lat="44.48192" lon="3.93557">
        <ele>850.9</ele>
        <time>2026-03-21T13:16:06Z</time>
      </trkpt>
      <trkpt lat="44.48195" lon="3.93567">
        <ele>848.98</ele>
        <time>2026-03-21T13:16:19Z</time>
      </trkpt>
      <trkpt lat="44.48195" lon="3.93571">
        <ele>847.54</ele>
        <time>2026-03-21T13:16:34Z</time>
      </trkpt>
      <trkpt lat="44.48197" lon="3.93578">
        <ele>844.18</ele>
        <time>2026-03-21T13:16:45Z</time>
      </trkpt>
      <trkpt lat="44.48197" lon="3.93577">
        <ele>845.14</ele>
        <time>2026-03-21T13:17:03Z</time>
      </trkpt>
      <trkpt lat="44.48197" lon="3.93578">
        <ele>846.58</ele>
        <time>2026-03-21T13:17:07Z</time>
      </trkpt>
      <trkpt lat="44.48196" lon="3.93577">
        <ele>844.18</ele>
        <time>2026-03-21T13:17:47Z</time>
      </trkpt>
      <trkpt lat="44.48196" lon="3.9358">
        <ele>845.14</ele>
        <time>2026-03-21T13:18:14Z</time>
      </trkpt>
      <trkpt lat="44.48197" lon="3.9358">
        <ele>844.66</ele>
        <time>2026-03-21T13:18:34Z</time>
      </trkpt>
      <trkpt lat="44.48196" lon="3.9358">
        <ele>844.66</ele>
        <time>2026-03-21T13:19:14Z</time>
      </trkpt>
      <trkpt lat="44.48198" lon="3.93579">
        <ele>844.18</ele>
        <time>2026-03-21T13:19:42Z</time>
      </trkpt>
      <trkpt lat="44.48187" lon="3.93579">
        <ele>844.18</ele>
        <time>2026-03-21T13:20:04Z</time>
      </trkpt>
      <trkpt lat="44.48184" lon="3.93578">
        <ele>844.18</ele>
        <time>2026-03-21T13:20:08Z</time>
      </trkpt>
      <trkpt lat="44.48178" lon="3.93581">
        <ele>844.18</ele>
        <time>2026-03-21T13:20:23Z</time>
      </trkpt>
      <trkpt lat="44.48178" lon="3.93585">
        <ele>843.21</ele>
        <time>2026-03-21T13:20:28Z</time>
      </trkpt>
      <trkpt lat="44.48175" lon="3.93591">
        <ele>842.73</ele>
        <time>2026-03-21T13:20:46Z</time>
      </trkpt>
      <trkpt lat="44.48175" lon="3.93591">
        <ele>841.77</ele>
        <time>2026-03-21T13:20:48Z</time>
      </trkpt>
      <trkpt lat="44.48175" lon="3.93589">
        <ele>841.77</ele>
        <time>2026-03-21T13:21:23Z</time>
      </trkpt>
      <trkpt lat="44.48174" lon="3.93587">
        <ele>841.77</ele>
        <time>2026-03-21T13:21:27Z</time>
      </trkpt>
      <trkpt lat="44.48174" lon="3.93584">
        <ele>841.77</ele>
        <time>2026-03-21T13:21:29Z</time>
      </trkpt>
      <trkpt lat="44.48171" lon="3.9358">
        <ele>841.77</ele>
        <time>2026-03-21T13:21:34Z</time>
      </trkpt>
      <trkpt lat="44.48168" lon="3.93578">
        <ele>843.21</ele>
        <time>2026-03-21T13:21:38Z</time>
      </trkpt>
      <trkpt lat="44.48165" lon="3.93578">
        <ele>843.69</ele>
        <time>2026-03-21T13:21:41Z</time>
      </trkpt>
      <trkpt lat="44.48158" lon="3.93581">
        <ele>846.58</ele>
        <time>2026-03-21T13:21:55Z</time>
      </trkpt>
      <trkpt lat="44.48151" lon="3.93573">
        <ele>848.5</ele>
        <time>2026-03-21T13:22:09Z</time>
      </trkpt>
      <trkpt lat="44.48148" lon="3.93568">
        <ele>848.5</ele>
        <time>2026-03-21T13:22:24Z</time>
      </trkpt>
      <trkpt lat="44.48149" lon="3.93566">
        <ele>848.5</ele>
        <time>2026-03-21T13:22:44Z</time>
      </trkpt>
      <trkpt lat="44.48147" lon="3.93553">
        <ele>849.46</ele>
        <time>2026-03-21T13:22:57Z</time>
      </trkpt>
      <trkpt lat="44.48147" lon="3.9355">
        <ele>849.94</ele>
        <time>2026-03-21T13:22:59Z</time>
      </trkpt>
      <trkpt lat="44.48158" lon="3.93545">
        <ele>852.83</ele>
        <time>2026-03-21T13:23:13Z</time>
      </trkpt>
      <trkpt lat="44.48169" lon="3.93544">
        <ele>855.23</ele>
        <time>2026-03-21T13:23:28Z</time>
      </trkpt>
      <trkpt lat="44.48177" lon="3.93544">
        <ele>857.15</ele>
        <time>2026-03-21T13:23:41Z</time>
      </trkpt>
      <trkpt lat="44.48182" lon="3.93537">
        <ele>858.11</ele>
        <time>2026-03-21T13:23:53Z</time>
      </trkpt>
      <trkpt lat="44.48184" lon="3.93532">
        <ele>860.04</ele>
        <time>2026-03-21T13:24:06Z</time>
      </trkpt>
      <trkpt lat="44.48186" lon="3.93527">
        <ele>860.52</ele>
        <time>2026-03-21T13:24:12Z</time>
      </trkpt>
      <trkpt lat="44.48189" lon="3.93521">
        <ele>861.48</ele>
        <time>2026-03-21T13:24:25Z</time>
      </trkpt>
      <trkpt lat="44.48194" lon="3.93521">
        <ele>861.48</ele>
        <time>2026-03-21T13:24:37Z</time>
      </trkpt>
      <trkpt lat="44.48195" lon="3.93522">
        <ele>861.48</ele>
        <time>2026-03-21T13:24:39Z</time>
      </trkpt>
      <trkpt lat="44.48198" lon="3.9352">
        <ele>861.96</ele>
        <time>2026-03-21T13:24:43Z</time>
      </trkpt>
      <trkpt lat="44.4821" lon="3.93506">
        <ele>863.4</ele>
        <time>2026-03-21T13:24:58Z</time>
      </trkpt>
      <trkpt lat="44.48219" lon="3.93493">
        <ele>864.84</ele>
        <time>2026-03-21T13:25:13Z</time>
      </trkpt>
      <trkpt lat="44.4822" lon="3.93489">
        <ele>865.32</ele>
        <time>2026-03-21T13:25:17Z</time>
      </trkpt>
      <trkpt lat="44.48228" lon="3.93485">
        <ele>866.29</ele>
        <time>2026-03-21T13:25:25Z</time>
      </trkpt>
      <trkpt lat="44.48239" lon="3.93476">
        <ele>867.25</ele>
        <time>2026-03-21T13:25:38Z</time>
      </trkpt>
      <trkpt lat="44.48251" lon="3.93469">
        <ele>868.69</ele>
        <time>2026-03-21T13:25:51Z</time>
      </trkpt>
      <trkpt lat="44.48265" lon="3.93454">
        <ele>868.69</ele>
        <time>2026-03-21T13:26:08Z</time>
      </trkpt>
      <trkpt lat="44.48283" lon="3.93435">
        <ele>867.73</ele>
        <time>2026-03-21T13:26:29Z</time>
      </trkpt>
      <trkpt lat="44.48293" lon="3.93427">
        <ele>867.73</ele>
        <time>2026-03-21T13:26:39Z</time>
      </trkpt>
      <trkpt lat="44.483" lon="3.93427">
        <ele>866.77</ele>
        <time>2026-03-21T13:26:45Z</time>
      </trkpt>
      <trkpt lat="44.48308" lon="3.93406">
        <ele>866.29</ele>
        <time>2026-03-21T13:27:02Z</time>
      </trkpt>
      <trkpt lat="44.48314" lon="3.93374">
        <ele>865.32</ele>
        <time>2026-03-21T13:27:22Z</time>
      </trkpt>
      <trkpt lat="44.48311" lon="3.93351">
        <ele>865.8</ele>
        <time>2026-03-21T13:27:38Z</time>
      </trkpt>
      <trkpt lat="44.48298" lon="3.93341">
        <ele>865.8</ele>
        <time>2026-03-21T13:27:55Z</time>
      </trkpt>
      <trkpt lat="44.48286" lon="3.93348">
        <ele>864.36</ele>
        <time>2026-03-21T13:28:08Z</time>
      </trkpt>
      <trkpt lat="44.48272" lon="3.93355">
        <ele>863.88</ele>
        <time>2026-03-21T13:28:23Z</time>
      </trkpt>
      <trkpt lat="44.48253" lon="3.93359">
        <ele>861.96</ele>
        <time>2026-03-21T13:28:39Z</time>
      </trkpt>
      <trkpt lat="44.48232" lon="3.93362">
        <ele>859.56</ele>
        <time>2026-03-21T13:28:58Z</time>
      </trkpt>
      <trkpt lat="44.48222" lon="3.93363">
        <ele>858.59</ele>
        <time>2026-03-21T13:29:07Z</time>
      </trkpt>
      <trkpt lat="44.48204" lon="3.93365">
        <ele>857.15</ele>
        <time>2026-03-21T13:29:23Z</time>
      </trkpt>
      <trkpt lat="44.48192" lon="3.93368">
        <ele>856.67</ele>
        <time>2026-03-21T13:29:36Z</time>
      </trkpt>
      <trkpt lat="44.48189" lon="3.93369">
        <ele>856.67</ele>
        <time>2026-03-21T13:29:39Z</time>
      </trkpt>
      <trkpt lat="44.48186" lon="3.93368">
        <ele>856.67</ele>
        <time>2026-03-21T13:29:41Z</time>
      </trkpt>
      <trkpt lat="44.4817" lon="3.93371">
        <ele>855.71</ele>
        <time>2026-03-21T13:29:55Z</time>
      </trkpt>
      <trkpt lat="44.48155" lon="3.93373">
        <ele>854.27</ele>
        <time>2026-03-21T13:30:11Z</time>
      </trkpt>
      <trkpt lat="44.48143" lon="3.93378">
        <ele>853.31</ele>
        <time>2026-03-21T13:30:24Z</time>
      </trkpt>
      <trkpt lat="44.48127" lon="3.93393">
        <ele>851.87</ele>
        <time>2026-03-21T13:30:40Z</time>
      </trkpt>
      <trkpt lat="44.48114" lon="3.93407">
        <ele>851.38</ele>
        <time>2026-03-21T13:30:55Z</time>
      </trkpt>
      <trkpt lat="44.48095" lon="3.93413">
        <ele>849.94</ele>
        <time>2026-03-21T13:31:12Z</time>
      </trkpt>
      <trkpt lat="44.48076" lon="3.93397">
        <ele>848.98</ele>
        <time>2026-03-21T13:31:29Z</time>
      </trkpt>
      <trkpt lat="44.48068" lon="3.93389">
        <ele>847.54</ele>
        <time>2026-03-21T13:31:38Z</time>
      </trkpt>
      <trkpt lat="44.48051" lon="3.93376">
        <ele>845.14</ele>
        <time>2026-03-21T13:31:57Z</time>
      </trkpt>
      <trkpt lat="44.48043" lon="3.93373">
        <ele>844.18</ele>
        <time>2026-03-21T13:32:11Z</time>
      </trkpt>
      <trkpt lat="44.48035" lon="3.93368">
        <ele>844.18</ele>
        <time>2026-03-21T13:32:35Z</time>
      </trkpt>
      <trkpt lat="44.48029" lon="3.93364">
        <ele>845.62</ele>
        <time>2026-03-21T13:32:51Z</time>
      </trkpt>
      <trkpt lat="44.48022" lon="3.9336">
        <ele>846.58</ele>
        <time>2026-03-21T13:33:06Z</time>
      </trkpt>
      <trkpt lat="44.4801" lon="3.93361">
        <ele>848.5</ele>
        <time>2026-03-21T13:33:24Z</time>
      </trkpt>
      <trkpt lat="44.47999" lon="3.93362">
        <ele>850.9</ele>
        <time>2026-03-21T13:33:38Z</time>
      </trkpt>
      <trkpt lat="44.47986" lon="3.93364">
        <ele>852.35</ele>
        <time>2026-03-21T13:33:53Z</time>
      </trkpt>
      <trkpt lat="44.47973" lon="3.93364">
        <ele>853.79</ele>
        <time>2026-03-21T13:34:07Z</time>
      </trkpt>
      <trkpt lat="44.47961" lon="3.93366">
        <ele>855.71</ele>
        <time>2026-03-21T13:34:23Z</time>
      </trkpt>
      <trkpt lat="44.47951" lon="3.93368">
        <ele>857.63</ele>
        <time>2026-03-21T13:34:36Z</time>
      </trkpt>
      <trkpt lat="44.47939" lon="3.9337">
        <ele>860.04</ele>
        <time>2026-03-21T13:34:52Z</time>
      </trkpt>
      <trkpt lat="44.47924" lon="3.93372">
        <ele>861.96</ele>
        <time>2026-03-21T13:35:09Z</time>
      </trkpt>
      <trkpt lat="44.47913" lon="3.93375">
        <ele>863.4</ele>
        <time>2026-03-21T13:35:23Z</time>
      </trkpt>
      <trkpt lat="44.47901" lon="3.9338">
        <ele>865.32</ele>
        <time>2026-03-21T13:35:39Z</time>
      </trkpt>
      <trkpt lat="44.47892" lon="3.93386">
        <ele>866.29</ele>
        <time>2026-03-21T13:35:52Z</time>
      </trkpt>
      <trkpt lat="44.47878" lon="3.93389">
        <ele>867.25</ele>
        <time>2026-03-21T13:36:07Z</time>
      </trkpt>
      <trkpt lat="44.47864" lon="3.93394">
        <ele>868.21</ele>
        <time>2026-03-21T13:36:23Z</time>
      </trkpt>
      <trkpt lat="44.47854" lon="3.93397">
        <ele>869.65</ele>
        <time>2026-03-21T13:36:36Z</time>
      </trkpt>
      <trkpt lat="44.47838" lon="3.93403">
        <ele>871.09</ele>
        <time>2026-03-21T13:36:53Z</time>
      </trkpt>
      <trkpt lat="44.47825" lon="3.93408">
        <ele>872.05</ele>
        <time>2026-03-21T13:37:10Z</time>
      </trkpt>
      <trkpt lat="44.47814" lon="3.93415">
        <ele>873.5</ele>
        <time>2026-03-21T13:37:25Z</time>
      </trkpt>
      <trkpt lat="44.47802" lon="3.9342">
        <ele>875.42</ele>
        <time>2026-03-21T13:37:40Z</time>
      </trkpt>
      <trkpt lat="44.47797" lon="3.9342">
        <ele>876.38</ele>
        <time>2026-03-21T13:37:53Z</time>
      </trkpt>
      <trkpt lat="44.47796" lon="3.93419">
        <ele>877.34</ele>
        <time>2026-03-21T13:38:04Z</time>
      </trkpt>
      <trkpt lat="44.47793" lon="3.93417">
        <ele>875.9</ele>
        <time>2026-03-21T13:38:31Z</time>
      </trkpt>
      <trkpt lat="44.47791" lon="3.93417">
        <ele>875.9</ele>
        <time>2026-03-21T13:38:34Z</time>
      </trkpt>
      <trkpt lat="44.47788" lon="3.93425">
        <ele>877.34</ele>
        <time>2026-03-21T13:38:42Z</time>
      </trkpt>
      <trkpt lat="44.4778" lon="3.93442">
        <ele>877.82</ele>
        <time>2026-03-21T13:38:58Z</time>
      </trkpt>
      <trkpt lat="44.47777" lon="3.93444">
        <ele>877.82</ele>
        <time>2026-03-21T13:39:02Z</time>
      </trkpt>
      <trkpt lat="44.47774" lon="3.93453">
        <ele>877.82</ele>
        <time>2026-03-21T13:39:10Z</time>
      </trkpt>
      <trkpt lat="44.47763" lon="3.93469">
        <ele>879.26</ele>
        <time>2026-03-21T13:39:29Z</time>
      </trkpt>
      <trkpt lat="44.47755" lon="3.93484">
        <ele>879.74</ele>
        <time>2026-03-21T13:39:45Z</time>
      </trkpt>
      <trkpt lat="44.47749" lon="3.93493">
        <ele>880.22</ele>
        <time>2026-03-21T13:39:58Z</time>
      </trkpt>
      <trkpt lat="44.47746" lon="3.93508">
        <ele>880.22</ele>
        <time>2026-03-21T13:40:20Z</time>
      </trkpt>
      <trkpt lat="44.47737" lon="3.93522">
        <ele>881.19</ele>
        <time>2026-03-21T13:40:36Z</time>
      </trkpt>
      <trkpt lat="44.47736" lon="3.93524">
        <ele>881.19</ele>
        <time>2026-03-21T13:40:38Z</time>
      </trkpt>
      <trkpt lat="44.47734" lon="3.93526">
        <ele>881.19</ele>
        <time>2026-03-21T13:40:52Z</time>
      </trkpt>
      <trkpt lat="44.47727" lon="3.93538">
        <ele>881.19</ele>
        <time>2026-03-21T13:41:05Z</time>
      </trkpt>
      <trkpt lat="44.47716" lon="3.93547">
        <ele>880.71</ele>
        <time>2026-03-21T13:41:19Z</time>
      </trkpt>
      <trkpt lat="44.47705" lon="3.93553">
        <ele>879.74</ele>
        <time>2026-03-21T13:41:31Z</time>
      </trkpt>
      <trkpt lat="44.47691" lon="3.9356">
        <ele>879.26</ele>
        <time>2026-03-21T13:41:45Z</time>
      </trkpt>
      <trkpt lat="44.4769" lon="3.93559">
        <ele>879.26</ele>
        <time>2026-03-21T13:41:53Z</time>
      </trkpt>
      <trkpt lat="44.47707" lon="3.93549">
        <ele>879.26</ele>
        <time>2026-03-21T13:42:13Z</time>
      </trkpt>
      <trkpt lat="44.4772" lon="3.93538">
        <ele>880.22</ele>
        <time>2026-03-21T13:42:27Z</time>
      </trkpt>
      <trkpt lat="44.47727" lon="3.9353">
        <ele>880.71</ele>
        <time>2026-03-21T13:42:37Z</time>
      </trkpt>
      <trkpt lat="44.4773" lon="3.93523">
        <ele>880.71</ele>
        <time>2026-03-21T13:42:43Z</time>
      </trkpt>
      <trkpt lat="44.47738" lon="3.93513">
        <ele>881.19</ele>
        <time>2026-03-21T13:42:53Z</time>
      </trkpt>
      <trkpt lat="44.47755" lon="3.93524">
        <ele>881.19</ele>
        <time>2026-03-21T13:43:12Z</time>
      </trkpt>
      <trkpt lat="44.47767" lon="3.93534">
        <ele>881.67</ele>
        <time>2026-03-21T13:43:27Z</time>
      </trkpt>
      <trkpt lat="44.47776" lon="3.93539">
        <ele>882.15</ele>
        <time>2026-03-21T13:43:41Z</time>
      </trkpt>
      <trkpt lat="44.47784" lon="3.93538">
        <ele>883.11</ele>
        <time>2026-03-21T13:43:59Z</time>
      </trkpt>
      <trkpt lat="44.47787" lon="3.93537">
        <ele>883.11</ele>
        <time>2026-03-21T13:44:02Z</time>
      </trkpt>
      <trkpt lat="44.47789" lon="3.93537">
        <ele>883.11</ele>
        <time>2026-03-21T13:44:04Z</time>
      </trkpt>
      <trkpt lat="44.47792" lon="3.93545">
        <ele>883.11</ele>
        <time>2026-03-21T13:44:09Z</time>
      </trkpt>
      <trkpt lat="44.47789" lon="3.93552">
        <ele>883.11</ele>
        <time>2026-03-21T13:44:21Z</time>
      </trkpt>
      <trkpt lat="44.47789" lon="3.93552">
        <ele>882.15</ele>
        <time>2026-03-21T13:44:23Z</time>
      </trkpt>
      <trkpt lat="44.47787" lon="3.93553">
        <ele>881.67</ele>
        <time>2026-03-21T13:44:54Z</time>
      </trkpt>
      <trkpt lat="44.47787" lon="3.93552">
        <ele>881.67</ele>
        <time>2026-03-21T13:45:22Z</time>
      </trkpt>
      <trkpt lat="44.47784" lon="3.93552">
        <ele>881.67</ele>
        <time>2026-03-21T13:45:52Z</time>
      </trkpt>
      <trkpt lat="44.47785" lon="3.93553">
        <ele>881.67</ele>
        <time>2026-03-21T13:46:18Z</time>
      </trkpt>
      <trkpt lat="44.47784" lon="3.93553">
        <ele>881.19</ele>
        <time>2026-03-21T13:46:51Z</time>
      </trkpt>
      <trkpt lat="44.47782" lon="3.93553">
        <ele>881.19</ele>
        <time>2026-03-21T13:47:21Z</time>
      </trkpt>
      <trkpt lat="44.47781" lon="3.93552">
        <ele>881.19</ele>
        <time>2026-03-21T13:47:54Z</time>
      </trkpt>
      <trkpt lat="44.4778" lon="3.93552">
        <ele>881.19</ele>
        <time>2026-03-21T13:48:24Z</time>
      </trkpt>
      <trkpt lat="44.47779" lon="3.93552">
        <ele>880.71</ele>
        <time>2026-03-21T13:48:49Z</time>
      </trkpt>
      <trkpt lat="44.47779" lon="3.93553">
        <ele>880.71</ele>
        <time>2026-03-21T13:49:30Z</time>
      </trkpt>
      <trkpt lat="44.47779" lon="3.93553">
        <ele>880.22</ele>
        <time>2026-03-21T13:50:05Z</time>
      </trkpt>
      <trkpt lat="44.47779" lon="3.93553">
        <ele>880.22</ele>
        <time>2026-03-21T13:50:33Z</time>
      </trkpt>
      <trkpt lat="44.4778" lon="3.93552">
        <ele>880.22</ele>
        <time>2026-03-21T13:51:01Z</time>
      </trkpt>
      <trkpt lat="44.4778" lon="3.93553">
        <ele>880.22</ele>
        <time>2026-03-21T13:51:35Z</time>
      </trkpt>
      <trkpt lat="44.47782" lon="3.93553">
        <ele>879.74</ele>
        <time>2026-03-21T13:52:13Z</time>
      </trkpt>
      <trkpt lat="44.47783" lon="3.93553">
        <ele>879.74</ele>
        <time>2026-03-21T13:52:55Z</time>
      </trkpt>
      <trkpt lat="44.47784" lon="3.93553">
        <ele>879.74</ele>
        <time>2026-03-21T13:53:18Z</time>
      </trkpt>
      <trkpt lat="44.4778" lon="3.93554">
        <ele>879.74</ele>
        <time>2026-03-21T13:53:47Z</time>
      </trkpt>
      <trkpt lat="44.47779" lon="3.9355">
        <ele>879.26</ele>
        <time>2026-03-21T13:54:12Z</time>
      </trkpt>
      <trkpt lat="44.47781" lon="3.93552">
        <ele>880.22</ele>
        <time>2026-03-21T13:54:30Z</time>
      </trkpt>
      <trkpt lat="44.47783" lon="3.93544">
        <ele>880.71</ele>
        <time>2026-03-21T13:54:36Z</time>
      </trkpt>
      <trkpt lat="44.47782" lon="3.93537">
        <ele>880.71</ele>
        <time>2026-03-21T13:54:44Z</time>
      </trkpt>
      <trkpt lat="44.47786" lon="3.93512">
        <ele>881.67</ele>
        <time>2026-03-21T13:55:00Z</time>
      </trkpt>
      <trkpt lat="44.47788" lon="3.9349">
        <ele>879.26</ele>
        <time>2026-03-21T13:55:14Z</time>
      </trkpt>
      <trkpt lat="44.47791" lon="3.93482">
        <ele>879.26</ele>
        <time>2026-03-21T13:55:23Z</time>
      </trkpt>
      <trkpt lat="44.47793" lon="3.9348">
        <ele>878.78</ele>
        <time>2026-03-21T13:55:27Z</time>
      </trkpt>
      <trkpt lat="44.47798" lon="3.9348">
        <ele>878.78</ele>
        <time>2026-03-21T13:55:32Z</time>
      </trkpt>
      <trkpt lat="44.47811" lon="3.93463">
        <ele>874.94</ele>
        <time>2026-03-21T13:55:47Z</time>
      </trkpt>
      <trkpt lat="44.47808" lon="3.93452">
        <ele>876.38</ele>
        <time>2026-03-21T13:55:55Z</time>
      </trkpt>
      <trkpt lat="44.47804" lon="3.93446">
        <ele>875.42</ele>
        <time>2026-03-21T13:56:02Z</time>
      </trkpt>
      <trkpt lat="44.47788" lon="3.9343">
        <ele>874.46</ele>
        <time>2026-03-21T13:56:21Z</time>
      </trkpt>
      <trkpt lat="44.4778" lon="3.93405">
        <ele>873.5</ele>
        <time>2026-03-21T13:56:36Z</time>
      </trkpt>
      <trkpt lat="44.47779" lon="3.93404">
        <ele>873.5</ele>
        <time>2026-03-21T13:56:37Z</time>
      </trkpt>
      <trkpt lat="44.47776" lon="3.93399">
        <ele>873.5</ele>
        <time>2026-03-21T13:56:42Z</time>
      </trkpt>
      <trkpt lat="44.47775" lon="3.93394">
        <ele>873.5</ele>
        <time>2026-03-21T13:56:46Z</time>
      </trkpt>
      <trkpt lat="44.47777" lon="3.93376">
        <ele>873.5</ele>
        <time>2026-03-21T13:57:02Z</time>
      </trkpt>
      <trkpt lat="44.47778" lon="3.93379">
        <ele>873.01</ele>
        <time>2026-03-21T13:57:20Z</time>
      </trkpt>
      <trkpt lat="44.47779" lon="3.93385">
        <ele>873.01</ele>
        <time>2026-03-21T13:57:45Z</time>
      </trkpt>
      <trkpt lat="44.47778" lon="3.93382">
        <ele>874.46</ele>
        <time>2026-03-21T13:57:55Z</time>
      </trkpt>
    </trkseg>
  </trk>
</gpx>